<?xml version="1.0" encoding="UTF-8" standalone="no" ?>
<gpx xmlns="http://www.topografix.com/GPX/1/1" xmlns:xsi="http://www.w3.org/2001/XMLSchema-instance" xsi:schemaLocation="http://www.topografix.com/GPX/1/1 http://www.topografix.com/GPX/1/1/gpx.xsd" version="1.1" creator="VisuGPX - https://www.visugpx.com">
  <metadata>
    <name>malpasse les adrets</name>
    <desc><![CDATA[Jolies vues. Montée au dessus du las sc un peu severe]]></desc>
  </metadata>
  <trk>
    <name><![CDATA[2016-01-16 malpassé]]></name>
    <desc><![CDATA[<h1>OruxMaps</h1><br /><hr align="center" width="480" style="height: 2px; width: 517px"/><h2>Nom: 2016-01-16 malpassé</h2><br /><p>Temps de départ: 01/16/2016 12:53</p><p>Temps d'arrivée: 01/16/2016 17:09</p><p>Distance: 36,3km (04:15)</p><p>Temps déplacement: 03:04</p><p>Vitesse moyenne: 8,5km/h</p><p>Vitesse moyenne: 11,8km/h</p><p>Vitess Max.: 37,8km/h</p><p>Altitude minimale: 26m</p><p>Altitude maximale: 342m</p><p>Vitesse d'élévation: 568,2m/h</p><p>Vitesse de descente: -711,3m/h</p><p>Gain Altitude: 1187m</p><p>Perte Altitude: -1162m</p><p>Temps d'élévation: 02:05</p><p>Temps de descente: 01:38</p><hr align="center" width="480" style="height: 2px; width: 517px"/>]]></desc>
    <trkseg>
      <trkpt lat="43.55241" lon="6.79378">
        <ele>139.11</ele>
        <time>2016-01-16T11:53:56Z</time>
      </trkpt>
      <trkpt lat="43.55241" lon="6.79378">
        <ele>139.18</ele>
        <time>2016-01-16T11:54:08Z</time>
      </trkpt>
      <trkpt lat="43.55242" lon="6.79376">
        <ele>148.18</ele>
        <time>2016-01-16T12:20:37Z</time>
      </trkpt>
      <trkpt lat="43.55226" lon="6.79394">
        <ele>143.77</ele>
        <time>2016-01-16T12:22:44Z</time>
      </trkpt>
      <trkpt lat="43.55213" lon="6.79413">
        <ele>144.53</ele>
        <time>2016-01-16T12:22:48Z</time>
      </trkpt>
      <trkpt lat="43.55206" lon="6.7944">
        <ele>146.16</ele>
        <time>2016-01-16T12:22:53Z</time>
      </trkpt>
      <trkpt lat="43.55198" lon="6.79462">
        <ele>145.74</ele>
        <time>2016-01-16T12:22:58Z</time>
      </trkpt>
      <trkpt lat="43.55198" lon="6.79436">
        <ele>146.51</ele>
        <time>2016-01-16T12:23:08Z</time>
      </trkpt>
      <trkpt lat="43.55205" lon="6.79411">
        <ele>145.01</ele>
        <time>2016-01-16T12:23:13Z</time>
      </trkpt>
      <trkpt lat="43.5521" lon="6.79384">
        <ele>144.98</ele>
        <time>2016-01-16T12:23:17Z</time>
      </trkpt>
      <trkpt lat="43.55216" lon="6.79359">
        <ele>143.03</ele>
        <time>2016-01-16T12:23:20Z</time>
      </trkpt>
      <trkpt lat="43.55216" lon="6.79327">
        <ele>140.28</ele>
        <time>2016-01-16T12:23:23Z</time>
      </trkpt>
      <trkpt lat="43.55211" lon="6.79292">
        <ele>140.31</ele>
        <time>2016-01-16T12:23:26Z</time>
      </trkpt>
      <trkpt lat="43.55207" lon="6.79264">
        <ele>139.71</ele>
        <time>2016-01-16T12:23:28Z</time>
      </trkpt>
      <trkpt lat="43.55203" lon="6.79238">
        <ele>137.06</ele>
        <time>2016-01-16T12:23:30Z</time>
      </trkpt>
      <trkpt lat="43.55202" lon="6.79211">
        <ele>135.9</ele>
        <time>2016-01-16T12:23:32Z</time>
      </trkpt>
      <trkpt lat="43.55195" lon="6.79185">
        <ele>135.61</ele>
        <time>2016-01-16T12:23:34Z</time>
      </trkpt>
      <trkpt lat="43.55186" lon="6.79158">
        <ele>134.78</ele>
        <time>2016-01-16T12:23:36Z</time>
      </trkpt>
      <trkpt lat="43.55174" lon="6.79125">
        <ele>132.88</ele>
        <time>2016-01-16T12:23:39Z</time>
      </trkpt>
      <trkpt lat="43.55159" lon="6.79097">
        <ele>132.01</ele>
        <time>2016-01-16T12:23:42Z</time>
      </trkpt>
      <trkpt lat="43.55142" lon="6.79083">
        <ele>130.64</ele>
        <time>2016-01-16T12:23:44Z</time>
      </trkpt>
      <trkpt lat="43.55125" lon="6.79066">
        <ele>130.29</ele>
        <time>2016-01-16T12:23:46Z</time>
      </trkpt>
      <trkpt lat="43.55108" lon="6.79054">
        <ele>129.7</ele>
        <time>2016-01-16T12:23:48Z</time>
      </trkpt>
      <trkpt lat="43.55084" lon="6.79039">
        <ele>128.49</ele>
        <time>2016-01-16T12:23:51Z</time>
      </trkpt>
      <trkpt lat="43.55062" lon="6.79033">
        <ele>127.59</ele>
        <time>2016-01-16T12:23:54Z</time>
      </trkpt>
      <trkpt lat="43.55038" lon="6.79015">
        <ele>125.85</ele>
        <time>2016-01-16T12:23:57Z</time>
      </trkpt>
      <trkpt lat="43.55018" lon="6.79">
        <ele>122.51</ele>
        <time>2016-01-16T12:24:00Z</time>
      </trkpt>
      <trkpt lat="43.55003" lon="6.78982">
        <ele>119.72</ele>
        <time>2016-01-16T12:24:03Z</time>
      </trkpt>
      <trkpt lat="43.5499" lon="6.78959">
        <ele>121.12</ele>
        <time>2016-01-16T12:24:06Z</time>
      </trkpt>
      <trkpt lat="43.54977" lon="6.78931">
        <ele>119.42</ele>
        <time>2016-01-16T12:24:09Z</time>
      </trkpt>
      <trkpt lat="43.54969" lon="6.78906">
        <ele>120.33</ele>
        <time>2016-01-16T12:24:12Z</time>
      </trkpt>
      <trkpt lat="43.54955" lon="6.78888">
        <ele>120.93</ele>
        <time>2016-01-16T12:24:17Z</time>
      </trkpt>
      <trkpt lat="43.54937" lon="6.78907">
        <ele>123.09</ele>
        <time>2016-01-16T12:24:23Z</time>
      </trkpt>
      <trkpt lat="43.54924" lon="6.78933">
        <ele>123.17</ele>
        <time>2016-01-16T12:24:27Z</time>
      </trkpt>
      <trkpt lat="43.54914" lon="6.78954">
        <ele>122.74</ele>
        <time>2016-01-16T12:24:31Z</time>
      </trkpt>
      <trkpt lat="43.54902" lon="6.78973">
        <ele>122.5</ele>
        <time>2016-01-16T12:24:34Z</time>
      </trkpt>
      <trkpt lat="43.5489" lon="6.78998">
        <ele>122.2</ele>
        <time>2016-01-16T12:24:38Z</time>
      </trkpt>
      <trkpt lat="43.54876" lon="6.79024">
        <ele>121.3</ele>
        <time>2016-01-16T12:24:42Z</time>
      </trkpt>
      <trkpt lat="43.5486" lon="6.79045">
        <ele>119.57</ele>
        <time>2016-01-16T12:24:45Z</time>
      </trkpt>
      <trkpt lat="43.54844" lon="6.79061">
        <ele>118.72</ele>
        <time>2016-01-16T12:24:48Z</time>
      </trkpt>
      <trkpt lat="43.54828" lon="6.79075">
        <ele>119.12</ele>
        <time>2016-01-16T12:24:51Z</time>
      </trkpt>
      <trkpt lat="43.54806" lon="6.79082">
        <ele>119.3</ele>
        <time>2016-01-16T12:24:55Z</time>
      </trkpt>
      <trkpt lat="43.54787" lon="6.79095">
        <ele>121.62</ele>
        <time>2016-01-16T12:24:59Z</time>
      </trkpt>
      <trkpt lat="43.54774" lon="6.79113">
        <ele>121.39</ele>
        <time>2016-01-16T12:25:03Z</time>
      </trkpt>
      <trkpt lat="43.54761" lon="6.79136">
        <ele>121.81</ele>
        <time>2016-01-16T12:25:07Z</time>
      </trkpt>
      <trkpt lat="43.54746" lon="6.79157">
        <ele>119.84</ele>
        <time>2016-01-16T12:25:11Z</time>
      </trkpt>
      <trkpt lat="43.54735" lon="6.79179">
        <ele>120.51</ele>
        <time>2016-01-16T12:25:17Z</time>
      </trkpt>
      <trkpt lat="43.54636" lon="6.79184">
        <ele>118.93</ele>
        <time>2016-01-16T12:25:41Z</time>
      </trkpt>
      <trkpt lat="43.54616" lon="6.79191">
        <ele>117.36</ele>
        <time>2016-01-16T12:25:47Z</time>
      </trkpt>
      <trkpt lat="43.54597" lon="6.79203">
        <ele>119.62</ele>
        <time>2016-01-16T12:25:52Z</time>
      </trkpt>
      <trkpt lat="43.54575" lon="6.7921">
        <ele>118.91</ele>
        <time>2016-01-16T12:25:57Z</time>
      </trkpt>
      <trkpt lat="43.54558" lon="6.79199">
        <ele>118.32</ele>
        <time>2016-01-16T12:26:02Z</time>
      </trkpt>
      <trkpt lat="43.54541" lon="6.79184">
        <ele>121.18</ele>
        <time>2016-01-16T12:26:07Z</time>
      </trkpt>
      <trkpt lat="43.54522" lon="6.7918">
        <ele>124.02</ele>
        <time>2016-01-16T12:26:12Z</time>
      </trkpt>
      <trkpt lat="43.54504" lon="6.79191">
        <ele>123.11</ele>
        <time>2016-01-16T12:26:17Z</time>
      </trkpt>
      <trkpt lat="43.54495" lon="6.79213">
        <ele>124.58</ele>
        <time>2016-01-16T12:26:22Z</time>
      </trkpt>
      <trkpt lat="43.54475" lon="6.79227">
        <ele>125.13</ele>
        <time>2016-01-16T12:26:27Z</time>
      </trkpt>
      <trkpt lat="43.54458" lon="6.79238">
        <ele>126.11</ele>
        <time>2016-01-16T12:26:31Z</time>
      </trkpt>
      <trkpt lat="43.54438" lon="6.79245">
        <ele>126.3</ele>
        <time>2016-01-16T12:26:35Z</time>
      </trkpt>
      <trkpt lat="43.54419" lon="6.79253">
        <ele>127</ele>
        <time>2016-01-16T12:26:39Z</time>
      </trkpt>
      <trkpt lat="43.54422" lon="6.79278">
        <ele>129.07</ele>
        <time>2016-01-16T12:26:46Z</time>
      </trkpt>
      <trkpt lat="43.54442" lon="6.79274">
        <ele>127.3</ele>
        <time>2016-01-16T12:26:51Z</time>
      </trkpt>
      <trkpt lat="43.54465" lon="6.79271">
        <ele>126.8</ele>
        <time>2016-01-16T12:26:56Z</time>
      </trkpt>
      <trkpt lat="43.54486" lon="6.79276">
        <ele>127.47</ele>
        <time>2016-01-16T12:27:00Z</time>
      </trkpt>
      <trkpt lat="43.54503" lon="6.79288">
        <ele>131.63</ele>
        <time>2016-01-16T12:27:04Z</time>
      </trkpt>
      <trkpt lat="43.5452" lon="6.79307">
        <ele>135.14</ele>
        <time>2016-01-16T12:27:08Z</time>
      </trkpt>
      <trkpt lat="43.54535" lon="6.79323">
        <ele>139.42</ele>
        <time>2016-01-16T12:27:11Z</time>
      </trkpt>
      <trkpt lat="43.54553" lon="6.79342">
        <ele>144.25</ele>
        <time>2016-01-16T12:27:15Z</time>
      </trkpt>
      <trkpt lat="43.54574" lon="6.7934">
        <ele>145.93</ele>
        <time>2016-01-16T12:27:19Z</time>
      </trkpt>
      <trkpt lat="43.54591" lon="6.79332">
        <ele>150.1</ele>
        <time>2016-01-16T12:27:23Z</time>
      </trkpt>
      <trkpt lat="43.54611" lon="6.79331">
        <ele>151.61</ele>
        <time>2016-01-16T12:27:27Z</time>
      </trkpt>
      <trkpt lat="43.54635" lon="6.79337">
        <ele>154.83</ele>
        <time>2016-01-16T12:27:31Z</time>
      </trkpt>
      <trkpt lat="43.54655" lon="6.79347">
        <ele>156.53</ele>
        <time>2016-01-16T12:27:35Z</time>
      </trkpt>
      <trkpt lat="43.5467" lon="6.7936">
        <ele>158.22</ele>
        <time>2016-01-16T12:27:38Z</time>
      </trkpt>
      <trkpt lat="43.54684" lon="6.79384">
        <ele>162.05</ele>
        <time>2016-01-16T12:27:42Z</time>
      </trkpt>
      <trkpt lat="43.54695" lon="6.79412">
        <ele>164.29</ele>
        <time>2016-01-16T12:27:46Z</time>
      </trkpt>
      <trkpt lat="43.54706" lon="6.79435">
        <ele>165.06</ele>
        <time>2016-01-16T12:27:50Z</time>
      </trkpt>
      <trkpt lat="43.54717" lon="6.79461">
        <ele>165.7</ele>
        <time>2016-01-16T12:27:55Z</time>
      </trkpt>
      <trkpt lat="43.54729" lon="6.79489">
        <ele>164.38</ele>
        <time>2016-01-16T12:28:00Z</time>
      </trkpt>
      <trkpt lat="43.54737" lon="6.79516">
        <ele>165.59</ele>
        <time>2016-01-16T12:28:05Z</time>
      </trkpt>
      <trkpt lat="43.54743" lon="6.79542">
        <ele>166.89</ele>
        <time>2016-01-16T12:28:09Z</time>
      </trkpt>
      <trkpt lat="43.54745" lon="6.79577">
        <ele>171.43</ele>
        <time>2016-01-16T12:30:18Z</time>
      </trkpt>
      <trkpt lat="43.54754" lon="6.79604">
        <ele>170.25</ele>
        <time>2016-01-16T12:30:22Z</time>
      </trkpt>
      <trkpt lat="43.54769" lon="6.79619">
        <ele>169.69</ele>
        <time>2016-01-16T12:30:25Z</time>
      </trkpt>
      <trkpt lat="43.54785" lon="6.7964">
        <ele>167.08</ele>
        <time>2016-01-16T12:30:29Z</time>
      </trkpt>
      <trkpt lat="43.54778" lon="6.79663">
        <ele>169.73</ele>
        <time>2016-01-16T12:30:37Z</time>
      </trkpt>
      <trkpt lat="43.5478" lon="6.79689">
        <ele>168.5</ele>
        <time>2016-01-16T12:30:45Z</time>
      </trkpt>
      <trkpt lat="43.54791" lon="6.79709">
        <ele>164.17</ele>
        <time>2016-01-16T12:30:56Z</time>
      </trkpt>
      <trkpt lat="43.54804" lon="6.79729">
        <ele>163.19</ele>
        <time>2016-01-16T12:31:07Z</time>
      </trkpt>
      <trkpt lat="43.54808" lon="6.79756">
        <ele>164.61</ele>
        <time>2016-01-16T12:31:15Z</time>
      </trkpt>
      <trkpt lat="43.54808" lon="6.79785">
        <ele>162.71</ele>
        <time>2016-01-16T12:31:22Z</time>
      </trkpt>
      <trkpt lat="43.54807" lon="6.79811">
        <ele>159.84</ele>
        <time>2016-01-16T12:31:28Z</time>
      </trkpt>
      <trkpt lat="43.54804" lon="6.79838">
        <ele>158.44</ele>
        <time>2016-01-16T12:31:34Z</time>
      </trkpt>
      <trkpt lat="43.54798" lon="6.79865">
        <ele>159.76</ele>
        <time>2016-01-16T12:31:40Z</time>
      </trkpt>
      <trkpt lat="43.54777" lon="6.79869">
        <ele>157.69</ele>
        <time>2016-01-16T12:31:47Z</time>
      </trkpt>
      <trkpt lat="43.54759" lon="6.79871">
        <ele>156.24</ele>
        <time>2016-01-16T12:31:54Z</time>
      </trkpt>
      <trkpt lat="43.54756" lon="6.79896">
        <ele>156.25</ele>
        <time>2016-01-16T12:32:08Z</time>
      </trkpt>
      <trkpt lat="43.5476" lon="6.79924">
        <ele>157.24</ele>
        <time>2016-01-16T12:32:14Z</time>
      </trkpt>
      <trkpt lat="43.54759" lon="6.79952">
        <ele>156.33</ele>
        <time>2016-01-16T12:32:19Z</time>
      </trkpt>
      <trkpt lat="43.5476" lon="6.79977">
        <ele>159.71</ele>
        <time>2016-01-16T12:32:24Z</time>
      </trkpt>
      <trkpt lat="43.5475" lon="6.80003">
        <ele>164.04</ele>
        <time>2016-01-16T12:32:30Z</time>
      </trkpt>
      <trkpt lat="43.54732" lon="6.80014">
        <ele>162.14</ele>
        <time>2016-01-16T12:32:35Z</time>
      </trkpt>
      <trkpt lat="43.54715" lon="6.80024">
        <ele>160.63</ele>
        <time>2016-01-16T12:32:41Z</time>
      </trkpt>
      <trkpt lat="43.54696" lon="6.80032">
        <ele>160.5</ele>
        <time>2016-01-16T12:32:52Z</time>
      </trkpt>
      <trkpt lat="43.54681" lon="6.8005">
        <ele>162.66</ele>
        <time>2016-01-16T12:32:59Z</time>
      </trkpt>
      <trkpt lat="43.54661" lon="6.80059">
        <ele>165.33</ele>
        <time>2016-01-16T12:33:07Z</time>
      </trkpt>
      <trkpt lat="43.54641" lon="6.80057">
        <ele>166.29</ele>
        <time>2016-01-16T12:33:13Z</time>
      </trkpt>
      <trkpt lat="43.54623" lon="6.80062">
        <ele>167.08</ele>
        <time>2016-01-16T12:33:19Z</time>
      </trkpt>
      <trkpt lat="43.54604" lon="6.80073">
        <ele>168.89</ele>
        <time>2016-01-16T12:33:25Z</time>
      </trkpt>
      <trkpt lat="43.54586" lon="6.80077">
        <ele>175.01</ele>
        <time>2016-01-16T12:33:30Z</time>
      </trkpt>
      <trkpt lat="43.54568" lon="6.80082">
        <ele>179.51</ele>
        <time>2016-01-16T12:33:35Z</time>
      </trkpt>
      <trkpt lat="43.54551" lon="6.80093">
        <ele>181.03</ele>
        <time>2016-01-16T12:33:40Z</time>
      </trkpt>
      <trkpt lat="43.54537" lon="6.80109">
        <ele>180</ele>
        <time>2016-01-16T12:33:46Z</time>
      </trkpt>
      <trkpt lat="43.5452" lon="6.80125">
        <ele>177.43</ele>
        <time>2016-01-16T12:34:23Z</time>
      </trkpt>
      <trkpt lat="43.54503" lon="6.80138">
        <ele>178.9</ele>
        <time>2016-01-16T12:34:28Z</time>
      </trkpt>
      <trkpt lat="43.54495" lon="6.80163">
        <ele>177.32</ele>
        <time>2016-01-16T12:34:33Z</time>
      </trkpt>
      <trkpt lat="43.54491" lon="6.80188">
        <ele>173.87</ele>
        <time>2016-01-16T12:34:37Z</time>
      </trkpt>
      <trkpt lat="43.54475" lon="6.80207">
        <ele>171.2</ele>
        <time>2016-01-16T12:34:42Z</time>
      </trkpt>
      <trkpt lat="43.54454" lon="6.80211">
        <ele>173.8</ele>
        <time>2016-01-16T12:34:47Z</time>
      </trkpt>
      <trkpt lat="43.54434" lon="6.80209">
        <ele>176.26</ele>
        <time>2016-01-16T12:34:52Z</time>
      </trkpt>
      <trkpt lat="43.54416" lon="6.80201">
        <ele>176.9</ele>
        <time>2016-01-16T12:34:57Z</time>
      </trkpt>
      <trkpt lat="43.54395" lon="6.80203">
        <ele>177.11</ele>
        <time>2016-01-16T12:35:03Z</time>
      </trkpt>
      <trkpt lat="43.54379" lon="6.80216">
        <ele>178.16</ele>
        <time>2016-01-16T12:35:11Z</time>
      </trkpt>
      <trkpt lat="43.54369" lon="6.80239">
        <ele>173.52</ele>
        <time>2016-01-16T12:35:22Z</time>
      </trkpt>
      <trkpt lat="43.54355" lon="6.8026">
        <ele>172.68</ele>
        <time>2016-01-16T12:35:28Z</time>
      </trkpt>
      <trkpt lat="43.5434" lon="6.80279">
        <ele>174.52</ele>
        <time>2016-01-16T12:35:32Z</time>
      </trkpt>
      <trkpt lat="43.54324" lon="6.80298">
        <ele>175.45</ele>
        <time>2016-01-16T12:35:36Z</time>
      </trkpt>
      <trkpt lat="43.54335" lon="6.80322">
        <ele>171.84</ele>
        <time>2016-01-16T12:35:42Z</time>
      </trkpt>
      <trkpt lat="43.54356" lon="6.80337">
        <ele>174.32</ele>
        <time>2016-01-16T12:35:47Z</time>
      </trkpt>
      <trkpt lat="43.54376" lon="6.80339">
        <ele>165.12</ele>
        <time>2016-01-16T12:35:51Z</time>
      </trkpt>
      <trkpt lat="43.54396" lon="6.80335">
        <ele>171.3</ele>
        <time>2016-01-16T12:35:55Z</time>
      </trkpt>
      <trkpt lat="43.54413" lon="6.8035">
        <ele>175.75</ele>
        <time>2016-01-16T12:35:59Z</time>
      </trkpt>
      <trkpt lat="43.54409" lon="6.80381">
        <ele>177.75</ele>
        <time>2016-01-16T12:36:02Z</time>
      </trkpt>
      <trkpt lat="43.54408" lon="6.8041">
        <ele>179.09</ele>
        <time>2016-01-16T12:36:06Z</time>
      </trkpt>
      <trkpt lat="43.54419" lon="6.8043">
        <ele>179.8</ele>
        <time>2016-01-16T12:36:10Z</time>
      </trkpt>
      <trkpt lat="43.54436" lon="6.80444">
        <ele>175.6</ele>
        <time>2016-01-16T12:36:15Z</time>
      </trkpt>
      <trkpt lat="43.54445" lon="6.80468">
        <ele>175.69</ele>
        <time>2016-01-16T12:36:20Z</time>
      </trkpt>
      <trkpt lat="43.54429" lon="6.80482">
        <ele>171.4</ele>
        <time>2016-01-16T12:36:24Z</time>
      </trkpt>
      <trkpt lat="43.54409" lon="6.8049">
        <ele>168.84</ele>
        <time>2016-01-16T12:36:29Z</time>
      </trkpt>
      <trkpt lat="43.54403" lon="6.80514">
        <ele>168.97</ele>
        <time>2016-01-16T12:36:36Z</time>
      </trkpt>
      <trkpt lat="43.5442" lon="6.80524">
        <ele>166.48</ele>
        <time>2016-01-16T12:36:44Z</time>
      </trkpt>
      <trkpt lat="43.54437" lon="6.80536">
        <ele>166.24</ele>
        <time>2016-01-16T12:36:50Z</time>
      </trkpt>
      <trkpt lat="43.54452" lon="6.80554">
        <ele>169.02</ele>
        <time>2016-01-16T12:36:55Z</time>
      </trkpt>
      <trkpt lat="43.54474" lon="6.80565">
        <ele>171.67</ele>
        <time>2016-01-16T12:36:59Z</time>
      </trkpt>
      <trkpt lat="43.54493" lon="6.80581">
        <ele>173.58</ele>
        <time>2016-01-16T12:37:03Z</time>
      </trkpt>
      <trkpt lat="43.54508" lon="6.80594">
        <ele>172.45</ele>
        <time>2016-01-16T12:37:07Z</time>
      </trkpt>
      <trkpt lat="43.54526" lon="6.806">
        <ele>171.96</ele>
        <time>2016-01-16T12:37:10Z</time>
      </trkpt>
      <trkpt lat="43.54544" lon="6.80618">
        <ele>170.79</ele>
        <time>2016-01-16T12:37:14Z</time>
      </trkpt>
      <trkpt lat="43.54548" lon="6.80645">
        <ele>171.13</ele>
        <time>2016-01-16T12:37:17Z</time>
      </trkpt>
      <trkpt lat="43.54543" lon="6.80683">
        <ele>171.86</ele>
        <time>2016-01-16T12:37:21Z</time>
      </trkpt>
      <trkpt lat="43.54536" lon="6.80706">
        <ele>174.64</ele>
        <time>2016-01-16T12:37:24Z</time>
      </trkpt>
      <trkpt lat="43.54528" lon="6.80736">
        <ele>174.64</ele>
        <time>2016-01-16T12:37:28Z</time>
      </trkpt>
      <trkpt lat="43.54521" lon="6.80761">
        <ele>173.89</ele>
        <time>2016-01-16T12:37:32Z</time>
      </trkpt>
      <trkpt lat="43.54501" lon="6.8077">
        <ele>169.7</ele>
        <time>2016-01-16T12:38:24Z</time>
      </trkpt>
      <trkpt lat="43.54482" lon="6.80764">
        <ele>170</ele>
        <time>2016-01-16T12:38:29Z</time>
      </trkpt>
      <trkpt lat="43.5446" lon="6.80761">
        <ele>171.3</ele>
        <time>2016-01-16T12:38:34Z</time>
      </trkpt>
      <trkpt lat="43.54438" lon="6.80759">
        <ele>173</ele>
        <time>2016-01-16T12:38:38Z</time>
      </trkpt>
      <trkpt lat="43.54415" lon="6.80758">
        <ele>173.91</ele>
        <time>2016-01-16T12:38:42Z</time>
      </trkpt>
      <trkpt lat="43.54394" lon="6.80755">
        <ele>175.1</ele>
        <time>2016-01-16T12:38:46Z</time>
      </trkpt>
      <trkpt lat="43.54374" lon="6.80751">
        <ele>175.67</ele>
        <time>2016-01-16T12:38:50Z</time>
      </trkpt>
      <trkpt lat="43.54354" lon="6.80746">
        <ele>178.71</ele>
        <time>2016-01-16T12:38:54Z</time>
      </trkpt>
      <trkpt lat="43.54333" lon="6.80733">
        <ele>177.83</ele>
        <time>2016-01-16T12:38:58Z</time>
      </trkpt>
      <trkpt lat="43.54312" lon="6.80722">
        <ele>175.78</ele>
        <time>2016-01-16T12:39:02Z</time>
      </trkpt>
      <trkpt lat="43.54296" lon="6.80705">
        <ele>175.13</ele>
        <time>2016-01-16T12:39:07Z</time>
      </trkpt>
      <trkpt lat="43.54282" lon="6.80688">
        <ele>175.67</ele>
        <time>2016-01-16T12:39:12Z</time>
      </trkpt>
      <trkpt lat="43.54263" lon="6.80683">
        <ele>174.21</ele>
        <time>2016-01-16T12:39:19Z</time>
      </trkpt>
      <trkpt lat="43.54246" lon="6.80689">
        <ele>172.68</ele>
        <time>2016-01-16T12:39:24Z</time>
      </trkpt>
      <trkpt lat="43.54225" lon="6.80694">
        <ele>170.07</ele>
        <time>2016-01-16T12:39:29Z</time>
      </trkpt>
      <trkpt lat="43.5421" lon="6.80712">
        <ele>172.86</ele>
        <time>2016-01-16T12:39:36Z</time>
      </trkpt>
      <trkpt lat="43.54201" lon="6.80735">
        <ele>176.12</ele>
        <time>2016-01-16T12:39:46Z</time>
      </trkpt>
      <trkpt lat="43.5418" lon="6.80749">
        <ele>175.17</ele>
        <time>2016-01-16T12:39:55Z</time>
      </trkpt>
      <trkpt lat="43.54161" lon="6.80748">
        <ele>177.77</ele>
        <time>2016-01-16T12:40:01Z</time>
      </trkpt>
      <trkpt lat="43.54142" lon="6.80756">
        <ele>176.67</ele>
        <time>2016-01-16T12:40:08Z</time>
      </trkpt>
      <trkpt lat="43.54124" lon="6.80769">
        <ele>175.88</ele>
        <time>2016-01-16T12:40:13Z</time>
      </trkpt>
      <trkpt lat="43.54106" lon="6.80779">
        <ele>172.64</ele>
        <time>2016-01-16T12:40:18Z</time>
      </trkpt>
      <trkpt lat="43.54087" lon="6.80778">
        <ele>171.43</ele>
        <time>2016-01-16T12:40:47Z</time>
      </trkpt>
      <trkpt lat="43.54066" lon="6.80774">
        <ele>170.7</ele>
        <time>2016-01-16T12:40:57Z</time>
      </trkpt>
      <trkpt lat="43.54044" lon="6.80782">
        <ele>166.42</ele>
        <time>2016-01-16T12:41:03Z</time>
      </trkpt>
      <trkpt lat="43.54022" lon="6.80775">
        <ele>166.81</ele>
        <time>2016-01-16T12:41:08Z</time>
      </trkpt>
      <trkpt lat="43.54004" lon="6.80768">
        <ele>166.35</ele>
        <time>2016-01-16T12:41:13Z</time>
      </trkpt>
      <trkpt lat="43.53983" lon="6.80763">
        <ele>169.84</ele>
        <time>2016-01-16T12:41:18Z</time>
      </trkpt>
      <trkpt lat="43.53964" lon="6.80766">
        <ele>171.53</ele>
        <time>2016-01-16T12:41:22Z</time>
      </trkpt>
      <trkpt lat="43.53944" lon="6.80771">
        <ele>175.75</ele>
        <time>2016-01-16T12:41:27Z</time>
      </trkpt>
      <trkpt lat="43.53924" lon="6.80771">
        <ele>177.19</ele>
        <time>2016-01-16T12:41:32Z</time>
      </trkpt>
      <trkpt lat="43.53906" lon="6.80767">
        <ele>176.3</ele>
        <time>2016-01-16T12:41:36Z</time>
      </trkpt>
      <trkpt lat="43.5389" lon="6.80754">
        <ele>177.12</ele>
        <time>2016-01-16T12:41:41Z</time>
      </trkpt>
      <trkpt lat="43.53872" lon="6.80753">
        <ele>175.04</ele>
        <time>2016-01-16T12:41:49Z</time>
      </trkpt>
      <trkpt lat="43.53852" lon="6.80753">
        <ele>176.2</ele>
        <time>2016-01-16T12:41:54Z</time>
      </trkpt>
      <trkpt lat="43.53834" lon="6.80755">
        <ele>173.37</ele>
        <time>2016-01-16T12:42:01Z</time>
      </trkpt>
      <trkpt lat="43.53814" lon="6.80749">
        <ele>173.98</ele>
        <time>2016-01-16T12:42:07Z</time>
      </trkpt>
      <trkpt lat="43.53796" lon="6.80745">
        <ele>179.08</ele>
        <time>2016-01-16T12:42:20Z</time>
      </trkpt>
      <trkpt lat="43.53777" lon="6.80752">
        <ele>179.1</ele>
        <time>2016-01-16T12:42:27Z</time>
      </trkpt>
      <trkpt lat="43.53757" lon="6.80754">
        <ele>178.8</ele>
        <time>2016-01-16T12:42:32Z</time>
      </trkpt>
      <trkpt lat="43.53735" lon="6.80755">
        <ele>179.29</ele>
        <time>2016-01-16T12:42:37Z</time>
      </trkpt>
      <trkpt lat="43.53716" lon="6.80757">
        <ele>180.68</ele>
        <time>2016-01-16T12:42:41Z</time>
      </trkpt>
      <trkpt lat="43.53698" lon="6.80761">
        <ele>187.38</ele>
        <time>2016-01-16T12:42:46Z</time>
      </trkpt>
      <trkpt lat="43.53683" lon="6.8078">
        <ele>188.56</ele>
        <time>2016-01-16T12:42:51Z</time>
      </trkpt>
      <trkpt lat="43.53663" lon="6.80794">
        <ele>186.19</ele>
        <time>2016-01-16T12:42:56Z</time>
      </trkpt>
      <trkpt lat="43.53644" lon="6.80791">
        <ele>186.55</ele>
        <time>2016-01-16T12:43:01Z</time>
      </trkpt>
      <trkpt lat="43.53625" lon="6.80778">
        <ele>188.17</ele>
        <time>2016-01-16T12:43:07Z</time>
      </trkpt>
      <trkpt lat="43.53606" lon="6.8078">
        <ele>188.63</ele>
        <time>2016-01-16T12:43:13Z</time>
      </trkpt>
      <trkpt lat="43.53587" lon="6.8079">
        <ele>187.2</ele>
        <time>2016-01-16T12:43:20Z</time>
      </trkpt>
      <trkpt lat="43.53569" lon="6.80792">
        <ele>189.38</ele>
        <time>2016-01-16T12:43:27Z</time>
      </trkpt>
      <trkpt lat="43.53551" lon="6.80809">
        <ele>195.3</ele>
        <time>2016-01-16T12:43:33Z</time>
      </trkpt>
      <trkpt lat="43.5353" lon="6.80815">
        <ele>196.62</ele>
        <time>2016-01-16T12:43:37Z</time>
      </trkpt>
      <trkpt lat="43.5351" lon="6.8082">
        <ele>195.77</ele>
        <time>2016-01-16T12:43:41Z</time>
      </trkpt>
      <trkpt lat="43.53492" lon="6.80821">
        <ele>194.01</ele>
        <time>2016-01-16T12:43:47Z</time>
      </trkpt>
      <trkpt lat="43.53475" lon="6.80829">
        <ele>190.77</ele>
        <time>2016-01-16T12:43:55Z</time>
      </trkpt>
      <trkpt lat="43.53456" lon="6.80843">
        <ele>191.48</ele>
        <time>2016-01-16T12:44:00Z</time>
      </trkpt>
      <trkpt lat="43.53437" lon="6.80853">
        <ele>193.47</ele>
        <time>2016-01-16T12:44:05Z</time>
      </trkpt>
      <trkpt lat="43.5342" lon="6.80867">
        <ele>194.5</ele>
        <time>2016-01-16T12:44:10Z</time>
      </trkpt>
      <trkpt lat="43.53403" lon="6.8088">
        <ele>195.97</ele>
        <time>2016-01-16T12:44:15Z</time>
      </trkpt>
      <trkpt lat="43.53384" lon="6.80882">
        <ele>191.99</ele>
        <time>2016-01-16T12:44:22Z</time>
      </trkpt>
      <trkpt lat="43.53366" lon="6.80889">
        <ele>189.21</ele>
        <time>2016-01-16T12:44:30Z</time>
      </trkpt>
      <trkpt lat="43.53348" lon="6.80894">
        <ele>192.18</ele>
        <time>2016-01-16T12:44:35Z</time>
      </trkpt>
      <trkpt lat="43.53328" lon="6.80895">
        <ele>195.39</ele>
        <time>2016-01-16T12:44:40Z</time>
      </trkpt>
      <trkpt lat="43.53314" lon="6.80918">
        <ele>210.58</ele>
        <time>2016-01-16T12:44:50Z</time>
      </trkpt>
      <trkpt lat="43.53302" lon="6.80936">
        <ele>216.29</ele>
        <time>2016-01-16T12:44:57Z</time>
      </trkpt>
      <trkpt lat="43.53286" lon="6.80958">
        <ele>213.52</ele>
        <time>2016-01-16T12:45:02Z</time>
      </trkpt>
      <trkpt lat="43.53272" lon="6.80977">
        <ele>213.26</ele>
        <time>2016-01-16T12:45:06Z</time>
      </trkpt>
      <trkpt lat="43.53259" lon="6.81">
        <ele>212.21</ele>
        <time>2016-01-16T12:45:11Z</time>
      </trkpt>
      <trkpt lat="43.53247" lon="6.81019">
        <ele>209.74</ele>
        <time>2016-01-16T12:45:15Z</time>
      </trkpt>
      <trkpt lat="43.53237" lon="6.81043">
        <ele>213.04</ele>
        <time>2016-01-16T12:45:20Z</time>
      </trkpt>
      <trkpt lat="43.53223" lon="6.81059">
        <ele>212.54</ele>
        <time>2016-01-16T12:45:24Z</time>
      </trkpt>
      <trkpt lat="43.5321" lon="6.81081">
        <ele>213.17</ele>
        <time>2016-01-16T12:45:30Z</time>
      </trkpt>
      <trkpt lat="43.53197" lon="6.81099">
        <ele>211.91</ele>
        <time>2016-01-16T12:45:37Z</time>
      </trkpt>
      <trkpt lat="43.53193" lon="6.81124">
        <ele>218</ele>
        <time>2016-01-16T12:46:59Z</time>
      </trkpt>
      <trkpt lat="43.53182" lon="6.81144">
        <ele>220.36</ele>
        <time>2016-01-16T12:47:30Z</time>
      </trkpt>
      <trkpt lat="43.53176" lon="6.81168">
        <ele>226.49</ele>
        <time>2016-01-16T12:47:52Z</time>
      </trkpt>
      <trkpt lat="43.53163" lon="6.81184">
        <ele>233.17</ele>
        <time>2016-01-16T12:48:16Z</time>
      </trkpt>
      <trkpt lat="43.53151" lon="6.81205">
        <ele>230.31</ele>
        <time>2016-01-16T12:48:58Z</time>
      </trkpt>
      <trkpt lat="43.53136" lon="6.81217">
        <ele>230.96</ele>
        <time>2016-01-16T12:50:47Z</time>
      </trkpt>
      <trkpt lat="43.53127" lon="6.81243">
        <ele>231.54</ele>
        <time>2016-01-16T12:51:36Z</time>
      </trkpt>
      <trkpt lat="43.53119" lon="6.81266">
        <ele>239.05</ele>
        <time>2016-01-16T12:52:21Z</time>
      </trkpt>
      <trkpt lat="43.53105" lon="6.81283">
        <ele>238.13</ele>
        <time>2016-01-16T12:52:50Z</time>
      </trkpt>
      <trkpt lat="43.53087" lon="6.81276">
        <ele>241.69</ele>
        <time>2016-01-16T12:53:53Z</time>
      </trkpt>
      <trkpt lat="43.53085" lon="6.81252">
        <ele>243.77</ele>
        <time>2016-01-16T12:54:15Z</time>
      </trkpt>
      <trkpt lat="43.53091" lon="6.81228">
        <ele>258.28</ele>
        <time>2016-01-16T12:54:35Z</time>
      </trkpt>
      <trkpt lat="43.53076" lon="6.81213">
        <ele>256.68</ele>
        <time>2016-01-16T12:55:36Z</time>
      </trkpt>
      <trkpt lat="43.5306" lon="6.81228">
        <ele>259.69</ele>
        <time>2016-01-16T12:55:41Z</time>
      </trkpt>
      <trkpt lat="43.53043" lon="6.81239">
        <ele>255.86</ele>
        <time>2016-01-16T12:55:47Z</time>
      </trkpt>
      <trkpt lat="43.53033" lon="6.8126">
        <ele>255</ele>
        <time>2016-01-16T12:55:53Z</time>
      </trkpt>
      <trkpt lat="43.53016" lon="6.81281">
        <ele>255.36</ele>
        <time>2016-01-16T12:56:01Z</time>
      </trkpt>
      <trkpt lat="43.53012" lon="6.81306">
        <ele>262.64</ele>
        <time>2016-01-16T12:56:13Z</time>
      </trkpt>
      <trkpt lat="43.52996" lon="6.81319">
        <ele>265.64</ele>
        <time>2016-01-16T12:56:34Z</time>
      </trkpt>
      <trkpt lat="43.5298" lon="6.81335">
        <ele>270.29</ele>
        <time>2016-01-16T12:56:56Z</time>
      </trkpt>
      <trkpt lat="43.52961" lon="6.8134">
        <ele>267.89</ele>
        <time>2016-01-16T12:57:45Z</time>
      </trkpt>
      <trkpt lat="43.52939" lon="6.81336">
        <ele>272.16</ele>
        <time>2016-01-16T12:57:51Z</time>
      </trkpt>
      <trkpt lat="43.52922" lon="6.81346">
        <ele>276.11</ele>
        <time>2016-01-16T12:57:57Z</time>
      </trkpt>
      <trkpt lat="43.52907" lon="6.81366">
        <ele>277.24</ele>
        <time>2016-01-16T12:58:02Z</time>
      </trkpt>
      <trkpt lat="43.5289" lon="6.81387">
        <ele>279.01</ele>
        <time>2016-01-16T12:58:08Z</time>
      </trkpt>
      <trkpt lat="43.52875" lon="6.81406">
        <ele>282.48</ele>
        <time>2016-01-16T12:58:12Z</time>
      </trkpt>
      <trkpt lat="43.52859" lon="6.81424">
        <ele>286.76</ele>
        <time>2016-01-16T12:58:16Z</time>
      </trkpt>
      <trkpt lat="43.52844" lon="6.81441">
        <ele>289.88</ele>
        <time>2016-01-16T12:58:21Z</time>
      </trkpt>
      <trkpt lat="43.52826" lon="6.81456">
        <ele>291.75</ele>
        <time>2016-01-16T12:58:27Z</time>
      </trkpt>
      <trkpt lat="43.52809" lon="6.81472">
        <ele>294.82</ele>
        <time>2016-01-16T12:58:32Z</time>
      </trkpt>
      <trkpt lat="43.5279" lon="6.81481">
        <ele>294.45</ele>
        <time>2016-01-16T12:58:38Z</time>
      </trkpt>
      <trkpt lat="43.5277" lon="6.81485">
        <ele>293.76</ele>
        <time>2016-01-16T12:58:42Z</time>
      </trkpt>
      <trkpt lat="43.52751" lon="6.81481">
        <ele>290.27</ele>
        <time>2016-01-16T12:58:46Z</time>
      </trkpt>
      <trkpt lat="43.52731" lon="6.81485">
        <ele>289.12</ele>
        <time>2016-01-16T12:58:51Z</time>
      </trkpt>
      <trkpt lat="43.52713" lon="6.81483">
        <ele>290.11</ele>
        <time>2016-01-16T12:58:55Z</time>
      </trkpt>
      <trkpt lat="43.52707" lon="6.81455">
        <ele>295.46</ele>
        <time>2016-01-16T12:59:00Z</time>
      </trkpt>
      <trkpt lat="43.52689" lon="6.81451">
        <ele>295.06</ele>
        <time>2016-01-16T12:59:05Z</time>
      </trkpt>
      <trkpt lat="43.52672" lon="6.81443">
        <ele>294.42</ele>
        <time>2016-01-16T12:59:10Z</time>
      </trkpt>
      <trkpt lat="43.52653" lon="6.81445">
        <ele>294.12</ele>
        <time>2016-01-16T12:59:15Z</time>
      </trkpt>
      <trkpt lat="43.52635" lon="6.8144">
        <ele>305.33</ele>
        <time>2016-01-16T12:59:57Z</time>
      </trkpt>
      <trkpt lat="43.52621" lon="6.81423">
        <ele>303.94</ele>
        <time>2016-01-16T13:00:01Z</time>
      </trkpt>
      <trkpt lat="43.52602" lon="6.81408">
        <ele>305.6</ele>
        <time>2016-01-16T13:00:05Z</time>
      </trkpt>
      <trkpt lat="43.52586" lon="6.81393">
        <ele>308.94</ele>
        <time>2016-01-16T13:00:10Z</time>
      </trkpt>
      <trkpt lat="43.52567" lon="6.81382">
        <ele>307.63</ele>
        <time>2016-01-16T13:00:17Z</time>
      </trkpt>
      <trkpt lat="43.52555" lon="6.81362">
        <ele>306.41</ele>
        <time>2016-01-16T13:00:22Z</time>
      </trkpt>
      <trkpt lat="43.5254" lon="6.81346">
        <ele>306.57</ele>
        <time>2016-01-16T13:00:26Z</time>
      </trkpt>
      <trkpt lat="43.52524" lon="6.81331">
        <ele>305.08</ele>
        <time>2016-01-16T13:00:30Z</time>
      </trkpt>
      <trkpt lat="43.52502" lon="6.81323">
        <ele>304.7</ele>
        <time>2016-01-16T13:00:35Z</time>
      </trkpt>
      <trkpt lat="43.52488" lon="6.81308">
        <ele>306.88</ele>
        <time>2016-01-16T13:00:40Z</time>
      </trkpt>
      <trkpt lat="43.52475" lon="6.81286">
        <ele>306.67</ele>
        <time>2016-01-16T13:00:45Z</time>
      </trkpt>
      <trkpt lat="43.52464" lon="6.81264">
        <ele>304.72</ele>
        <time>2016-01-16T13:00:50Z</time>
      </trkpt>
      <trkpt lat="43.52446" lon="6.81246">
        <ele>302.35</ele>
        <time>2016-01-16T13:00:55Z</time>
      </trkpt>
      <trkpt lat="43.52433" lon="6.81228">
        <ele>303.81</ele>
        <time>2016-01-16T13:01:00Z</time>
      </trkpt>
      <trkpt lat="43.52415" lon="6.81216">
        <ele>300.22</ele>
        <time>2016-01-16T13:01:04Z</time>
      </trkpt>
      <trkpt lat="43.52399" lon="6.81201">
        <ele>302.56</ele>
        <time>2016-01-16T13:01:07Z</time>
      </trkpt>
      <trkpt lat="43.52382" lon="6.81184">
        <ele>304.47</ele>
        <time>2016-01-16T13:01:10Z</time>
      </trkpt>
      <trkpt lat="43.52367" lon="6.81167">
        <ele>306.71</ele>
        <time>2016-01-16T13:01:13Z</time>
      </trkpt>
      <trkpt lat="43.52352" lon="6.81151">
        <ele>306.87</ele>
        <time>2016-01-16T13:01:16Z</time>
      </trkpt>
      <trkpt lat="43.52339" lon="6.81132">
        <ele>306.76</ele>
        <time>2016-01-16T13:01:19Z</time>
      </trkpt>
      <trkpt lat="43.52323" lon="6.81108">
        <ele>308.96</ele>
        <time>2016-01-16T13:01:23Z</time>
      </trkpt>
      <trkpt lat="43.52307" lon="6.81091">
        <ele>310.35</ele>
        <time>2016-01-16T13:01:27Z</time>
      </trkpt>
      <trkpt lat="43.5229" lon="6.81075">
        <ele>310.81</ele>
        <time>2016-01-16T13:01:31Z</time>
      </trkpt>
      <trkpt lat="43.52273" lon="6.81053">
        <ele>311.03</ele>
        <time>2016-01-16T13:01:35Z</time>
      </trkpt>
      <trkpt lat="43.5226" lon="6.81036">
        <ele>311.91</ele>
        <time>2016-01-16T13:01:38Z</time>
      </trkpt>
      <trkpt lat="43.52243" lon="6.81015">
        <ele>312.66</ele>
        <time>2016-01-16T13:01:42Z</time>
      </trkpt>
      <trkpt lat="43.52224" lon="6.80998">
        <ele>312.77</ele>
        <time>2016-01-16T13:01:46Z</time>
      </trkpt>
      <trkpt lat="43.52204" lon="6.80987">
        <ele>308.65</ele>
        <time>2016-01-16T13:01:50Z</time>
      </trkpt>
      <trkpt lat="43.52184" lon="6.80991">
        <ele>312.77</ele>
        <time>2016-01-16T13:01:54Z</time>
      </trkpt>
      <trkpt lat="43.52165" lon="6.80999">
        <ele>317.51</ele>
        <time>2016-01-16T13:01:59Z</time>
      </trkpt>
      <trkpt lat="43.52146" lon="6.81006">
        <ele>316.88</ele>
        <time>2016-01-16T13:02:03Z</time>
      </trkpt>
      <trkpt lat="43.52126" lon="6.81013">
        <ele>317.41</ele>
        <time>2016-01-16T13:02:07Z</time>
      </trkpt>
      <trkpt lat="43.5211" lon="6.81024">
        <ele>317.34</ele>
        <time>2016-01-16T13:02:15Z</time>
      </trkpt>
      <trkpt lat="43.52093" lon="6.81041">
        <ele>307.29</ele>
        <time>2016-01-16T13:03:04Z</time>
      </trkpt>
      <trkpt lat="43.52077" lon="6.8106">
        <ele>305.06</ele>
        <time>2016-01-16T13:03:08Z</time>
      </trkpt>
      <trkpt lat="43.52061" lon="6.81076">
        <ele>303.66</ele>
        <time>2016-01-16T13:03:11Z</time>
      </trkpt>
      <trkpt lat="43.52042" lon="6.81095">
        <ele>302.33</ele>
        <time>2016-01-16T13:03:15Z</time>
      </trkpt>
      <trkpt lat="43.52027" lon="6.81112">
        <ele>299.7</ele>
        <time>2016-01-16T13:03:18Z</time>
      </trkpt>
      <trkpt lat="43.52013" lon="6.81129">
        <ele>299.24</ele>
        <time>2016-01-16T13:03:21Z</time>
      </trkpt>
      <trkpt lat="43.51995" lon="6.81154">
        <ele>300.87</ele>
        <time>2016-01-16T13:03:25Z</time>
      </trkpt>
      <trkpt lat="43.51975" lon="6.81172">
        <ele>300.64</ele>
        <time>2016-01-16T13:03:28Z</time>
      </trkpt>
      <trkpt lat="43.51954" lon="6.8118">
        <ele>300.98</ele>
        <time>2016-01-16T13:03:31Z</time>
      </trkpt>
      <trkpt lat="43.51932" lon="6.81186">
        <ele>299.9</ele>
        <time>2016-01-16T13:03:34Z</time>
      </trkpt>
      <trkpt lat="43.51911" lon="6.81189">
        <ele>298.77</ele>
        <time>2016-01-16T13:03:37Z</time>
      </trkpt>
      <trkpt lat="43.5189" lon="6.81194">
        <ele>300</ele>
        <time>2016-01-16T13:03:40Z</time>
      </trkpt>
      <trkpt lat="43.51866" lon="6.81198">
        <ele>298.28</ele>
        <time>2016-01-16T13:03:43Z</time>
      </trkpt>
      <trkpt lat="43.51844" lon="6.812">
        <ele>296.44</ele>
        <time>2016-01-16T13:03:46Z</time>
      </trkpt>
      <trkpt lat="43.51823" lon="6.81195">
        <ele>296.96</ele>
        <time>2016-01-16T13:03:49Z</time>
      </trkpt>
      <trkpt lat="43.51806" lon="6.81188">
        <ele>298.9</ele>
        <time>2016-01-16T13:03:52Z</time>
      </trkpt>
      <trkpt lat="43.51786" lon="6.81179">
        <ele>299.77</ele>
        <time>2016-01-16T13:03:55Z</time>
      </trkpt>
      <trkpt lat="43.51766" lon="6.81167">
        <ele>300</ele>
        <time>2016-01-16T13:03:58Z</time>
      </trkpt>
      <trkpt lat="43.51746" lon="6.81157">
        <ele>300.73</ele>
        <time>2016-01-16T13:04:02Z</time>
      </trkpt>
      <trkpt lat="43.51725" lon="6.81148">
        <ele>302.02</ele>
        <time>2016-01-16T13:04:06Z</time>
      </trkpt>
      <trkpt lat="43.51706" lon="6.81144">
        <ele>303.28</ele>
        <time>2016-01-16T13:04:09Z</time>
      </trkpt>
      <trkpt lat="43.51689" lon="6.81154">
        <ele>304.56</ele>
        <time>2016-01-16T13:04:12Z</time>
      </trkpt>
      <trkpt lat="43.51672" lon="6.81164">
        <ele>302.22</ele>
        <time>2016-01-16T13:04:15Z</time>
      </trkpt>
      <trkpt lat="43.51649" lon="6.81177">
        <ele>303.74</ele>
        <time>2016-01-16T13:04:19Z</time>
      </trkpt>
      <trkpt lat="43.51631" lon="6.81182">
        <ele>302.37</ele>
        <time>2016-01-16T13:04:22Z</time>
      </trkpt>
      <trkpt lat="43.51611" lon="6.81181">
        <ele>303.08</ele>
        <time>2016-01-16T13:04:25Z</time>
      </trkpt>
      <trkpt lat="43.51587" lon="6.81179">
        <ele>304.54</ele>
        <time>2016-01-16T13:04:28Z</time>
      </trkpt>
      <trkpt lat="43.51566" lon="6.81178">
        <ele>304.85</ele>
        <time>2016-01-16T13:04:31Z</time>
      </trkpt>
      <trkpt lat="43.51548" lon="6.8118">
        <ele>305.38</ele>
        <time>2016-01-16T13:04:34Z</time>
      </trkpt>
      <trkpt lat="43.51524" lon="6.81175">
        <ele>306.81</ele>
        <time>2016-01-16T13:04:38Z</time>
      </trkpt>
      <trkpt lat="43.51505" lon="6.81177">
        <ele>307.09</ele>
        <time>2016-01-16T13:04:40Z</time>
      </trkpt>
      <trkpt lat="43.51485" lon="6.81171">
        <ele>308.29</ele>
        <time>2016-01-16T13:04:43Z</time>
      </trkpt>
      <trkpt lat="43.51461" lon="6.81165">
        <ele>308.69</ele>
        <time>2016-01-16T13:04:46Z</time>
      </trkpt>
      <trkpt lat="43.51442" lon="6.81158">
        <ele>309.12</ele>
        <time>2016-01-16T13:04:49Z</time>
      </trkpt>
      <trkpt lat="43.5142" lon="6.81154">
        <ele>309.23</ele>
        <time>2016-01-16T13:04:53Z</time>
      </trkpt>
      <trkpt lat="43.51402" lon="6.81151">
        <ele>308.43</ele>
        <time>2016-01-16T13:04:56Z</time>
      </trkpt>
      <trkpt lat="43.51383" lon="6.81148">
        <ele>309.83</ele>
        <time>2016-01-16T13:04:59Z</time>
      </trkpt>
      <trkpt lat="43.51362" lon="6.81157">
        <ele>305.15</ele>
        <time>2016-01-16T13:05:03Z</time>
      </trkpt>
      <trkpt lat="43.51347" lon="6.81172">
        <ele>302.55</ele>
        <time>2016-01-16T13:05:07Z</time>
      </trkpt>
      <trkpt lat="43.51332" lon="6.81189">
        <ele>304.76</ele>
        <time>2016-01-16T13:05:11Z</time>
      </trkpt>
      <trkpt lat="43.51314" lon="6.81192">
        <ele>304.39</ele>
        <time>2016-01-16T13:05:19Z</time>
      </trkpt>
      <trkpt lat="43.51308" lon="6.81168">
        <ele>303.88</ele>
        <time>2016-01-16T13:05:23Z</time>
      </trkpt>
      <trkpt lat="43.513" lon="6.81141">
        <ele>306.05</ele>
        <time>2016-01-16T13:05:30Z</time>
      </trkpt>
      <trkpt lat="43.51297" lon="6.81111">
        <ele>304.33</ele>
        <time>2016-01-16T13:05:35Z</time>
      </trkpt>
      <trkpt lat="43.51298" lon="6.81083">
        <ele>304.19</ele>
        <time>2016-01-16T13:05:39Z</time>
      </trkpt>
      <trkpt lat="43.51296" lon="6.81053">
        <ele>303.43</ele>
        <time>2016-01-16T13:05:43Z</time>
      </trkpt>
      <trkpt lat="43.51295" lon="6.8102">
        <ele>302.57</ele>
        <time>2016-01-16T13:05:47Z</time>
      </trkpt>
      <trkpt lat="43.51295" lon="6.80995">
        <ele>300.47</ele>
        <time>2016-01-16T13:05:50Z</time>
      </trkpt>
      <trkpt lat="43.51294" lon="6.80963">
        <ele>300.63</ele>
        <time>2016-01-16T13:05:54Z</time>
      </trkpt>
      <trkpt lat="43.51296" lon="6.80937">
        <ele>298.11</ele>
        <time>2016-01-16T13:05:57Z</time>
      </trkpt>
      <trkpt lat="43.51303" lon="6.80911">
        <ele>298.29</ele>
        <time>2016-01-16T13:06:00Z</time>
      </trkpt>
      <trkpt lat="43.51304" lon="6.80882">
        <ele>298.19</ele>
        <time>2016-01-16T13:06:03Z</time>
      </trkpt>
      <trkpt lat="43.51304" lon="6.80854">
        <ele>297.36</ele>
        <time>2016-01-16T13:06:07Z</time>
      </trkpt>
      <trkpt lat="43.51286" lon="6.8084">
        <ele>298.77</ele>
        <time>2016-01-16T13:07:36Z</time>
      </trkpt>
      <trkpt lat="43.51268" lon="6.80825">
        <ele>297.75</ele>
        <time>2016-01-16T13:07:39Z</time>
      </trkpt>
      <trkpt lat="43.51251" lon="6.80798">
        <ele>297.37</ele>
        <time>2016-01-16T13:07:42Z</time>
      </trkpt>
      <trkpt lat="43.5124" lon="6.80772">
        <ele>295.33</ele>
        <time>2016-01-16T13:07:45Z</time>
      </trkpt>
      <trkpt lat="43.51221" lon="6.80749">
        <ele>292.32</ele>
        <time>2016-01-16T13:07:48Z</time>
      </trkpt>
      <trkpt lat="43.51202" lon="6.80724">
        <ele>287.94</ele>
        <time>2016-01-16T13:07:51Z</time>
      </trkpt>
      <trkpt lat="43.51189" lon="6.80705">
        <ele>282.65</ele>
        <time>2016-01-16T13:07:54Z</time>
      </trkpt>
      <trkpt lat="43.5117" lon="6.80697">
        <ele>277.21</ele>
        <time>2016-01-16T13:07:58Z</time>
      </trkpt>
      <trkpt lat="43.51153" lon="6.80706">
        <ele>276.8</ele>
        <time>2016-01-16T13:08:01Z</time>
      </trkpt>
      <trkpt lat="43.51135" lon="6.80712">
        <ele>275.75</ele>
        <time>2016-01-16T13:08:04Z</time>
      </trkpt>
      <trkpt lat="43.51116" lon="6.80699">
        <ele>272.25</ele>
        <time>2016-01-16T13:08:07Z</time>
      </trkpt>
      <trkpt lat="43.51103" lon="6.80676">
        <ele>269.19</ele>
        <time>2016-01-16T13:08:10Z</time>
      </trkpt>
      <trkpt lat="43.51093" lon="6.80642">
        <ele>266.3</ele>
        <time>2016-01-16T13:08:13Z</time>
      </trkpt>
      <trkpt lat="43.51088" lon="6.80615">
        <ele>263.69</ele>
        <time>2016-01-16T13:08:16Z</time>
      </trkpt>
      <trkpt lat="43.51091" lon="6.8059">
        <ele>261.87</ele>
        <time>2016-01-16T13:08:19Z</time>
      </trkpt>
      <trkpt lat="43.51102" lon="6.80567">
        <ele>260.39</ele>
        <time>2016-01-16T13:08:22Z</time>
      </trkpt>
      <trkpt lat="43.51123" lon="6.80555">
        <ele>260.58</ele>
        <time>2016-01-16T13:08:25Z</time>
      </trkpt>
      <trkpt lat="43.51142" lon="6.80555">
        <ele>260.48</ele>
        <time>2016-01-16T13:08:28Z</time>
      </trkpt>
      <trkpt lat="43.51141" lon="6.80524">
        <ele>257.12</ele>
        <time>2016-01-16T13:08:33Z</time>
      </trkpt>
      <trkpt lat="43.51144" lon="6.80499">
        <ele>253.29</ele>
        <time>2016-01-16T13:08:36Z</time>
      </trkpt>
      <trkpt lat="43.51162" lon="6.80489">
        <ele>252.32</ele>
        <time>2016-01-16T13:08:39Z</time>
      </trkpt>
      <trkpt lat="43.51183" lon="6.8049">
        <ele>250.56</ele>
        <time>2016-01-16T13:08:43Z</time>
      </trkpt>
      <trkpt lat="43.51178" lon="6.80461">
        <ele>249.15</ele>
        <time>2016-01-16T13:08:49Z</time>
      </trkpt>
      <trkpt lat="43.51166" lon="6.80439">
        <ele>246.67</ele>
        <time>2016-01-16T13:08:52Z</time>
      </trkpt>
      <trkpt lat="43.5115" lon="6.80415">
        <ele>244.99</ele>
        <time>2016-01-16T13:08:55Z</time>
      </trkpt>
      <trkpt lat="43.51136" lon="6.80396">
        <ele>244.38</ele>
        <time>2016-01-16T13:08:57Z</time>
      </trkpt>
      <trkpt lat="43.51121" lon="6.8038">
        <ele>243.48</ele>
        <time>2016-01-16T13:08:59Z</time>
      </trkpt>
      <trkpt lat="43.511" lon="6.80364">
        <ele>242.46</ele>
        <time>2016-01-16T13:09:02Z</time>
      </trkpt>
      <trkpt lat="43.51083" lon="6.80347">
        <ele>237.96</ele>
        <time>2016-01-16T13:09:05Z</time>
      </trkpt>
      <trkpt lat="43.51084" lon="6.80315">
        <ele>228.6</ele>
        <time>2016-01-16T13:09:09Z</time>
      </trkpt>
      <trkpt lat="43.51086" lon="6.80283">
        <ele>221.47</ele>
        <time>2016-01-16T13:09:14Z</time>
      </trkpt>
      <trkpt lat="43.51075" lon="6.80257">
        <ele>217.71</ele>
        <time>2016-01-16T13:09:17Z</time>
      </trkpt>
      <trkpt lat="43.51064" lon="6.80224">
        <ele>213.74</ele>
        <time>2016-01-16T13:09:20Z</time>
      </trkpt>
      <trkpt lat="43.51056" lon="6.80191">
        <ele>210.25</ele>
        <time>2016-01-16T13:09:23Z</time>
      </trkpt>
      <trkpt lat="43.51056" lon="6.80159">
        <ele>206.43</ele>
        <time>2016-01-16T13:09:26Z</time>
      </trkpt>
      <trkpt lat="43.5106" lon="6.80127">
        <ele>203.21</ele>
        <time>2016-01-16T13:09:29Z</time>
      </trkpt>
      <trkpt lat="43.51067" lon="6.80103">
        <ele>202.43</ele>
        <time>2016-01-16T13:09:31Z</time>
      </trkpt>
      <trkpt lat="43.51079" lon="6.80075">
        <ele>201.71</ele>
        <time>2016-01-16T13:09:34Z</time>
      </trkpt>
      <trkpt lat="43.51086" lon="6.80048">
        <ele>199.96</ele>
        <time>2016-01-16T13:09:38Z</time>
      </trkpt>
      <trkpt lat="43.51086" lon="6.80021">
        <ele>196.16</ele>
        <time>2016-01-16T13:09:42Z</time>
      </trkpt>
      <trkpt lat="43.51078" lon="6.79999">
        <ele>192.3</ele>
        <time>2016-01-16T13:09:45Z</time>
      </trkpt>
      <trkpt lat="43.51063" lon="6.79975">
        <ele>188.32</ele>
        <time>2016-01-16T13:09:48Z</time>
      </trkpt>
      <trkpt lat="43.51058" lon="6.7995">
        <ele>185.69</ele>
        <time>2016-01-16T13:09:51Z</time>
      </trkpt>
      <trkpt lat="43.51068" lon="6.79919">
        <ele>185.74</ele>
        <time>2016-01-16T13:09:54Z</time>
      </trkpt>
      <trkpt lat="43.5109" lon="6.79902">
        <ele>187.5</ele>
        <time>2016-01-16T13:09:57Z</time>
      </trkpt>
      <trkpt lat="43.51111" lon="6.79882">
        <ele>189.84</ele>
        <time>2016-01-16T13:10:00Z</time>
      </trkpt>
      <trkpt lat="43.51121" lon="6.79852">
        <ele>194.16</ele>
        <time>2016-01-16T13:10:04Z</time>
      </trkpt>
      <trkpt lat="43.5113" lon="6.79826">
        <ele>194.3</ele>
        <time>2016-01-16T13:10:07Z</time>
      </trkpt>
      <trkpt lat="43.51139" lon="6.79797">
        <ele>195.44</ele>
        <time>2016-01-16T13:10:10Z</time>
      </trkpt>
      <trkpt lat="43.51138" lon="6.79767">
        <ele>197.33</ele>
        <time>2016-01-16T13:10:13Z</time>
      </trkpt>
      <trkpt lat="43.51123" lon="6.7974">
        <ele>195.82</ele>
        <time>2016-01-16T13:10:16Z</time>
      </trkpt>
      <trkpt lat="43.51109" lon="6.79721">
        <ele>195.01</ele>
        <time>2016-01-16T13:10:19Z</time>
      </trkpt>
      <trkpt lat="43.51126" lon="6.79707">
        <ele>188.71</ele>
        <time>2016-01-16T13:10:41Z</time>
      </trkpt>
      <trkpt lat="43.51142" lon="6.79723">
        <ele>180.97</ele>
        <time>2016-01-16T13:10:46Z</time>
      </trkpt>
      <trkpt lat="43.51146" lon="6.79693">
        <ele>170.23</ele>
        <time>2016-01-16T13:10:56Z</time>
      </trkpt>
      <trkpt lat="43.51153" lon="6.79666">
        <ele>170.12</ele>
        <time>2016-01-16T13:11:00Z</time>
      </trkpt>
      <trkpt lat="43.51167" lon="6.79643">
        <ele>170.73</ele>
        <time>2016-01-16T13:11:04Z</time>
      </trkpt>
      <trkpt lat="43.51185" lon="6.79628">
        <ele>176.15</ele>
        <time>2016-01-16T13:11:08Z</time>
      </trkpt>
      <trkpt lat="43.51207" lon="6.79624">
        <ele>175.55</ele>
        <time>2016-01-16T13:11:13Z</time>
      </trkpt>
      <trkpt lat="43.51208" lon="6.79594">
        <ele>170.19</ele>
        <time>2016-01-16T13:11:18Z</time>
      </trkpt>
      <trkpt lat="43.51203" lon="6.79566">
        <ele>168.55</ele>
        <time>2016-01-16T13:11:22Z</time>
      </trkpt>
      <trkpt lat="43.512" lon="6.79537">
        <ele>165.63</ele>
        <time>2016-01-16T13:11:27Z</time>
      </trkpt>
      <trkpt lat="43.51207" lon="6.79514">
        <ele>164.45</ele>
        <time>2016-01-16T13:11:31Z</time>
      </trkpt>
      <trkpt lat="43.51222" lon="6.79494">
        <ele>165.88</ele>
        <time>2016-01-16T13:11:35Z</time>
      </trkpt>
      <trkpt lat="43.51245" lon="6.79488">
        <ele>166.91</ele>
        <time>2016-01-16T13:11:39Z</time>
      </trkpt>
      <trkpt lat="43.51243" lon="6.79462">
        <ele>168.59</ele>
        <time>2016-01-16T13:11:45Z</time>
      </trkpt>
      <trkpt lat="43.51231" lon="6.79435">
        <ele>167.26</ele>
        <time>2016-01-16T13:11:49Z</time>
      </trkpt>
      <trkpt lat="43.51228" lon="6.79402">
        <ele>166.31</ele>
        <time>2016-01-16T13:11:52Z</time>
      </trkpt>
      <trkpt lat="43.51226" lon="6.79378">
        <ele>166.21</ele>
        <time>2016-01-16T13:11:54Z</time>
      </trkpt>
      <trkpt lat="43.51225" lon="6.7934">
        <ele>166.18</ele>
        <time>2016-01-16T13:11:57Z</time>
      </trkpt>
      <trkpt lat="43.51232" lon="6.79307">
        <ele>166.68</ele>
        <time>2016-01-16T13:12:00Z</time>
      </trkpt>
      <trkpt lat="43.51241" lon="6.79277">
        <ele>166.86</ele>
        <time>2016-01-16T13:12:03Z</time>
      </trkpt>
      <trkpt lat="43.51255" lon="6.79252">
        <ele>166.64</ele>
        <time>2016-01-16T13:12:06Z</time>
      </trkpt>
      <trkpt lat="43.51269" lon="6.7923">
        <ele>167.86</ele>
        <time>2016-01-16T13:12:09Z</time>
      </trkpt>
      <trkpt lat="43.51289" lon="6.79229">
        <ele>166.01</ele>
        <time>2016-01-16T13:12:12Z</time>
      </trkpt>
      <trkpt lat="43.51312" lon="6.79235">
        <ele>166.28</ele>
        <time>2016-01-16T13:12:15Z</time>
      </trkpt>
      <trkpt lat="43.51332" lon="6.79244">
        <ele>167.69</ele>
        <time>2016-01-16T13:12:18Z</time>
      </trkpt>
      <trkpt lat="43.51351" lon="6.79257">
        <ele>169.74</ele>
        <time>2016-01-16T13:12:21Z</time>
      </trkpt>
      <trkpt lat="43.51369" lon="6.79269">
        <ele>171.37</ele>
        <time>2016-01-16T13:12:24Z</time>
      </trkpt>
      <trkpt lat="43.51392" lon="6.7928">
        <ele>172.88</ele>
        <time>2016-01-16T13:12:28Z</time>
      </trkpt>
      <trkpt lat="43.51416" lon="6.79288">
        <ele>175.14</ele>
        <time>2016-01-16T13:12:31Z</time>
      </trkpt>
      <trkpt lat="43.51436" lon="6.79295">
        <ele>175.42</ele>
        <time>2016-01-16T13:12:34Z</time>
      </trkpt>
      <trkpt lat="43.51449" lon="6.79321">
        <ele>174.38</ele>
        <time>2016-01-16T13:12:38Z</time>
      </trkpt>
      <trkpt lat="43.51456" lon="6.79351">
        <ele>174.45</ele>
        <time>2016-01-16T13:12:41Z</time>
      </trkpt>
      <trkpt lat="43.51471" lon="6.7937">
        <ele>175.09</ele>
        <time>2016-01-16T13:12:44Z</time>
      </trkpt>
      <trkpt lat="43.51491" lon="6.7939">
        <ele>176.16</ele>
        <time>2016-01-16T13:12:47Z</time>
      </trkpt>
      <trkpt lat="43.5151" lon="6.79402">
        <ele>175.92</ele>
        <time>2016-01-16T13:12:50Z</time>
      </trkpt>
      <trkpt lat="43.51526" lon="6.79391">
        <ele>174.86</ele>
        <time>2016-01-16T13:12:52Z</time>
      </trkpt>
      <trkpt lat="43.51539" lon="6.79371">
        <ele>173.51</ele>
        <time>2016-01-16T13:12:55Z</time>
      </trkpt>
      <trkpt lat="43.51544" lon="6.79344">
        <ele>175.03</ele>
        <time>2016-01-16T13:13:00Z</time>
      </trkpt>
      <trkpt lat="43.51547" lon="6.79315">
        <ele>178.42</ele>
        <time>2016-01-16T13:13:04Z</time>
      </trkpt>
      <trkpt lat="43.51553" lon="6.79288">
        <ele>179.63</ele>
        <time>2016-01-16T13:13:08Z</time>
      </trkpt>
      <trkpt lat="43.51569" lon="6.79262">
        <ele>180.27</ele>
        <time>2016-01-16T13:13:12Z</time>
      </trkpt>
      <trkpt lat="43.51574" lon="6.79233">
        <ele>183.43</ele>
        <time>2016-01-16T13:13:16Z</time>
      </trkpt>
      <trkpt lat="43.51562" lon="6.79214">
        <ele>181.85</ele>
        <time>2016-01-16T13:13:22Z</time>
      </trkpt>
      <trkpt lat="43.51544" lon="6.79226">
        <ele>176.22</ele>
        <time>2016-01-16T13:13:26Z</time>
      </trkpt>
      <trkpt lat="43.51524" lon="6.79216">
        <ele>174.24</ele>
        <time>2016-01-16T13:13:31Z</time>
      </trkpt>
      <trkpt lat="43.51507" lon="6.79231">
        <ele>171.16</ele>
        <time>2016-01-16T13:13:38Z</time>
      </trkpt>
      <trkpt lat="43.51487" lon="6.79241">
        <ele>168.68</ele>
        <time>2016-01-16T13:13:42Z</time>
      </trkpt>
      <trkpt lat="43.51469" lon="6.79233">
        <ele>164.79</ele>
        <time>2016-01-16T13:13:47Z</time>
      </trkpt>
      <trkpt lat="43.51444" lon="6.79228">
        <ele>158.96</ele>
        <time>2016-01-16T13:13:51Z</time>
      </trkpt>
      <trkpt lat="43.51424" lon="6.79221">
        <ele>159.52</ele>
        <time>2016-01-16T13:13:54Z</time>
      </trkpt>
      <trkpt lat="43.51408" lon="6.79208">
        <ele>160.09</ele>
        <time>2016-01-16T13:13:57Z</time>
      </trkpt>
      <trkpt lat="43.51394" lon="6.79191">
        <ele>159.67</ele>
        <time>2016-01-16T13:14:00Z</time>
      </trkpt>
      <trkpt lat="43.51374" lon="6.79175">
        <ele>159.69</ele>
        <time>2016-01-16T13:14:05Z</time>
      </trkpt>
      <trkpt lat="43.51355" lon="6.7916">
        <ele>160.15</ele>
        <time>2016-01-16T13:14:09Z</time>
      </trkpt>
      <trkpt lat="43.51337" lon="6.79143">
        <ele>161.42</ele>
        <time>2016-01-16T13:14:12Z</time>
      </trkpt>
      <trkpt lat="43.51318" lon="6.7913">
        <ele>163.46</ele>
        <time>2016-01-16T13:14:15Z</time>
      </trkpt>
      <trkpt lat="43.513" lon="6.79118">
        <ele>163.71</ele>
        <time>2016-01-16T13:14:18Z</time>
      </trkpt>
      <trkpt lat="43.51282" lon="6.79102">
        <ele>163.24</ele>
        <time>2016-01-16T13:14:21Z</time>
      </trkpt>
      <trkpt lat="43.51267" lon="6.79085">
        <ele>163.18</ele>
        <time>2016-01-16T13:14:24Z</time>
      </trkpt>
      <trkpt lat="43.51251" lon="6.79063">
        <ele>162.36</ele>
        <time>2016-01-16T13:14:28Z</time>
      </trkpt>
      <trkpt lat="43.51238" lon="6.79043">
        <ele>164.74</ele>
        <time>2016-01-16T13:15:54Z</time>
      </trkpt>
      <trkpt lat="43.51224" lon="6.79026">
        <ele>160.97</ele>
        <time>2016-01-16T13:16:04Z</time>
      </trkpt>
      <trkpt lat="43.51206" lon="6.79014">
        <ele>162.25</ele>
        <time>2016-01-16T13:16:10Z</time>
      </trkpt>
      <trkpt lat="43.51193" lon="6.79039">
        <ele>164.46</ele>
        <time>2016-01-16T13:16:16Z</time>
      </trkpt>
      <trkpt lat="43.51175" lon="6.79049">
        <ele>165.07</ele>
        <time>2016-01-16T13:16:20Z</time>
      </trkpt>
      <trkpt lat="43.51154" lon="6.79054">
        <ele>159.27</ele>
        <time>2016-01-16T13:16:25Z</time>
      </trkpt>
      <trkpt lat="43.51136" lon="6.79062">
        <ele>159.55</ele>
        <time>2016-01-16T13:16:30Z</time>
      </trkpt>
      <trkpt lat="43.51123" lon="6.79085">
        <ele>162.22</ele>
        <time>2016-01-16T13:16:33Z</time>
      </trkpt>
      <trkpt lat="43.51111" lon="6.79107">
        <ele>164.43</ele>
        <time>2016-01-16T13:16:37Z</time>
      </trkpt>
      <trkpt lat="43.51096" lon="6.79122">
        <ele>170.28</ele>
        <time>2016-01-16T13:16:44Z</time>
      </trkpt>
      <trkpt lat="43.51082" lon="6.7914">
        <ele>173.73</ele>
        <time>2016-01-16T13:16:51Z</time>
      </trkpt>
      <trkpt lat="43.51064" lon="6.79156">
        <ele>171.57</ele>
        <time>2016-01-16T13:16:56Z</time>
      </trkpt>
      <trkpt lat="43.51044" lon="6.79166">
        <ele>171.76</ele>
        <time>2016-01-16T13:17:00Z</time>
      </trkpt>
      <trkpt lat="43.51027" lon="6.79178">
        <ele>172.34</ele>
        <time>2016-01-16T13:17:04Z</time>
      </trkpt>
      <trkpt lat="43.51041" lon="6.79161">
        <ele>171.69</ele>
        <time>2016-01-16T13:17:11Z</time>
      </trkpt>
      <trkpt lat="43.5103" lon="6.79187">
        <ele>172.42</ele>
        <time>2016-01-16T13:17:25Z</time>
      </trkpt>
      <trkpt lat="43.51015" lon="6.792">
        <ele>172.08</ele>
        <time>2016-01-16T13:17:28Z</time>
      </trkpt>
      <trkpt lat="43.50997" lon="6.79222">
        <ele>176.48</ele>
        <time>2016-01-16T13:17:32Z</time>
      </trkpt>
      <trkpt lat="43.50977" lon="6.79243">
        <ele>178.2</ele>
        <time>2016-01-16T13:17:36Z</time>
      </trkpt>
      <trkpt lat="43.50963" lon="6.79262">
        <ele>178.8</ele>
        <time>2016-01-16T13:17:39Z</time>
      </trkpt>
      <trkpt lat="43.50948" lon="6.79281">
        <ele>178.47</ele>
        <time>2016-01-16T13:17:43Z</time>
      </trkpt>
      <trkpt lat="43.50934" lon="6.79298">
        <ele>179.09</ele>
        <time>2016-01-16T13:17:46Z</time>
      </trkpt>
      <trkpt lat="43.50916" lon="6.79317">
        <ele>178.17</ele>
        <time>2016-01-16T13:17:50Z</time>
      </trkpt>
      <trkpt lat="43.50893" lon="6.79319">
        <ele>178.11</ele>
        <time>2016-01-16T13:17:54Z</time>
      </trkpt>
      <trkpt lat="43.50879" lon="6.79302">
        <ele>178.17</ele>
        <time>2016-01-16T13:17:57Z</time>
      </trkpt>
      <trkpt lat="43.50865" lon="6.79283">
        <ele>177.8</ele>
        <time>2016-01-16T13:18:00Z</time>
      </trkpt>
      <trkpt lat="43.50854" lon="6.79261">
        <ele>179.5</ele>
        <time>2016-01-16T13:18:03Z</time>
      </trkpt>
      <trkpt lat="43.50846" lon="6.79235">
        <ele>180.09</ele>
        <time>2016-01-16T13:18:06Z</time>
      </trkpt>
      <trkpt lat="43.50832" lon="6.79215">
        <ele>181.42</ele>
        <time>2016-01-16T13:18:09Z</time>
      </trkpt>
      <trkpt lat="43.50816" lon="6.79202">
        <ele>182.08</ele>
        <time>2016-01-16T13:18:12Z</time>
      </trkpt>
      <trkpt lat="43.50797" lon="6.79191">
        <ele>182.16</ele>
        <time>2016-01-16T13:18:15Z</time>
      </trkpt>
      <trkpt lat="43.50773" lon="6.79188">
        <ele>180.86</ele>
        <time>2016-01-16T13:18:19Z</time>
      </trkpt>
      <trkpt lat="43.50758" lon="6.79205">
        <ele>187.16</ele>
        <time>2016-01-16T13:18:23Z</time>
      </trkpt>
      <trkpt lat="43.50768" lon="6.7923">
        <ele>191.67</ele>
        <time>2016-01-16T13:18:26Z</time>
      </trkpt>
      <trkpt lat="43.50786" lon="6.79239">
        <ele>198.02</ele>
        <time>2016-01-16T13:18:30Z</time>
      </trkpt>
      <trkpt lat="43.50798" lon="6.79264">
        <ele>204.73</ele>
        <time>2016-01-16T13:18:34Z</time>
      </trkpt>
      <trkpt lat="43.50797" lon="6.7929">
        <ele>204.34</ele>
        <time>2016-01-16T13:18:38Z</time>
      </trkpt>
      <trkpt lat="43.50793" lon="6.79317">
        <ele>206.2</ele>
        <time>2016-01-16T13:18:41Z</time>
      </trkpt>
      <trkpt lat="43.50774" lon="6.79337">
        <ele>207.05</ele>
        <time>2016-01-16T13:18:44Z</time>
      </trkpt>
      <trkpt lat="43.50755" lon="6.79355">
        <ele>207.41</ele>
        <time>2016-01-16T13:18:47Z</time>
      </trkpt>
      <trkpt lat="43.50756" lon="6.79384">
        <ele>209.32</ele>
        <time>2016-01-16T13:18:51Z</time>
      </trkpt>
      <trkpt lat="43.50768" lon="6.79405">
        <ele>211</ele>
        <time>2016-01-16T13:18:55Z</time>
      </trkpt>
      <trkpt lat="43.50772" lon="6.79429">
        <ele>214.4</ele>
        <time>2016-01-16T13:18:58Z</time>
      </trkpt>
      <trkpt lat="43.50767" lon="6.79463">
        <ele>216.19</ele>
        <time>2016-01-16T13:19:02Z</time>
      </trkpt>
      <trkpt lat="43.50755" lon="6.79484">
        <ele>218.55</ele>
        <time>2016-01-16T13:19:05Z</time>
      </trkpt>
      <trkpt lat="43.50743" lon="6.79503">
        <ele>216.89</ele>
        <time>2016-01-16T13:19:09Z</time>
      </trkpt>
      <trkpt lat="43.50735" lon="6.79526">
        <ele>219.51</ele>
        <time>2016-01-16T13:19:12Z</time>
      </trkpt>
      <trkpt lat="43.50721" lon="6.79547">
        <ele>219.7</ele>
        <time>2016-01-16T13:19:16Z</time>
      </trkpt>
      <trkpt lat="43.50697" lon="6.79547">
        <ele>218.46</ele>
        <time>2016-01-16T13:19:20Z</time>
      </trkpt>
      <trkpt lat="43.5068" lon="6.79537">
        <ele>219.59</ele>
        <time>2016-01-16T13:19:23Z</time>
      </trkpt>
      <trkpt lat="43.50664" lon="6.79525">
        <ele>220.98</ele>
        <time>2016-01-16T13:19:26Z</time>
      </trkpt>
      <trkpt lat="43.50649" lon="6.79505">
        <ele>222.6</ele>
        <time>2016-01-16T13:19:30Z</time>
      </trkpt>
      <trkpt lat="43.50639" lon="6.79481">
        <ele>223.6</ele>
        <time>2016-01-16T13:19:33Z</time>
      </trkpt>
      <trkpt lat="43.50629" lon="6.79458">
        <ele>225.35</ele>
        <time>2016-01-16T13:19:36Z</time>
      </trkpt>
      <trkpt lat="43.50616" lon="6.79437">
        <ele>226.7</ele>
        <time>2016-01-16T13:19:39Z</time>
      </trkpt>
      <trkpt lat="43.50603" lon="6.79419">
        <ele>231.4</ele>
        <time>2016-01-16T13:19:43Z</time>
      </trkpt>
      <trkpt lat="43.50584" lon="6.79417">
        <ele>233.1</ele>
        <time>2016-01-16T13:20:28Z</time>
      </trkpt>
      <trkpt lat="43.50566" lon="6.79421">
        <ele>235.05</ele>
        <time>2016-01-16T13:20:32Z</time>
      </trkpt>
      <trkpt lat="43.50547" lon="6.79431">
        <ele>236.92</ele>
        <time>2016-01-16T13:20:36Z</time>
      </trkpt>
      <trkpt lat="43.50528" lon="6.79449">
        <ele>240.22</ele>
        <time>2016-01-16T13:20:40Z</time>
      </trkpt>
      <trkpt lat="43.50515" lon="6.79469">
        <ele>241.55</ele>
        <time>2016-01-16T13:20:44Z</time>
      </trkpt>
      <trkpt lat="43.50505" lon="6.79493">
        <ele>242.76</ele>
        <time>2016-01-16T13:20:48Z</time>
      </trkpt>
      <trkpt lat="43.50491" lon="6.79514">
        <ele>243.87</ele>
        <time>2016-01-16T13:20:51Z</time>
      </trkpt>
      <trkpt lat="43.50473" lon="6.79531">
        <ele>242.91</ele>
        <time>2016-01-16T13:20:55Z</time>
      </trkpt>
      <trkpt lat="43.50458" lon="6.79544">
        <ele>243.02</ele>
        <time>2016-01-16T13:20:58Z</time>
      </trkpt>
      <trkpt lat="43.50441" lon="6.7956">
        <ele>244.79</ele>
        <time>2016-01-16T13:21:02Z</time>
      </trkpt>
      <trkpt lat="43.50442" lon="6.79531">
        <ele>248.2</ele>
        <time>2016-01-16T13:21:09Z</time>
      </trkpt>
      <trkpt lat="43.50439" lon="6.79505">
        <ele>250.61</ele>
        <time>2016-01-16T13:21:14Z</time>
      </trkpt>
      <trkpt lat="43.50421" lon="6.79528">
        <ele>250.53</ele>
        <time>2016-01-16T13:21:19Z</time>
      </trkpt>
      <trkpt lat="43.50404" lon="6.79549">
        <ele>253.01</ele>
        <time>2016-01-16T13:21:23Z</time>
      </trkpt>
      <trkpt lat="43.50383" lon="6.79567">
        <ele>254.48</ele>
        <time>2016-01-16T13:21:27Z</time>
      </trkpt>
      <trkpt lat="43.50369" lon="6.7959">
        <ele>259.44</ele>
        <time>2016-01-16T13:21:32Z</time>
      </trkpt>
      <trkpt lat="43.5035" lon="6.79595">
        <ele>262.87</ele>
        <time>2016-01-16T13:21:37Z</time>
      </trkpt>
      <trkpt lat="43.5036" lon="6.7957">
        <ele>266.51</ele>
        <time>2016-01-16T13:21:40Z</time>
      </trkpt>
      <trkpt lat="43.50362" lon="6.7954">
        <ele>270.38</ele>
        <time>2016-01-16T13:21:44Z</time>
      </trkpt>
      <trkpt lat="43.50347" lon="6.79517">
        <ele>273.5</ele>
        <time>2016-01-16T13:21:48Z</time>
      </trkpt>
      <trkpt lat="43.5033" lon="6.79525">
        <ele>275.63</ele>
        <time>2016-01-16T13:21:52Z</time>
      </trkpt>
      <trkpt lat="43.50343" lon="6.79543">
        <ele>279.39</ele>
        <time>2016-01-16T13:21:56Z</time>
      </trkpt>
      <trkpt lat="43.50335" lon="6.79569">
        <ele>280.56</ele>
        <time>2016-01-16T13:22:01Z</time>
      </trkpt>
      <trkpt lat="43.50321" lon="6.79545">
        <ele>280.34</ele>
        <time>2016-01-16T13:22:06Z</time>
      </trkpt>
      <trkpt lat="43.50301" lon="6.7953">
        <ele>281.19</ele>
        <time>2016-01-16T13:22:10Z</time>
      </trkpt>
      <trkpt lat="43.50279" lon="6.79535">
        <ele>282.61</ele>
        <time>2016-01-16T13:22:14Z</time>
      </trkpt>
      <trkpt lat="43.50256" lon="6.79548">
        <ele>284.77</ele>
        <time>2016-01-16T13:22:18Z</time>
      </trkpt>
      <trkpt lat="43.50235" lon="6.7954">
        <ele>282.04</ele>
        <time>2016-01-16T13:22:23Z</time>
      </trkpt>
      <trkpt lat="43.50224" lon="6.79517">
        <ele>281.6</ele>
        <time>2016-01-16T13:22:27Z</time>
      </trkpt>
      <trkpt lat="43.50222" lon="6.7949">
        <ele>282.1</ele>
        <time>2016-01-16T13:22:30Z</time>
      </trkpt>
      <trkpt lat="43.50221" lon="6.79462">
        <ele>285.67</ele>
        <time>2016-01-16T13:22:33Z</time>
      </trkpt>
      <trkpt lat="43.50215" lon="6.79437">
        <ele>288.49</ele>
        <time>2016-01-16T13:22:36Z</time>
      </trkpt>
      <trkpt lat="43.50214" lon="6.79407">
        <ele>291.7</ele>
        <time>2016-01-16T13:22:40Z</time>
      </trkpt>
      <trkpt lat="43.50224" lon="6.79384">
        <ele>297.24</ele>
        <time>2016-01-16T13:22:43Z</time>
      </trkpt>
      <trkpt lat="43.50222" lon="6.79358">
        <ele>300.87</ele>
        <time>2016-01-16T13:22:47Z</time>
      </trkpt>
      <trkpt lat="43.50207" lon="6.79338">
        <ele>305.07</ele>
        <time>2016-01-16T13:22:54Z</time>
      </trkpt>
      <trkpt lat="43.50218" lon="6.79316">
        <ele>302.63</ele>
        <time>2016-01-16T13:23:03Z</time>
      </trkpt>
      <trkpt lat="43.50235" lon="6.79296">
        <ele>304.18</ele>
        <time>2016-01-16T13:26:29Z</time>
      </trkpt>
      <trkpt lat="43.5025" lon="6.79277">
        <ele>303.18</ele>
        <time>2016-01-16T13:26:33Z</time>
      </trkpt>
      <trkpt lat="43.5027" lon="6.79266">
        <ele>301.49</ele>
        <time>2016-01-16T13:26:37Z</time>
      </trkpt>
      <trkpt lat="43.50288" lon="6.79279">
        <ele>301.13</ele>
        <time>2016-01-16T13:26:41Z</time>
      </trkpt>
      <trkpt lat="43.50309" lon="6.79282">
        <ele>300.67</ele>
        <time>2016-01-16T13:26:44Z</time>
      </trkpt>
      <trkpt lat="43.50328" lon="6.7928">
        <ele>301.49</ele>
        <time>2016-01-16T13:26:47Z</time>
      </trkpt>
      <trkpt lat="43.50348" lon="6.79267">
        <ele>303.71</ele>
        <time>2016-01-16T13:26:50Z</time>
      </trkpt>
      <trkpt lat="43.50362" lon="6.79251">
        <ele>304.74</ele>
        <time>2016-01-16T13:26:53Z</time>
      </trkpt>
      <trkpt lat="43.5038" lon="6.79231">
        <ele>305.87</ele>
        <time>2016-01-16T13:26:56Z</time>
      </trkpt>
      <trkpt lat="43.50383" lon="6.79199">
        <ele>305.84</ele>
        <time>2016-01-16T13:27:00Z</time>
      </trkpt>
      <trkpt lat="43.50386" lon="6.79167">
        <ele>305.32</ele>
        <time>2016-01-16T13:27:05Z</time>
      </trkpt>
      <trkpt lat="43.504" lon="6.79141">
        <ele>297.69</ele>
        <time>2016-01-16T13:27:08Z</time>
      </trkpt>
      <trkpt lat="43.50414" lon="6.79122">
        <ele>296.24</ele>
        <time>2016-01-16T13:27:11Z</time>
      </trkpt>
      <trkpt lat="43.50425" lon="6.79097">
        <ele>297.37</ele>
        <time>2016-01-16T13:27:15Z</time>
      </trkpt>
      <trkpt lat="43.50419" lon="6.79073">
        <ele>296.31</ele>
        <time>2016-01-16T13:27:19Z</time>
      </trkpt>
      <trkpt lat="43.50421" lon="6.79048">
        <ele>294.93</ele>
        <time>2016-01-16T13:27:23Z</time>
      </trkpt>
      <trkpt lat="43.50441" lon="6.79055">
        <ele>290.54</ele>
        <time>2016-01-16T13:27:28Z</time>
      </trkpt>
      <trkpt lat="43.50461" lon="6.79066">
        <ele>287.64</ele>
        <time>2016-01-16T13:27:32Z</time>
      </trkpt>
      <trkpt lat="43.50483" lon="6.79077">
        <ele>285.27</ele>
        <time>2016-01-16T13:27:36Z</time>
      </trkpt>
      <trkpt lat="43.50504" lon="6.79088">
        <ele>283.49</ele>
        <time>2016-01-16T13:27:40Z</time>
      </trkpt>
      <trkpt lat="43.50523" lon="6.79076">
        <ele>282.22</ele>
        <time>2016-01-16T13:27:43Z</time>
      </trkpt>
      <trkpt lat="43.50535" lon="6.79056">
        <ele>283.12</ele>
        <time>2016-01-16T13:27:47Z</time>
      </trkpt>
      <trkpt lat="43.50539" lon="6.79029">
        <ele>287.84</ele>
        <time>2016-01-16T13:29:23Z</time>
      </trkpt>
      <trkpt lat="43.50546" lon="6.79003">
        <ele>283.11</ele>
        <time>2016-01-16T13:29:29Z</time>
      </trkpt>
      <trkpt lat="43.50552" lon="6.78976">
        <ele>284.11</ele>
        <time>2016-01-16T13:29:35Z</time>
      </trkpt>
      <trkpt lat="43.5055" lon="6.7895">
        <ele>287.17</ele>
        <time>2016-01-16T13:30:36Z</time>
      </trkpt>
      <trkpt lat="43.50563" lon="6.78933">
        <ele>285.43</ele>
        <time>2016-01-16T13:31:07Z</time>
      </trkpt>
      <trkpt lat="43.5056" lon="6.78908">
        <ele>280.82</ele>
        <time>2016-01-16T13:31:18Z</time>
      </trkpt>
      <trkpt lat="43.50543" lon="6.78892">
        <ele>279.31</ele>
        <time>2016-01-16T13:31:25Z</time>
      </trkpt>
      <trkpt lat="43.5053" lon="6.78869">
        <ele>275.9</ele>
        <time>2016-01-16T13:31:32Z</time>
      </trkpt>
      <trkpt lat="43.50531" lon="6.7884">
        <ele>281.29</ele>
        <time>2016-01-16T13:31:37Z</time>
      </trkpt>
      <trkpt lat="43.50536" lon="6.78814">
        <ele>277.2</ele>
        <time>2016-01-16T13:31:45Z</time>
      </trkpt>
      <trkpt lat="43.50547" lon="6.7879">
        <ele>275.62</ele>
        <time>2016-01-16T13:31:52Z</time>
      </trkpt>
      <trkpt lat="43.50565" lon="6.78779">
        <ele>275.95</ele>
        <time>2016-01-16T13:31:56Z</time>
      </trkpt>
      <trkpt lat="43.50576" lon="6.78756">
        <ele>275.91</ele>
        <time>2016-01-16T13:32:00Z</time>
      </trkpt>
      <trkpt lat="43.50576" lon="6.78727">
        <ele>276.73</ele>
        <time>2016-01-16T13:32:05Z</time>
      </trkpt>
      <trkpt lat="43.50579" lon="6.78702">
        <ele>274.75</ele>
        <time>2016-01-16T13:32:08Z</time>
      </trkpt>
      <trkpt lat="43.50574" lon="6.78676">
        <ele>272.87</ele>
        <time>2016-01-16T13:32:11Z</time>
      </trkpt>
      <trkpt lat="43.50564" lon="6.78652">
        <ele>272.34</ele>
        <time>2016-01-16T13:32:15Z</time>
      </trkpt>
      <trkpt lat="43.50557" lon="6.78627">
        <ele>268.5</ele>
        <time>2016-01-16T13:32:19Z</time>
      </trkpt>
      <trkpt lat="43.50545" lon="6.78606">
        <ele>267.76</ele>
        <time>2016-01-16T13:32:21Z</time>
      </trkpt>
      <trkpt lat="43.50534" lon="6.78578">
        <ele>268.12</ele>
        <time>2016-01-16T13:32:24Z</time>
      </trkpt>
      <trkpt lat="43.50533" lon="6.78551">
        <ele>268.42</ele>
        <time>2016-01-16T13:32:28Z</time>
      </trkpt>
      <trkpt lat="43.50554" lon="6.78547">
        <ele>266.25</ele>
        <time>2016-01-16T13:32:32Z</time>
      </trkpt>
      <trkpt lat="43.50571" lon="6.7856">
        <ele>258.46</ele>
        <time>2016-01-16T13:32:37Z</time>
      </trkpt>
      <trkpt lat="43.50589" lon="6.78573">
        <ele>257.25</ele>
        <time>2016-01-16T13:32:42Z</time>
      </trkpt>
      <trkpt lat="43.50608" lon="6.7858">
        <ele>258.62</ele>
        <time>2016-01-16T13:32:46Z</time>
      </trkpt>
      <trkpt lat="43.50628" lon="6.78581">
        <ele>261.11</ele>
        <time>2016-01-16T13:32:49Z</time>
      </trkpt>
      <trkpt lat="43.50649" lon="6.78578">
        <ele>260.89</ele>
        <time>2016-01-16T13:32:54Z</time>
      </trkpt>
      <trkpt lat="43.50678" lon="6.78579">
        <ele>259.56</ele>
        <time>2016-01-16T13:33:00Z</time>
      </trkpt>
      <trkpt lat="43.50699" lon="6.78582">
        <ele>257.52</ele>
        <time>2016-01-16T13:33:02Z</time>
      </trkpt>
      <trkpt lat="43.50716" lon="6.78593">
        <ele>254.84</ele>
        <time>2016-01-16T13:33:05Z</time>
      </trkpt>
      <trkpt lat="43.50741" lon="6.78598">
        <ele>254.09</ele>
        <time>2016-01-16T13:33:09Z</time>
      </trkpt>
      <trkpt lat="43.50767" lon="6.78595">
        <ele>255.04</ele>
        <time>2016-01-16T13:33:12Z</time>
      </trkpt>
      <trkpt lat="43.50787" lon="6.78575">
        <ele>255.23</ele>
        <time>2016-01-16T13:33:16Z</time>
      </trkpt>
      <trkpt lat="43.50806" lon="6.78563">
        <ele>256.06</ele>
        <time>2016-01-16T13:33:19Z</time>
      </trkpt>
      <trkpt lat="43.50826" lon="6.78548">
        <ele>255.36</ele>
        <time>2016-01-16T13:33:23Z</time>
      </trkpt>
      <trkpt lat="43.50844" lon="6.78541">
        <ele>254.95</ele>
        <time>2016-01-16T13:33:26Z</time>
      </trkpt>
      <trkpt lat="43.50863" lon="6.7854">
        <ele>256.62</ele>
        <time>2016-01-16T13:33:28Z</time>
      </trkpt>
      <trkpt lat="43.50881" lon="6.78543">
        <ele>256.9</ele>
        <time>2016-01-16T13:33:29Z</time>
      </trkpt>
      <trkpt lat="43.50901" lon="6.78536">
        <ele>260.14</ele>
        <time>2016-01-16T13:33:32Z</time>
      </trkpt>
      <trkpt lat="43.5092" lon="6.78528">
        <ele>261.11</ele>
        <time>2016-01-16T13:33:36Z</time>
      </trkpt>
      <trkpt lat="43.50929" lon="6.78505">
        <ele>255.05</ele>
        <time>2016-01-16T13:33:42Z</time>
      </trkpt>
      <trkpt lat="43.50916" lon="6.78484">
        <ele>252.86</ele>
        <time>2016-01-16T13:33:46Z</time>
      </trkpt>
      <trkpt lat="43.509" lon="6.78465">
        <ele>249.72</ele>
        <time>2016-01-16T13:33:50Z</time>
      </trkpt>
      <trkpt lat="43.50887" lon="6.78441">
        <ele>244.07</ele>
        <time>2016-01-16T13:33:55Z</time>
      </trkpt>
      <trkpt lat="43.50873" lon="6.78418">
        <ele>264.48</ele>
        <time>2016-01-16T13:33:59Z</time>
      </trkpt>
      <trkpt lat="43.5086" lon="6.78394">
        <ele>256.51</ele>
        <time>2016-01-16T13:34:03Z</time>
      </trkpt>
      <trkpt lat="43.50865" lon="6.78362">
        <ele>252.32</ele>
        <time>2016-01-16T13:34:07Z</time>
      </trkpt>
      <trkpt lat="43.50881" lon="6.78344">
        <ele>248.07</ele>
        <time>2016-01-16T13:34:10Z</time>
      </trkpt>
      <trkpt lat="43.50895" lon="6.78325">
        <ele>247.79</ele>
        <time>2016-01-16T13:34:13Z</time>
      </trkpt>
      <trkpt lat="43.5091" lon="6.78301">
        <ele>247.5</ele>
        <time>2016-01-16T13:34:16Z</time>
      </trkpt>
      <trkpt lat="43.50923" lon="6.78279">
        <ele>247.22</ele>
        <time>2016-01-16T13:34:19Z</time>
      </trkpt>
      <trkpt lat="43.50942" lon="6.78261">
        <ele>248.81</ele>
        <time>2016-01-16T13:34:22Z</time>
      </trkpt>
      <trkpt lat="43.50961" lon="6.78246">
        <ele>248.88</ele>
        <time>2016-01-16T13:34:25Z</time>
      </trkpt>
      <trkpt lat="43.50979" lon="6.7823">
        <ele>249.39</ele>
        <time>2016-01-16T13:34:28Z</time>
      </trkpt>
      <trkpt lat="43.50996" lon="6.78216">
        <ele>248.45</ele>
        <time>2016-01-16T13:34:31Z</time>
      </trkpt>
      <trkpt lat="43.51018" lon="6.78204">
        <ele>246.46</ele>
        <time>2016-01-16T13:34:34Z</time>
      </trkpt>
      <trkpt lat="43.5104" lon="6.78195">
        <ele>245.71</ele>
        <time>2016-01-16T13:34:37Z</time>
      </trkpt>
      <trkpt lat="43.51061" lon="6.78179">
        <ele>244.37</ele>
        <time>2016-01-16T13:34:40Z</time>
      </trkpt>
      <trkpt lat="43.51078" lon="6.78167">
        <ele>245.47</ele>
        <time>2016-01-16T13:34:42Z</time>
      </trkpt>
      <trkpt lat="43.51083" lon="6.7814">
        <ele>242.57</ele>
        <time>2016-01-16T13:34:46Z</time>
      </trkpt>
      <trkpt lat="43.51093" lon="6.78112">
        <ele>237.88</ele>
        <time>2016-01-16T13:34:51Z</time>
      </trkpt>
      <trkpt lat="43.51097" lon="6.78086">
        <ele>235.51</ele>
        <time>2016-01-16T13:34:54Z</time>
      </trkpt>
      <trkpt lat="43.51101" lon="6.78059">
        <ele>235.09</ele>
        <time>2016-01-16T13:34:57Z</time>
      </trkpt>
      <trkpt lat="43.51102" lon="6.78025">
        <ele>237.36</ele>
        <time>2016-01-16T13:35:01Z</time>
      </trkpt>
      <trkpt lat="43.51107" lon="6.78001">
        <ele>237.69</ele>
        <time>2016-01-16T13:35:05Z</time>
      </trkpt>
      <trkpt lat="43.51113" lon="6.77972">
        <ele>235.11</ele>
        <time>2016-01-16T13:35:08Z</time>
      </trkpt>
      <trkpt lat="43.51113" lon="6.77942">
        <ele>231.92</ele>
        <time>2016-01-16T13:35:11Z</time>
      </trkpt>
      <trkpt lat="43.51124" lon="6.77913">
        <ele>232.39</ele>
        <time>2016-01-16T13:35:14Z</time>
      </trkpt>
      <trkpt lat="43.51133" lon="6.77885">
        <ele>232.08</ele>
        <time>2016-01-16T13:35:17Z</time>
      </trkpt>
      <trkpt lat="43.51118" lon="6.77861">
        <ele>227.54</ele>
        <time>2016-01-16T13:35:21Z</time>
      </trkpt>
      <trkpt lat="43.51101" lon="6.7785">
        <ele>225.47</ele>
        <time>2016-01-16T13:35:24Z</time>
      </trkpt>
      <trkpt lat="43.5108" lon="6.77855">
        <ele>222.32</ele>
        <time>2016-01-16T13:35:28Z</time>
      </trkpt>
      <trkpt lat="43.51061" lon="6.77858">
        <ele>245.94</ele>
        <time>2016-01-16T13:35:31Z</time>
      </trkpt>
      <trkpt lat="43.51041" lon="6.77859">
        <ele>235.29</ele>
        <time>2016-01-16T13:35:35Z</time>
      </trkpt>
      <trkpt lat="43.51023" lon="6.77855">
        <ele>227.25</ele>
        <time>2016-01-16T13:35:39Z</time>
      </trkpt>
      <trkpt lat="43.51005" lon="6.7787">
        <ele>219.4</ele>
        <time>2016-01-16T13:35:46Z</time>
      </trkpt>
      <trkpt lat="43.50987" lon="6.77862">
        <ele>225.24</ele>
        <time>2016-01-16T13:46:51Z</time>
      </trkpt>
      <trkpt lat="43.50969" lon="6.77869">
        <ele>224.65</ele>
        <time>2016-01-16T13:46:58Z</time>
      </trkpt>
      <trkpt lat="43.50951" lon="6.77863">
        <ele>218.65</ele>
        <time>2016-01-16T13:47:49Z</time>
      </trkpt>
      <trkpt lat="43.50932" lon="6.77849">
        <ele>218.19</ele>
        <time>2016-01-16T13:47:54Z</time>
      </trkpt>
      <trkpt lat="43.5091" lon="6.77843">
        <ele>217.24</ele>
        <time>2016-01-16T13:47:58Z</time>
      </trkpt>
      <trkpt lat="43.50892" lon="6.77839">
        <ele>215.56</ele>
        <time>2016-01-16T13:48:01Z</time>
      </trkpt>
      <trkpt lat="43.50873" lon="6.77837">
        <ele>212.97</ele>
        <time>2016-01-16T13:48:04Z</time>
      </trkpt>
      <trkpt lat="43.50854" lon="6.77834">
        <ele>211.15</ele>
        <time>2016-01-16T13:48:07Z</time>
      </trkpt>
      <trkpt lat="43.50833" lon="6.77829">
        <ele>209.05</ele>
        <time>2016-01-16T13:48:10Z</time>
      </trkpt>
      <trkpt lat="43.50811" lon="6.77825">
        <ele>207.03</ele>
        <time>2016-01-16T13:48:13Z</time>
      </trkpt>
      <trkpt lat="43.50791" lon="6.77824">
        <ele>206.28</ele>
        <time>2016-01-16T13:48:16Z</time>
      </trkpt>
      <trkpt lat="43.5077" lon="6.77811">
        <ele>202.75</ele>
        <time>2016-01-16T13:48:20Z</time>
      </trkpt>
      <trkpt lat="43.50748" lon="6.77803">
        <ele>200.5</ele>
        <time>2016-01-16T13:48:23Z</time>
      </trkpt>
      <trkpt lat="43.50728" lon="6.77796">
        <ele>197.32</ele>
        <time>2016-01-16T13:48:27Z</time>
      </trkpt>
      <trkpt lat="43.50728" lon="6.77771">
        <ele>194.7</ele>
        <time>2016-01-16T13:48:51Z</time>
      </trkpt>
      <trkpt lat="43.50743" lon="6.77751">
        <ele>190.02</ele>
        <time>2016-01-16T13:48:55Z</time>
      </trkpt>
      <trkpt lat="43.5076" lon="6.77728">
        <ele>188.03</ele>
        <time>2016-01-16T13:48:58Z</time>
      </trkpt>
      <trkpt lat="43.5077" lon="6.77697">
        <ele>185.53</ele>
        <time>2016-01-16T13:49:01Z</time>
      </trkpt>
      <trkpt lat="43.50755" lon="6.77674">
        <ele>183.85</ele>
        <time>2016-01-16T13:49:04Z</time>
      </trkpt>
      <trkpt lat="43.50737" lon="6.77663">
        <ele>181.88</ele>
        <time>2016-01-16T13:49:07Z</time>
      </trkpt>
      <trkpt lat="43.50716" lon="6.77649">
        <ele>181.26</ele>
        <time>2016-01-16T13:49:10Z</time>
      </trkpt>
      <trkpt lat="43.507" lon="6.77622">
        <ele>179.56</ele>
        <time>2016-01-16T13:49:13Z</time>
      </trkpt>
      <trkpt lat="43.50688" lon="6.77587">
        <ele>177.47</ele>
        <time>2016-01-16T13:49:16Z</time>
      </trkpt>
      <trkpt lat="43.50686" lon="6.77556">
        <ele>177.09</ele>
        <time>2016-01-16T13:49:19Z</time>
      </trkpt>
      <trkpt lat="43.50694" lon="6.77525">
        <ele>177.04</ele>
        <time>2016-01-16T13:49:22Z</time>
      </trkpt>
      <trkpt lat="43.50698" lon="6.775">
        <ele>175.64</ele>
        <time>2016-01-16T13:49:24Z</time>
      </trkpt>
      <trkpt lat="43.507" lon="6.7747">
        <ele>173.48</ele>
        <time>2016-01-16T13:49:27Z</time>
      </trkpt>
      <trkpt lat="43.50693" lon="6.77447">
        <ele>170.73</ele>
        <time>2016-01-16T13:49:37Z</time>
      </trkpt>
      <trkpt lat="43.50708" lon="6.77428">
        <ele>171.11</ele>
        <time>2016-01-16T13:50:21Z</time>
      </trkpt>
      <trkpt lat="43.50716" lon="6.77405">
        <ele>166.92</ele>
        <time>2016-01-16T13:50:24Z</time>
      </trkpt>
      <trkpt lat="43.50719" lon="6.7738">
        <ele>165.27</ele>
        <time>2016-01-16T13:50:27Z</time>
      </trkpt>
      <trkpt lat="43.50717" lon="6.7735">
        <ele>166.44</ele>
        <time>2016-01-16T13:50:30Z</time>
      </trkpt>
      <trkpt lat="43.50714" lon="6.77324">
        <ele>165.46</ele>
        <time>2016-01-16T13:50:33Z</time>
      </trkpt>
      <trkpt lat="43.50725" lon="6.77296">
        <ele>162.44</ele>
        <time>2016-01-16T13:50:37Z</time>
      </trkpt>
      <trkpt lat="43.50744" lon="6.77276">
        <ele>157.38</ele>
        <time>2016-01-16T13:50:41Z</time>
      </trkpt>
      <trkpt lat="43.50767" lon="6.77264">
        <ele>154.45</ele>
        <time>2016-01-16T13:50:44Z</time>
      </trkpt>
      <trkpt lat="43.5079" lon="6.77265">
        <ele>150.96</ele>
        <time>2016-01-16T13:50:47Z</time>
      </trkpt>
      <trkpt lat="43.50807" lon="6.77272">
        <ele>147.77</ele>
        <time>2016-01-16T13:50:50Z</time>
      </trkpt>
      <trkpt lat="43.50827" lon="6.77261">
        <ele>141.78</ele>
        <time>2016-01-16T13:50:54Z</time>
      </trkpt>
      <trkpt lat="43.50843" lon="6.77246">
        <ele>136</ele>
        <time>2016-01-16T13:50:57Z</time>
      </trkpt>
      <trkpt lat="43.5086" lon="6.77229">
        <ele>133.15</ele>
        <time>2016-01-16T13:51:00Z</time>
      </trkpt>
      <trkpt lat="43.50859" lon="6.77202">
        <ele>130.55</ele>
        <time>2016-01-16T13:51:04Z</time>
      </trkpt>
      <trkpt lat="43.50844" lon="6.77182">
        <ele>127.22</ele>
        <time>2016-01-16T13:51:07Z</time>
      </trkpt>
      <trkpt lat="43.50845" lon="6.77154">
        <ele>124.94</ele>
        <time>2016-01-16T13:51:09Z</time>
      </trkpt>
      <trkpt lat="43.50835" lon="6.77131">
        <ele>121.77</ele>
        <time>2016-01-16T13:51:12Z</time>
      </trkpt>
      <trkpt lat="43.50816" lon="6.77117">
        <ele>121.63</ele>
        <time>2016-01-16T13:51:15Z</time>
      </trkpt>
      <trkpt lat="43.50801" lon="6.77099">
        <ele>124.23</ele>
        <time>2016-01-16T13:51:18Z</time>
      </trkpt>
      <trkpt lat="43.50798" lon="6.77073">
        <ele>121.18</ele>
        <time>2016-01-16T13:51:21Z</time>
      </trkpt>
      <trkpt lat="43.50804" lon="6.77049">
        <ele>115.68</ele>
        <time>2016-01-16T13:51:23Z</time>
      </trkpt>
      <trkpt lat="43.50808" lon="6.77018">
        <ele>110.11</ele>
        <time>2016-01-16T13:51:26Z</time>
      </trkpt>
      <trkpt lat="43.5083" lon="6.77024">
        <ele>103.8</ele>
        <time>2016-01-16T13:51:32Z</time>
      </trkpt>
      <trkpt lat="43.50835" lon="6.76999">
        <ele>101.38</ele>
        <time>2016-01-16T13:51:37Z</time>
      </trkpt>
      <trkpt lat="43.50836" lon="6.76969">
        <ele>100.25</ele>
        <time>2016-01-16T13:51:41Z</time>
      </trkpt>
      <trkpt lat="43.50837" lon="6.76943">
        <ele>97.81</ele>
        <time>2016-01-16T13:51:44Z</time>
      </trkpt>
      <trkpt lat="43.5083" lon="6.76916">
        <ele>95.63</ele>
        <time>2016-01-16T13:51:47Z</time>
      </trkpt>
      <trkpt lat="43.50814" lon="6.7689">
        <ele>94.73</ele>
        <time>2016-01-16T13:51:50Z</time>
      </trkpt>
      <trkpt lat="43.50795" lon="6.7688">
        <ele>90.5</ele>
        <time>2016-01-16T13:51:53Z</time>
      </trkpt>
      <trkpt lat="43.50773" lon="6.76883">
        <ele>87.97</ele>
        <time>2016-01-16T13:51:56Z</time>
      </trkpt>
      <trkpt lat="43.50757" lon="6.76895">
        <ele>87.15</ele>
        <time>2016-01-16T13:51:59Z</time>
      </trkpt>
      <trkpt lat="43.50747" lon="6.76918">
        <ele>87.05</ele>
        <time>2016-01-16T13:52:02Z</time>
      </trkpt>
      <trkpt lat="43.50744" lon="6.76945">
        <ele>84.16</ele>
        <time>2016-01-16T13:52:05Z</time>
      </trkpt>
      <trkpt lat="43.50732" lon="6.76925">
        <ele>79.85</ele>
        <time>2016-01-16T13:52:12Z</time>
      </trkpt>
      <trkpt lat="43.50729" lon="6.76893">
        <ele>79.28</ele>
        <time>2016-01-16T13:52:16Z</time>
      </trkpt>
      <trkpt lat="43.50731" lon="6.76866">
        <ele>80.06</ele>
        <time>2016-01-16T13:52:20Z</time>
      </trkpt>
      <trkpt lat="43.50742" lon="6.76839">
        <ele>77.2</ele>
        <time>2016-01-16T13:52:25Z</time>
      </trkpt>
      <trkpt lat="43.50759" lon="6.76821">
        <ele>74.52</ele>
        <time>2016-01-16T13:52:30Z</time>
      </trkpt>
      <trkpt lat="43.50768" lon="6.76795">
        <ele>73.45</ele>
        <time>2016-01-16T13:52:34Z</time>
      </trkpt>
      <trkpt lat="43.50774" lon="6.7677">
        <ele>73.46</ele>
        <time>2016-01-16T13:52:37Z</time>
      </trkpt>
      <trkpt lat="43.50776" lon="6.76739">
        <ele>70.84</ele>
        <time>2016-01-16T13:52:40Z</time>
      </trkpt>
      <trkpt lat="43.50768" lon="6.76711">
        <ele>71.13</ele>
        <time>2016-01-16T13:52:43Z</time>
      </trkpt>
      <trkpt lat="43.50827" lon="6.76617">
        <ele>65.74</ele>
        <time>2016-01-16T13:53:18Z</time>
      </trkpt>
      <trkpt lat="43.50815" lon="6.76592">
        <ele>65.25</ele>
        <time>2016-01-16T13:53:44Z</time>
      </trkpt>
      <trkpt lat="43.50811" lon="6.76563">
        <ele>66.37</ele>
        <time>2016-01-16T13:53:48Z</time>
      </trkpt>
      <trkpt lat="43.50801" lon="6.7654">
        <ele>67.06</ele>
        <time>2016-01-16T13:53:52Z</time>
      </trkpt>
      <trkpt lat="43.5079" lon="6.76515">
        <ele>68.98</ele>
        <time>2016-01-16T13:53:56Z</time>
      </trkpt>
      <trkpt lat="43.50788" lon="6.76487">
        <ele>70.54</ele>
        <time>2016-01-16T13:54:00Z</time>
      </trkpt>
      <trkpt lat="43.50781" lon="6.76462">
        <ele>71.1</ele>
        <time>2016-01-16T13:54:03Z</time>
      </trkpt>
      <trkpt lat="43.50765" lon="6.76444">
        <ele>73.29</ele>
        <time>2016-01-16T13:54:06Z</time>
      </trkpt>
      <trkpt lat="43.50747" lon="6.76422">
        <ele>76.25</ele>
        <time>2016-01-16T13:54:10Z</time>
      </trkpt>
      <trkpt lat="43.50729" lon="6.76411">
        <ele>73.81</ele>
        <time>2016-01-16T13:54:13Z</time>
      </trkpt>
      <trkpt lat="43.50709" lon="6.76397">
        <ele>73.63</ele>
        <time>2016-01-16T13:54:16Z</time>
      </trkpt>
      <trkpt lat="43.50685" lon="6.76384">
        <ele>73.48</ele>
        <time>2016-01-16T13:54:19Z</time>
      </trkpt>
      <trkpt lat="43.50663" lon="6.7637">
        <ele>72.59</ele>
        <time>2016-01-16T13:54:22Z</time>
      </trkpt>
      <trkpt lat="43.50642" lon="6.7636">
        <ele>73.1</ele>
        <time>2016-01-16T13:54:25Z</time>
      </trkpt>
      <trkpt lat="43.50621" lon="6.76351">
        <ele>72.79</ele>
        <time>2016-01-16T13:54:28Z</time>
      </trkpt>
      <trkpt lat="43.50603" lon="6.76332">
        <ele>72.25</ele>
        <time>2016-01-16T13:54:31Z</time>
      </trkpt>
      <trkpt lat="43.50598" lon="6.76301">
        <ele>69.62</ele>
        <time>2016-01-16T13:54:35Z</time>
      </trkpt>
      <trkpt lat="43.50596" lon="6.76265">
        <ele>67.36</ele>
        <time>2016-01-16T13:54:38Z</time>
      </trkpt>
      <trkpt lat="43.5059" lon="6.7624">
        <ele>66.72</ele>
        <time>2016-01-16T13:54:40Z</time>
      </trkpt>
      <trkpt lat="43.50571" lon="6.76218">
        <ele>67.62</ele>
        <time>2016-01-16T13:54:43Z</time>
      </trkpt>
      <trkpt lat="43.50557" lon="6.76196">
        <ele>68.98</ele>
        <time>2016-01-16T13:54:46Z</time>
      </trkpt>
      <trkpt lat="43.50544" lon="6.7617">
        <ele>69.15</ele>
        <time>2016-01-16T13:54:49Z</time>
      </trkpt>
      <trkpt lat="43.5054" lon="6.76145">
        <ele>67.8</ele>
        <time>2016-01-16T13:54:52Z</time>
      </trkpt>
      <trkpt lat="43.50535" lon="6.76115">
        <ele>65.63</ele>
        <time>2016-01-16T13:54:55Z</time>
      </trkpt>
      <trkpt lat="43.50529" lon="6.76087">
        <ele>65.48</ele>
        <time>2016-01-16T13:54:58Z</time>
      </trkpt>
      <trkpt lat="43.50521" lon="6.76062">
        <ele>68.34</ele>
        <time>2016-01-16T13:55:01Z</time>
      </trkpt>
      <trkpt lat="43.50514" lon="6.76038">
        <ele>69.2</ele>
        <time>2016-01-16T13:55:04Z</time>
      </trkpt>
      <trkpt lat="43.50495" lon="6.76015">
        <ele>66.86</ele>
        <time>2016-01-16T13:55:08Z</time>
      </trkpt>
      <trkpt lat="43.50476" lon="6.76006">
        <ele>62.01</ele>
        <time>2016-01-16T13:55:11Z</time>
      </trkpt>
      <trkpt lat="43.50454" lon="6.75992">
        <ele>59.03</ele>
        <time>2016-01-16T13:55:14Z</time>
      </trkpt>
      <trkpt lat="43.50434" lon="6.75963">
        <ele>56.78</ele>
        <time>2016-01-16T13:55:17Z</time>
      </trkpt>
      <trkpt lat="43.50421" lon="6.75943">
        <ele>56.58</ele>
        <time>2016-01-16T13:55:19Z</time>
      </trkpt>
      <trkpt lat="43.50415" lon="6.75916">
        <ele>54.48</ele>
        <time>2016-01-16T13:55:22Z</time>
      </trkpt>
      <trkpt lat="43.50427" lon="6.75896">
        <ele>49.12</ele>
        <time>2016-01-16T13:55:27Z</time>
      </trkpt>
      <trkpt lat="43.50447" lon="6.75902">
        <ele>43</ele>
        <time>2016-01-16T13:55:39Z</time>
      </trkpt>
      <trkpt lat="43.50464" lon="6.75896">
        <ele>39.41</ele>
        <time>2016-01-16T13:55:45Z</time>
      </trkpt>
      <trkpt lat="43.50473" lon="6.75865">
        <ele>36.38</ele>
        <time>2016-01-16T13:55:49Z</time>
      </trkpt>
      <trkpt lat="43.5046" lon="6.75846">
        <ele>33.69</ele>
        <time>2016-01-16T13:55:53Z</time>
      </trkpt>
      <trkpt lat="43.50461" lon="6.75818">
        <ele>32.24</ele>
        <time>2016-01-16T13:56:00Z</time>
      </trkpt>
      <trkpt lat="43.50467" lon="6.75789">
        <ele>29.65</ele>
        <time>2016-01-16T13:56:05Z</time>
      </trkpt>
      <trkpt lat="43.50473" lon="6.75763">
        <ele>29.21</ele>
        <time>2016-01-16T13:56:09Z</time>
      </trkpt>
      <trkpt lat="43.50486" lon="6.75737">
        <ele>31.87</ele>
        <time>2016-01-16T13:56:13Z</time>
      </trkpt>
      <trkpt lat="43.50501" lon="6.75719">
        <ele>31.22</ele>
        <time>2016-01-16T13:56:17Z</time>
      </trkpt>
      <trkpt lat="43.50517" lon="6.75697">
        <ele>31.37</ele>
        <time>2016-01-16T13:56:21Z</time>
      </trkpt>
      <trkpt lat="43.50533" lon="6.75682">
        <ele>31.2</ele>
        <time>2016-01-16T13:56:24Z</time>
      </trkpt>
      <trkpt lat="43.5055" lon="6.75667">
        <ele>34.49</ele>
        <time>2016-01-16T13:56:30Z</time>
      </trkpt>
      <trkpt lat="43.50563" lon="6.75648">
        <ele>36.57</ele>
        <time>2016-01-16T13:56:36Z</time>
      </trkpt>
      <trkpt lat="43.50545" lon="6.75664">
        <ele>35.39</ele>
        <time>2016-01-16T13:58:25Z</time>
      </trkpt>
      <trkpt lat="43.50527" lon="6.75678">
        <ele>32.62</ele>
        <time>2016-01-16T13:58:31Z</time>
      </trkpt>
      <trkpt lat="43.50512" lon="6.75692">
        <ele>26.87</ele>
        <time>2016-01-16T13:58:39Z</time>
      </trkpt>
      <trkpt lat="43.50531" lon="6.75679">
        <ele>30.95</ele>
        <time>2016-01-16T13:58:56Z</time>
      </trkpt>
      <trkpt lat="43.50549" lon="6.75664">
        <ele>32.54</ele>
        <time>2016-01-16T13:59:00Z</time>
      </trkpt>
      <trkpt lat="43.50565" lon="6.75648">
        <ele>31.97</ele>
        <time>2016-01-16T13:59:03Z</time>
      </trkpt>
      <trkpt lat="43.50583" lon="6.75649">
        <ele>34.48</ele>
        <time>2016-01-16T13:59:07Z</time>
      </trkpt>
      <trkpt lat="43.50596" lon="6.75667">
        <ele>36.04</ele>
        <time>2016-01-16T13:59:13Z</time>
      </trkpt>
      <trkpt lat="43.50583" lon="6.75687">
        <ele>39.86</ele>
        <time>2016-01-16T13:59:17Z</time>
      </trkpt>
      <trkpt lat="43.50572" lon="6.7571">
        <ele>41.92</ele>
        <time>2016-01-16T13:59:22Z</time>
      </trkpt>
      <trkpt lat="43.50555" lon="6.75726">
        <ele>46.14</ele>
        <time>2016-01-16T13:59:28Z</time>
      </trkpt>
      <trkpt lat="43.50541" lon="6.75748">
        <ele>46.94</ele>
        <time>2016-01-16T13:59:34Z</time>
      </trkpt>
      <trkpt lat="43.50544" lon="6.75773">
        <ele>47.42</ele>
        <time>2016-01-16T13:59:39Z</time>
      </trkpt>
      <trkpt lat="43.50561" lon="6.75793">
        <ele>47</ele>
        <time>2016-01-16T13:59:44Z</time>
      </trkpt>
      <trkpt lat="43.50578" lon="6.758">
        <ele>48.41</ele>
        <time>2016-01-16T13:59:48Z</time>
      </trkpt>
      <trkpt lat="43.50591" lon="6.75819">
        <ele>53.9</ele>
        <time>2016-01-16T13:59:53Z</time>
      </trkpt>
      <trkpt lat="43.5061" lon="6.75835">
        <ele>56.01</ele>
        <time>2016-01-16T13:59:58Z</time>
      </trkpt>
      <trkpt lat="43.50633" lon="6.75846">
        <ele>57.35</ele>
        <time>2016-01-16T14:00:02Z</time>
      </trkpt>
      <trkpt lat="43.50653" lon="6.75851">
        <ele>59.12</ele>
        <time>2016-01-16T14:00:06Z</time>
      </trkpt>
      <trkpt lat="43.50674" lon="6.75857">
        <ele>60.27</ele>
        <time>2016-01-16T14:00:11Z</time>
      </trkpt>
      <trkpt lat="43.50693" lon="6.75859">
        <ele>63.31</ele>
        <time>2016-01-16T14:00:15Z</time>
      </trkpt>
      <trkpt lat="43.50714" lon="6.75862">
        <ele>66</ele>
        <time>2016-01-16T14:00:19Z</time>
      </trkpt>
      <trkpt lat="43.50735" lon="6.75865">
        <ele>67.1</ele>
        <time>2016-01-16T14:00:23Z</time>
      </trkpt>
      <trkpt lat="43.50757" lon="6.7587">
        <ele>74.71</ele>
        <time>2016-01-16T14:00:29Z</time>
      </trkpt>
      <trkpt lat="43.50775" lon="6.75873">
        <ele>75.79</ele>
        <time>2016-01-16T14:00:34Z</time>
      </trkpt>
      <trkpt lat="43.50794" lon="6.7587">
        <ele>78.32</ele>
        <time>2016-01-16T14:00:51Z</time>
      </trkpt>
      <trkpt lat="43.50794" lon="6.7587">
        <ele>77.18</ele>
        <time>2016-01-16T14:01:51Z</time>
      </trkpt>
      <trkpt lat="43.50813" lon="6.75883">
        <ele>82.59</ele>
        <time>2016-01-16T14:04:13Z</time>
      </trkpt>
      <trkpt lat="43.50832" lon="6.75891">
        <ele>82.41</ele>
        <time>2016-01-16T14:04:18Z</time>
      </trkpt>
      <trkpt lat="43.5085" lon="6.75897">
        <ele>82.78</ele>
        <time>2016-01-16T14:04:23Z</time>
      </trkpt>
      <trkpt lat="43.5087" lon="6.75903">
        <ele>83.42</ele>
        <time>2016-01-16T14:04:31Z</time>
      </trkpt>
      <trkpt lat="43.5089" lon="6.75908">
        <ele>81.56</ele>
        <time>2016-01-16T14:04:36Z</time>
      </trkpt>
      <trkpt lat="43.50909" lon="6.75914">
        <ele>80.26</ele>
        <time>2016-01-16T14:04:40Z</time>
      </trkpt>
      <trkpt lat="43.50927" lon="6.75917">
        <ele>82.12</ele>
        <time>2016-01-16T14:04:44Z</time>
      </trkpt>
      <trkpt lat="43.50946" lon="6.75915">
        <ele>82.54</ele>
        <time>2016-01-16T14:04:47Z</time>
      </trkpt>
      <trkpt lat="43.50966" lon="6.7591">
        <ele>82.6</ele>
        <time>2016-01-16T14:04:50Z</time>
      </trkpt>
      <trkpt lat="43.50984" lon="6.75907">
        <ele>84.6</ele>
        <time>2016-01-16T14:04:53Z</time>
      </trkpt>
      <trkpt lat="43.51008" lon="6.75905">
        <ele>84.95</ele>
        <time>2016-01-16T14:04:57Z</time>
      </trkpt>
      <trkpt lat="43.51031" lon="6.759">
        <ele>82.52</ele>
        <time>2016-01-16T14:05:00Z</time>
      </trkpt>
      <trkpt lat="43.51051" lon="6.75896">
        <ele>84.09</ele>
        <time>2016-01-16T14:05:03Z</time>
      </trkpt>
      <trkpt lat="43.5107" lon="6.75891">
        <ele>85.79</ele>
        <time>2016-01-16T14:05:06Z</time>
      </trkpt>
      <trkpt lat="43.51088" lon="6.75883">
        <ele>90.78</ele>
        <time>2016-01-16T14:05:10Z</time>
      </trkpt>
      <trkpt lat="43.51102" lon="6.75865">
        <ele>91.5</ele>
        <time>2016-01-16T14:05:13Z</time>
      </trkpt>
      <trkpt lat="43.51123" lon="6.75852">
        <ele>93.88</ele>
        <time>2016-01-16T14:05:17Z</time>
      </trkpt>
      <trkpt lat="43.51143" lon="6.75848">
        <ele>96.66</ele>
        <time>2016-01-16T14:05:21Z</time>
      </trkpt>
      <trkpt lat="43.51161" lon="6.75828">
        <ele>95.18</ele>
        <time>2016-01-16T14:10:06Z</time>
      </trkpt>
      <trkpt lat="43.51178" lon="6.75818">
        <ele>117.92</ele>
        <time>2016-01-16T14:10:24Z</time>
      </trkpt>
      <trkpt lat="43.51204" lon="6.75826">
        <ele>94.18</ele>
        <time>2016-01-16T14:11:54Z</time>
      </trkpt>
      <trkpt lat="43.51196" lon="6.75849">
        <ele>96.04</ele>
        <time>2016-01-16T14:12:32Z</time>
      </trkpt>
      <trkpt lat="43.51178" lon="6.75852">
        <ele>95.29</ele>
        <time>2016-01-16T14:12:53Z</time>
      </trkpt>
      <trkpt lat="43.5116" lon="6.75849">
        <ele>100.8</ele>
        <time>2016-01-16T14:13:15Z</time>
      </trkpt>
      <trkpt lat="43.51138" lon="6.7585">
        <ele>102.3</ele>
        <time>2016-01-16T14:14:02Z</time>
      </trkpt>
      <trkpt lat="43.51114" lon="6.75856">
        <ele>100.68</ele>
        <time>2016-01-16T14:14:06Z</time>
      </trkpt>
      <trkpt lat="43.51096" lon="6.75873">
        <ele>98.9</ele>
        <time>2016-01-16T14:14:10Z</time>
      </trkpt>
      <trkpt lat="43.51079" lon="6.75888">
        <ele>97.35</ele>
        <time>2016-01-16T14:14:14Z</time>
      </trkpt>
      <trkpt lat="43.51056" lon="6.75892">
        <ele>94.56</ele>
        <time>2016-01-16T14:14:19Z</time>
      </trkpt>
      <trkpt lat="43.51035" lon="6.75899">
        <ele>92.46</ele>
        <time>2016-01-16T14:14:25Z</time>
      </trkpt>
      <trkpt lat="43.51015" lon="6.75903">
        <ele>91.32</ele>
        <time>2016-01-16T14:14:29Z</time>
      </trkpt>
      <trkpt lat="43.50993" lon="6.75906">
        <ele>88.18</ele>
        <time>2016-01-16T14:14:33Z</time>
      </trkpt>
      <trkpt lat="43.50971" lon="6.75912">
        <ele>88.11</ele>
        <time>2016-01-16T14:14:37Z</time>
      </trkpt>
      <trkpt lat="43.50949" lon="6.75918">
        <ele>88.8</ele>
        <time>2016-01-16T14:14:41Z</time>
      </trkpt>
      <trkpt lat="43.50928" lon="6.75917">
        <ele>88.46</ele>
        <time>2016-01-16T14:14:45Z</time>
      </trkpt>
      <trkpt lat="43.50909" lon="6.75914">
        <ele>89.34</ele>
        <time>2016-01-16T14:14:48Z</time>
      </trkpt>
      <trkpt lat="43.50888" lon="6.75907">
        <ele>88.32</ele>
        <time>2016-01-16T14:14:51Z</time>
      </trkpt>
      <trkpt lat="43.50864" lon="6.75907">
        <ele>88.94</ele>
        <time>2016-01-16T14:14:55Z</time>
      </trkpt>
      <trkpt lat="43.50846" lon="6.75906">
        <ele>87.9</ele>
        <time>2016-01-16T14:14:58Z</time>
      </trkpt>
      <trkpt lat="43.50828" lon="6.75899">
        <ele>86.14</ele>
        <time>2016-01-16T14:15:01Z</time>
      </trkpt>
      <trkpt lat="43.50809" lon="6.75894">
        <ele>85.67</ele>
        <time>2016-01-16T14:15:05Z</time>
      </trkpt>
      <trkpt lat="43.50791" lon="6.75885">
        <ele>83.37</ele>
        <time>2016-01-16T14:15:29Z</time>
      </trkpt>
      <trkpt lat="43.50796" lon="6.75913">
        <ele>85.73</ele>
        <time>2016-01-16T14:15:36Z</time>
      </trkpt>
      <trkpt lat="43.50816" lon="6.75908">
        <ele>89.26</ele>
        <time>2016-01-16T14:15:41Z</time>
      </trkpt>
      <trkpt lat="43.50835" lon="6.7591">
        <ele>92.38</ele>
        <time>2016-01-16T14:15:49Z</time>
      </trkpt>
      <trkpt lat="43.50853" lon="6.75918">
        <ele>97.74</ele>
        <time>2016-01-16T14:15:54Z</time>
      </trkpt>
      <trkpt lat="43.50871" lon="6.75929">
        <ele>100.26</ele>
        <time>2016-01-16T14:16:00Z</time>
      </trkpt>
      <trkpt lat="43.50889" lon="6.75942">
        <ele>98.45</ele>
        <time>2016-01-16T14:16:07Z</time>
      </trkpt>
      <trkpt lat="43.50904" lon="6.75958">
        <ele>101.43</ele>
        <time>2016-01-16T14:16:13Z</time>
      </trkpt>
      <trkpt lat="43.50923" lon="6.75961">
        <ele>105.05</ele>
        <time>2016-01-16T14:16:19Z</time>
      </trkpt>
      <trkpt lat="43.50942" lon="6.75966">
        <ele>107.39</ele>
        <time>2016-01-16T14:16:24Z</time>
      </trkpt>
      <trkpt lat="43.5096" lon="6.75973">
        <ele>110.63</ele>
        <time>2016-01-16T14:16:28Z</time>
      </trkpt>
      <trkpt lat="43.5098" lon="6.75974">
        <ele>112.7</ele>
        <time>2016-01-16T14:16:32Z</time>
      </trkpt>
      <trkpt lat="43.50997" lon="6.75982">
        <ele>115.85</ele>
        <time>2016-01-16T14:16:40Z</time>
      </trkpt>
      <trkpt lat="43.51015" lon="6.75991">
        <ele>123.56</ele>
        <time>2016-01-16T14:17:02Z</time>
      </trkpt>
      <trkpt lat="43.51036" lon="6.75981">
        <ele>126.41</ele>
        <time>2016-01-16T14:17:07Z</time>
      </trkpt>
      <trkpt lat="43.51053" lon="6.75974">
        <ele>130.07</ele>
        <time>2016-01-16T14:17:11Z</time>
      </trkpt>
      <trkpt lat="43.51072" lon="6.75967">
        <ele>130.86</ele>
        <time>2016-01-16T14:17:15Z</time>
      </trkpt>
      <trkpt lat="43.51091" lon="6.75964">
        <ele>130.6</ele>
        <time>2016-01-16T14:17:20Z</time>
      </trkpt>
      <trkpt lat="43.51106" lon="6.75943">
        <ele>126.33</ele>
        <time>2016-01-16T14:17:35Z</time>
      </trkpt>
      <trkpt lat="43.51113" lon="6.75921">
        <ele>123.32</ele>
        <time>2016-01-16T14:17:38Z</time>
      </trkpt>
      <trkpt lat="43.5116" lon="6.75891">
        <ele>122.18</ele>
        <time>2016-01-16T14:18:28Z</time>
      </trkpt>
      <trkpt lat="43.51179" lon="6.75895">
        <ele>121.4</ele>
        <time>2016-01-16T14:19:24Z</time>
      </trkpt>
      <trkpt lat="43.51197" lon="6.75905">
        <ele>122.19</ele>
        <time>2016-01-16T14:19:28Z</time>
      </trkpt>
      <trkpt lat="43.51212" lon="6.75927">
        <ele>122.24</ele>
        <time>2016-01-16T14:19:32Z</time>
      </trkpt>
      <trkpt lat="43.51217" lon="6.75953">
        <ele>120.3</ele>
        <time>2016-01-16T14:19:36Z</time>
      </trkpt>
      <trkpt lat="43.51234" lon="6.75969">
        <ele>118</ele>
        <time>2016-01-16T14:19:40Z</time>
      </trkpt>
      <trkpt lat="43.51252" lon="6.75982">
        <ele>117.03</ele>
        <time>2016-01-16T14:19:43Z</time>
      </trkpt>
      <trkpt lat="43.51273" lon="6.75983">
        <ele>115.86</ele>
        <time>2016-01-16T14:19:48Z</time>
      </trkpt>
      <trkpt lat="43.51281" lon="6.75955">
        <ele>113.78</ele>
        <time>2016-01-16T14:19:52Z</time>
      </trkpt>
      <trkpt lat="43.51291" lon="6.75933">
        <ele>111.96</ele>
        <time>2016-01-16T14:19:56Z</time>
      </trkpt>
      <trkpt lat="43.51312" lon="6.75933">
        <ele>109.76</ele>
        <time>2016-01-16T14:20:01Z</time>
      </trkpt>
      <trkpt lat="43.51329" lon="6.75943">
        <ele>110.59</ele>
        <time>2016-01-16T14:20:05Z</time>
      </trkpt>
      <trkpt lat="43.51352" lon="6.75953">
        <ele>112.95</ele>
        <time>2016-01-16T14:20:09Z</time>
      </trkpt>
      <trkpt lat="43.5136" lon="6.75982">
        <ele>110.61</ele>
        <time>2016-01-16T14:20:14Z</time>
      </trkpt>
      <trkpt lat="43.51367" lon="6.76009">
        <ele>109.08</ele>
        <time>2016-01-16T14:20:18Z</time>
      </trkpt>
      <trkpt lat="43.5138" lon="6.76036">
        <ele>110.54</ele>
        <time>2016-01-16T14:20:21Z</time>
      </trkpt>
      <trkpt lat="43.51396" lon="6.76059">
        <ele>112.14</ele>
        <time>2016-01-16T14:20:25Z</time>
      </trkpt>
      <trkpt lat="43.51415" lon="6.76059">
        <ele>110.92</ele>
        <time>2016-01-16T14:20:28Z</time>
      </trkpt>
      <trkpt lat="43.51434" lon="6.7606">
        <ele>115.76</ele>
        <time>2016-01-16T14:20:33Z</time>
      </trkpt>
      <trkpt lat="43.51452" lon="6.76048">
        <ele>114.71</ele>
        <time>2016-01-16T14:20:37Z</time>
      </trkpt>
      <trkpt lat="43.51469" lon="6.76061">
        <ele>115.99</ele>
        <time>2016-01-16T14:20:40Z</time>
      </trkpt>
      <trkpt lat="43.51483" lon="6.76081">
        <ele>114.65</ele>
        <time>2016-01-16T14:20:43Z</time>
      </trkpt>
      <trkpt lat="43.51493" lon="6.76108">
        <ele>115.77</ele>
        <time>2016-01-16T14:20:47Z</time>
      </trkpt>
      <trkpt lat="43.51503" lon="6.76131">
        <ele>116.91</ele>
        <time>2016-01-16T14:20:52Z</time>
      </trkpt>
      <trkpt lat="43.51525" lon="6.76149">
        <ele>113.91</ele>
        <time>2016-01-16T14:20:56Z</time>
      </trkpt>
      <trkpt lat="43.51539" lon="6.76171">
        <ele>116.89</ele>
        <time>2016-01-16T14:20:59Z</time>
      </trkpt>
      <trkpt lat="43.51552" lon="6.76194">
        <ele>117.27</ele>
        <time>2016-01-16T14:21:02Z</time>
      </trkpt>
      <trkpt lat="43.51747" lon="6.76524">
        <ele>113.18</ele>
        <time>2016-01-16T14:22:01Z</time>
      </trkpt>
      <trkpt lat="43.51727" lon="6.76536">
        <ele>110.18</ele>
        <time>2016-01-16T14:22:03Z</time>
      </trkpt>
      <trkpt lat="43.51722" lon="6.76563">
        <ele>115.55</ele>
        <time>2016-01-16T14:22:07Z</time>
      </trkpt>
      <trkpt lat="43.51736" lon="6.76583">
        <ele>116.14</ele>
        <time>2016-01-16T14:22:11Z</time>
      </trkpt>
      <trkpt lat="43.51756" lon="6.76597">
        <ele>116.99</ele>
        <time>2016-01-16T14:22:15Z</time>
      </trkpt>
      <trkpt lat="43.51777" lon="6.76605">
        <ele>117.03</ele>
        <time>2016-01-16T14:22:18Z</time>
      </trkpt>
      <trkpt lat="43.51797" lon="6.76622">
        <ele>116.66</ele>
        <time>2016-01-16T14:22:21Z</time>
      </trkpt>
      <trkpt lat="43.5181" lon="6.76646">
        <ele>115.86</ele>
        <time>2016-01-16T14:22:24Z</time>
      </trkpt>
      <trkpt lat="43.51822" lon="6.76668">
        <ele>116.14</ele>
        <time>2016-01-16T14:22:27Z</time>
      </trkpt>
      <trkpt lat="43.51829" lon="6.76694">
        <ele>116.74</ele>
        <time>2016-01-16T14:22:31Z</time>
      </trkpt>
      <trkpt lat="43.51837" lon="6.76717">
        <ele>115.5</ele>
        <time>2016-01-16T14:22:34Z</time>
      </trkpt>
      <trkpt lat="43.51838" lon="6.76748">
        <ele>115.22</ele>
        <time>2016-01-16T14:22:37Z</time>
      </trkpt>
      <trkpt lat="43.51845" lon="6.76772">
        <ele>114.31</ele>
        <time>2016-01-16T14:22:40Z</time>
      </trkpt>
      <trkpt lat="43.51858" lon="6.76797">
        <ele>114.44</ele>
        <time>2016-01-16T14:22:43Z</time>
      </trkpt>
      <trkpt lat="43.51871" lon="6.76821">
        <ele>115.83</ele>
        <time>2016-01-16T14:22:46Z</time>
      </trkpt>
      <trkpt lat="43.51876" lon="6.76848">
        <ele>115.51</ele>
        <time>2016-01-16T14:22:49Z</time>
      </trkpt>
      <trkpt lat="43.51879" lon="6.76876">
        <ele>115.47</ele>
        <time>2016-01-16T14:22:52Z</time>
      </trkpt>
      <trkpt lat="43.51879" lon="6.76905">
        <ele>116.09</ele>
        <time>2016-01-16T14:22:55Z</time>
      </trkpt>
      <trkpt lat="43.51871" lon="6.76934">
        <ele>115.04</ele>
        <time>2016-01-16T14:22:58Z</time>
      </trkpt>
      <trkpt lat="43.51864" lon="6.76962">
        <ele>115.66</ele>
        <time>2016-01-16T14:23:01Z</time>
      </trkpt>
      <trkpt lat="43.51868" lon="6.76991">
        <ele>115.99</ele>
        <time>2016-01-16T14:23:04Z</time>
      </trkpt>
      <trkpt lat="43.51866" lon="6.77023">
        <ele>115.28</ele>
        <time>2016-01-16T14:23:07Z</time>
      </trkpt>
      <trkpt lat="43.51865" lon="6.77056">
        <ele>115.19</ele>
        <time>2016-01-16T14:23:10Z</time>
      </trkpt>
      <trkpt lat="43.51866" lon="6.77082">
        <ele>114.18</ele>
        <time>2016-01-16T14:23:13Z</time>
      </trkpt>
      <trkpt lat="43.51883" lon="6.7709">
        <ele>114.99</ele>
        <time>2016-01-16T14:23:17Z</time>
      </trkpt>
      <trkpt lat="43.51903" lon="6.77078">
        <ele>115.4</ele>
        <time>2016-01-16T14:23:20Z</time>
      </trkpt>
      <trkpt lat="43.51923" lon="6.77069">
        <ele>114.45</ele>
        <time>2016-01-16T14:23:23Z</time>
      </trkpt>
      <trkpt lat="43.51944" lon="6.77054">
        <ele>116.34</ele>
        <time>2016-01-16T14:23:26Z</time>
      </trkpt>
      <trkpt lat="43.51963" lon="6.7704">
        <ele>117.44</ele>
        <time>2016-01-16T14:23:30Z</time>
      </trkpt>
      <trkpt lat="43.51972" lon="6.77063">
        <ele>116.57</ele>
        <time>2016-01-16T14:23:36Z</time>
      </trkpt>
      <trkpt lat="43.51993" lon="6.77064">
        <ele>115.6</ele>
        <time>2016-01-16T14:23:44Z</time>
      </trkpt>
      <trkpt lat="43.52013" lon="6.77055">
        <ele>114.43</ele>
        <time>2016-01-16T14:23:50Z</time>
      </trkpt>
      <trkpt lat="43.5203" lon="6.77071">
        <ele>114.93</ele>
        <time>2016-01-16T14:23:55Z</time>
      </trkpt>
      <trkpt lat="43.52039" lon="6.77099">
        <ele>116.42</ele>
        <time>2016-01-16T14:24:00Z</time>
      </trkpt>
      <trkpt lat="43.52047" lon="6.77125">
        <ele>115.43</ele>
        <time>2016-01-16T14:24:05Z</time>
      </trkpt>
      <trkpt lat="43.52064" lon="6.77137">
        <ele>114.6</ele>
        <time>2016-01-16T14:24:14Z</time>
      </trkpt>
      <trkpt lat="43.52083" lon="6.7713">
        <ele>115.12</ele>
        <time>2016-01-16T14:24:20Z</time>
      </trkpt>
      <trkpt lat="43.521" lon="6.77138">
        <ele>117.55</ele>
        <time>2016-01-16T14:24:25Z</time>
      </trkpt>
      <trkpt lat="43.52119" lon="6.77137">
        <ele>117.2</ele>
        <time>2016-01-16T14:24:29Z</time>
      </trkpt>
      <trkpt lat="43.52132" lon="6.77154">
        <ele>116.21</ele>
        <time>2016-01-16T14:24:35Z</time>
      </trkpt>
      <trkpt lat="43.52147" lon="6.77128">
        <ele>115.74</ele>
        <time>2016-01-16T14:24:40Z</time>
      </trkpt>
      <trkpt lat="43.52169" lon="6.77126">
        <ele>115.65</ele>
        <time>2016-01-16T14:24:44Z</time>
      </trkpt>
      <trkpt lat="43.52183" lon="6.77105">
        <ele>116.07</ele>
        <time>2016-01-16T14:24:49Z</time>
      </trkpt>
      <trkpt lat="43.52202" lon="6.77095">
        <ele>113.67</ele>
        <time>2016-01-16T14:24:54Z</time>
      </trkpt>
      <trkpt lat="43.52221" lon="6.77092">
        <ele>111.52</ele>
        <time>2016-01-16T14:24:58Z</time>
      </trkpt>
      <trkpt lat="43.52234" lon="6.77074">
        <ele>112.32</ele>
        <time>2016-01-16T14:25:02Z</time>
      </trkpt>
      <trkpt lat="43.5225" lon="6.77063">
        <ele>114.02</ele>
        <time>2016-01-16T14:25:07Z</time>
      </trkpt>
      <trkpt lat="43.52268" lon="6.77062">
        <ele>112.92</ele>
        <time>2016-01-16T14:25:11Z</time>
      </trkpt>
      <trkpt lat="43.5229" lon="6.77055">
        <ele>112.16</ele>
        <time>2016-01-16T14:25:15Z</time>
      </trkpt>
      <trkpt lat="43.52314" lon="6.77051">
        <ele>114.3</ele>
        <time>2016-01-16T14:25:19Z</time>
      </trkpt>
      <trkpt lat="43.52334" lon="6.7704">
        <ele>112.9</ele>
        <time>2016-01-16T14:25:24Z</time>
      </trkpt>
      <trkpt lat="43.52355" lon="6.77032">
        <ele>116.16</ele>
        <time>2016-01-16T14:25:28Z</time>
      </trkpt>
      <trkpt lat="43.52377" lon="6.77038">
        <ele>111.3</ele>
        <time>2016-01-16T14:25:33Z</time>
      </trkpt>
      <trkpt lat="43.52398" lon="6.7705">
        <ele>111.25</ele>
        <time>2016-01-16T14:25:37Z</time>
      </trkpt>
      <trkpt lat="43.52417" lon="6.77059">
        <ele>110.56</ele>
        <time>2016-01-16T14:25:40Z</time>
      </trkpt>
      <trkpt lat="43.5244" lon="6.77055">
        <ele>111.51</ele>
        <time>2016-01-16T14:25:44Z</time>
      </trkpt>
      <trkpt lat="43.52459" lon="6.77051">
        <ele>111.7</ele>
        <time>2016-01-16T14:25:48Z</time>
      </trkpt>
      <trkpt lat="43.52476" lon="6.7707">
        <ele>111.44</ele>
        <time>2016-01-16T14:25:53Z</time>
      </trkpt>
      <trkpt lat="43.5248" lon="6.77098">
        <ele>111.07</ele>
        <time>2016-01-16T14:25:57Z</time>
      </trkpt>
      <trkpt lat="43.52492" lon="6.77116">
        <ele>111.17</ele>
        <time>2016-01-16T14:26:01Z</time>
      </trkpt>
      <trkpt lat="43.52501" lon="6.77139">
        <ele>111.8</ele>
        <time>2016-01-16T14:26:04Z</time>
      </trkpt>
      <trkpt lat="43.52439" lon="6.77327">
        <ele>109.13</ele>
        <time>2016-01-16T14:26:53Z</time>
      </trkpt>
      <trkpt lat="43.52425" lon="6.77342">
        <ele>111.28</ele>
        <time>2016-01-16T14:27:00Z</time>
      </trkpt>
      <trkpt lat="43.52408" lon="6.77353">
        <ele>114.93</ele>
        <time>2016-01-16T14:27:05Z</time>
      </trkpt>
      <trkpt lat="43.5239" lon="6.77371">
        <ele>117.29</ele>
        <time>2016-01-16T14:27:10Z</time>
      </trkpt>
      <trkpt lat="43.52381" lon="6.77396">
        <ele>118</ele>
        <time>2016-01-16T14:27:14Z</time>
      </trkpt>
      <trkpt lat="43.52371" lon="6.77416">
        <ele>121.29</ele>
        <time>2016-01-16T14:27:18Z</time>
      </trkpt>
      <trkpt lat="43.52367" lon="6.77442">
        <ele>116.7</ele>
        <time>2016-01-16T14:27:30Z</time>
      </trkpt>
      <trkpt lat="43.52384" lon="6.77459">
        <ele>115.81</ele>
        <time>2016-01-16T14:27:37Z</time>
      </trkpt>
      <trkpt lat="43.5239" lon="6.77489">
        <ele>114.13</ele>
        <time>2016-01-16T14:27:42Z</time>
      </trkpt>
      <trkpt lat="43.52383" lon="6.77514">
        <ele>115.77</ele>
        <time>2016-01-16T14:27:47Z</time>
      </trkpt>
      <trkpt lat="43.52384" lon="6.77539">
        <ele>114.15</ele>
        <time>2016-01-16T14:27:51Z</time>
      </trkpt>
      <trkpt lat="43.52401" lon="6.77558">
        <ele>111.96</ele>
        <time>2016-01-16T14:27:56Z</time>
      </trkpt>
      <trkpt lat="43.52422" lon="6.77562">
        <ele>112.79</ele>
        <time>2016-01-16T14:28:00Z</time>
      </trkpt>
      <trkpt lat="43.52444" lon="6.77558">
        <ele>115.53</ele>
        <time>2016-01-16T14:28:04Z</time>
      </trkpt>
      <trkpt lat="43.52464" lon="6.77556">
        <ele>115.7</ele>
        <time>2016-01-16T14:28:08Z</time>
      </trkpt>
      <trkpt lat="43.52475" lon="6.77576">
        <ele>113.4</ele>
        <time>2016-01-16T14:28:14Z</time>
      </trkpt>
      <trkpt lat="43.52485" lon="6.77602">
        <ele>112.93</ele>
        <time>2016-01-16T14:28:19Z</time>
      </trkpt>
      <trkpt lat="43.52493" lon="6.77627">
        <ele>113.16</ele>
        <time>2016-01-16T14:28:23Z</time>
      </trkpt>
      <trkpt lat="43.52506" lon="6.77653">
        <ele>114.05</ele>
        <time>2016-01-16T14:28:27Z</time>
      </trkpt>
      <trkpt lat="43.52518" lon="6.77679">
        <ele>112.14</ele>
        <time>2016-01-16T14:28:32Z</time>
      </trkpt>
      <trkpt lat="43.52536" lon="6.77667">
        <ele>119.2</ele>
        <time>2016-01-16T14:30:22Z</time>
      </trkpt>
      <trkpt lat="43.52548" lon="6.77647">
        <ele>117.07</ele>
        <time>2016-01-16T14:30:28Z</time>
      </trkpt>
      <trkpt lat="43.52557" lon="6.7762">
        <ele>114.19</ele>
        <time>2016-01-16T14:30:36Z</time>
      </trkpt>
      <trkpt lat="43.5257" lon="6.77593">
        <ele>116.08</ele>
        <time>2016-01-16T14:30:41Z</time>
      </trkpt>
      <trkpt lat="43.52588" lon="6.77598">
        <ele>120.45</ele>
        <time>2016-01-16T14:30:46Z</time>
      </trkpt>
      <trkpt lat="43.52607" lon="6.77612">
        <ele>119.75</ele>
        <time>2016-01-16T14:30:51Z</time>
      </trkpt>
      <trkpt lat="43.52623" lon="6.77624">
        <ele>114.53</ele>
        <time>2016-01-16T14:30:58Z</time>
      </trkpt>
      <trkpt lat="43.52639" lon="6.77637">
        <ele>115.75</ele>
        <time>2016-01-16T14:31:03Z</time>
      </trkpt>
      <trkpt lat="43.52656" lon="6.77647">
        <ele>119.34</ele>
        <time>2016-01-16T14:31:07Z</time>
      </trkpt>
      <trkpt lat="43.52674" lon="6.77652">
        <ele>120.15</ele>
        <time>2016-01-16T14:31:12Z</time>
      </trkpt>
      <trkpt lat="43.52694" lon="6.77648">
        <ele>121.11</ele>
        <time>2016-01-16T14:31:17Z</time>
      </trkpt>
      <trkpt lat="43.52713" lon="6.7765">
        <ele>119.61</ele>
        <time>2016-01-16T14:31:21Z</time>
      </trkpt>
      <trkpt lat="43.52732" lon="6.77644">
        <ele>118.39</ele>
        <time>2016-01-16T14:31:25Z</time>
      </trkpt>
      <trkpt lat="43.52752" lon="6.77645">
        <ele>117.12</ele>
        <time>2016-01-16T14:31:30Z</time>
      </trkpt>
      <trkpt lat="43.52772" lon="6.77648">
        <ele>115.89</ele>
        <time>2016-01-16T14:31:36Z</time>
      </trkpt>
      <trkpt lat="43.52792" lon="6.77652">
        <ele>117.17</ele>
        <time>2016-01-16T14:31:42Z</time>
      </trkpt>
      <trkpt lat="43.52809" lon="6.77661">
        <ele>122.79</ele>
        <time>2016-01-16T14:31:48Z</time>
      </trkpt>
      <trkpt lat="43.52826" lon="6.77676">
        <ele>123.35</ele>
        <time>2016-01-16T14:31:53Z</time>
      </trkpt>
      <trkpt lat="43.52846" lon="6.77678">
        <ele>121.96</ele>
        <time>2016-01-16T14:31:58Z</time>
      </trkpt>
      <trkpt lat="43.52862" lon="6.77693">
        <ele>120.41</ele>
        <time>2016-01-16T14:32:02Z</time>
      </trkpt>
      <trkpt lat="43.52881" lon="6.77699">
        <ele>121.46</ele>
        <time>2016-01-16T14:32:07Z</time>
      </trkpt>
      <trkpt lat="43.52903" lon="6.77693">
        <ele>122.13</ele>
        <time>2016-01-16T14:32:11Z</time>
      </trkpt>
      <trkpt lat="43.52921" lon="6.77703">
        <ele>122.42</ele>
        <time>2016-01-16T14:32:15Z</time>
      </trkpt>
      <trkpt lat="43.52927" lon="6.77727">
        <ele>125.69</ele>
        <time>2016-01-16T14:32:35Z</time>
      </trkpt>
      <trkpt lat="43.52924" lon="6.77752">
        <ele>123.69</ele>
        <time>2016-01-16T14:33:00Z</time>
      </trkpt>
      <trkpt lat="43.52911" lon="6.77776">
        <ele>125.29</ele>
        <time>2016-01-16T14:33:05Z</time>
      </trkpt>
      <trkpt lat="43.52896" lon="6.77794">
        <ele>126.44</ele>
        <time>2016-01-16T14:33:12Z</time>
      </trkpt>
      <trkpt lat="43.5288" lon="6.77809">
        <ele>126.18</ele>
        <time>2016-01-16T14:33:17Z</time>
      </trkpt>
      <trkpt lat="43.52864" lon="6.77821">
        <ele>129.36</ele>
        <time>2016-01-16T14:33:21Z</time>
      </trkpt>
      <trkpt lat="43.52849" lon="6.77835">
        <ele>132.57</ele>
        <time>2016-01-16T14:33:24Z</time>
      </trkpt>
      <trkpt lat="43.52829" lon="6.77843">
        <ele>130.31</ele>
        <time>2016-01-16T14:33:29Z</time>
      </trkpt>
      <trkpt lat="43.52811" lon="6.77852">
        <ele>128.56</ele>
        <time>2016-01-16T14:33:33Z</time>
      </trkpt>
      <trkpt lat="43.5282" lon="6.77877">
        <ele>121.44</ele>
        <time>2016-01-16T14:33:56Z</time>
      </trkpt>
      <trkpt lat="43.5284" lon="6.77882">
        <ele>124.32</ele>
        <time>2016-01-16T14:34:02Z</time>
      </trkpt>
      <trkpt lat="43.52857" lon="6.77888">
        <ele>123.09</ele>
        <time>2016-01-16T14:34:07Z</time>
      </trkpt>
      <trkpt lat="43.52878" lon="6.77891">
        <ele>122.67</ele>
        <time>2016-01-16T14:34:12Z</time>
      </trkpt>
      <trkpt lat="43.52896" lon="6.7789">
        <ele>125.27</ele>
        <time>2016-01-16T14:34:16Z</time>
      </trkpt>
      <trkpt lat="43.52917" lon="6.77899">
        <ele>118.62</ele>
        <time>2016-01-16T14:34:23Z</time>
      </trkpt>
      <trkpt lat="43.52936" lon="6.779">
        <ele>116.83</ele>
        <time>2016-01-16T14:34:27Z</time>
      </trkpt>
      <trkpt lat="43.52959" lon="6.77907">
        <ele>119.07</ele>
        <time>2016-01-16T14:34:32Z</time>
      </trkpt>
      <trkpt lat="43.52975" lon="6.77917">
        <ele>120.73</ele>
        <time>2016-01-16T14:34:36Z</time>
      </trkpt>
      <trkpt lat="43.52995" lon="6.77926">
        <ele>122.14</ele>
        <time>2016-01-16T14:34:42Z</time>
      </trkpt>
      <trkpt lat="43.53015" lon="6.77932">
        <ele>126.08</ele>
        <time>2016-01-16T14:34:47Z</time>
      </trkpt>
      <trkpt lat="43.53032" lon="6.77946">
        <ele>123.64</ele>
        <time>2016-01-16T14:34:52Z</time>
      </trkpt>
      <trkpt lat="43.53049" lon="6.77934">
        <ele>124.17</ele>
        <time>2016-01-16T14:34:58Z</time>
      </trkpt>
      <trkpt lat="43.53067" lon="6.77926">
        <ele>123.49</ele>
        <time>2016-01-16T14:35:04Z</time>
      </trkpt>
      <trkpt lat="43.53084" lon="6.77943">
        <ele>118.38</ele>
        <time>2016-01-16T14:35:42Z</time>
      </trkpt>
      <trkpt lat="43.53094" lon="6.7797">
        <ele>120.79</ele>
        <time>2016-01-16T14:35:48Z</time>
      </trkpt>
      <trkpt lat="43.53111" lon="6.77987">
        <ele>124.1</ele>
        <time>2016-01-16T14:35:53Z</time>
      </trkpt>
      <trkpt lat="43.53129" lon="6.77981">
        <ele>123.42</ele>
        <time>2016-01-16T14:35:57Z</time>
      </trkpt>
      <trkpt lat="43.53142" lon="6.77964">
        <ele>125.12</ele>
        <time>2016-01-16T14:36:02Z</time>
      </trkpt>
      <trkpt lat="43.53159" lon="6.77946">
        <ele>124.14</ele>
        <time>2016-01-16T14:36:07Z</time>
      </trkpt>
      <trkpt lat="43.53175" lon="6.77926">
        <ele>123.55</ele>
        <time>2016-01-16T14:36:12Z</time>
      </trkpt>
      <trkpt lat="43.53183" lon="6.77901">
        <ele>122.7</ele>
        <time>2016-01-16T14:36:16Z</time>
      </trkpt>
      <trkpt lat="43.532" lon="6.77883">
        <ele>118.16</ele>
        <time>2016-01-16T14:36:23Z</time>
      </trkpt>
      <trkpt lat="43.5321" lon="6.77862">
        <ele>115.1</ele>
        <time>2016-01-16T14:36:29Z</time>
      </trkpt>
      <trkpt lat="43.53221" lon="6.77837">
        <ele>113.33</ele>
        <time>2016-01-16T14:36:34Z</time>
      </trkpt>
      <trkpt lat="43.53229" lon="6.77813">
        <ele>114.19</ele>
        <time>2016-01-16T14:36:38Z</time>
      </trkpt>
      <trkpt lat="43.53243" lon="6.77796">
        <ele>116.49</ele>
        <time>2016-01-16T14:36:42Z</time>
      </trkpt>
      <trkpt lat="43.53263" lon="6.77781">
        <ele>116.09</ele>
        <time>2016-01-16T14:36:47Z</time>
      </trkpt>
      <trkpt lat="43.53275" lon="6.77757">
        <ele>116.07</ele>
        <time>2016-01-16T14:36:54Z</time>
      </trkpt>
      <trkpt lat="43.53288" lon="6.77735">
        <ele>116.92</ele>
        <time>2016-01-16T14:36:59Z</time>
      </trkpt>
      <trkpt lat="43.53301" lon="6.77715">
        <ele>113.63</ele>
        <time>2016-01-16T14:37:05Z</time>
      </trkpt>
      <trkpt lat="43.53318" lon="6.77695">
        <ele>112.88</ele>
        <time>2016-01-16T14:37:10Z</time>
      </trkpt>
      <trkpt lat="43.53333" lon="6.77681">
        <ele>109.02</ele>
        <time>2016-01-16T14:37:16Z</time>
      </trkpt>
      <trkpt lat="43.53349" lon="6.77671">
        <ele>109.32</ele>
        <time>2016-01-16T14:38:02Z</time>
      </trkpt>
      <trkpt lat="43.53358" lon="6.77643">
        <ele>104.93</ele>
        <time>2016-01-16T14:38:07Z</time>
      </trkpt>
      <trkpt lat="43.53365" lon="6.77616">
        <ele>103.45</ele>
        <time>2016-01-16T14:38:13Z</time>
      </trkpt>
      <trkpt lat="43.53374" lon="6.77589">
        <ele>99.31</ele>
        <time>2016-01-16T14:38:19Z</time>
      </trkpt>
      <trkpt lat="43.53386" lon="6.77569">
        <ele>93.72</ele>
        <time>2016-01-16T14:38:25Z</time>
      </trkpt>
      <trkpt lat="43.53399" lon="6.77549">
        <ele>88.41</ele>
        <time>2016-01-16T14:38:30Z</time>
      </trkpt>
      <trkpt lat="43.53411" lon="6.77527">
        <ele>87.87</ele>
        <time>2016-01-16T14:38:36Z</time>
      </trkpt>
      <trkpt lat="43.5342" lon="6.775">
        <ele>86.48</ele>
        <time>2016-01-16T14:38:41Z</time>
      </trkpt>
      <trkpt lat="43.53429" lon="6.77478">
        <ele>83.75</ele>
        <time>2016-01-16T14:38:46Z</time>
      </trkpt>
      <trkpt lat="43.53448" lon="6.77468">
        <ele>85.37</ele>
        <time>2016-01-16T14:38:52Z</time>
      </trkpt>
      <trkpt lat="43.53467" lon="6.77472">
        <ele>79.97</ele>
        <time>2016-01-16T14:38:59Z</time>
      </trkpt>
      <trkpt lat="43.53473" lon="6.77448">
        <ele>75.19</ele>
        <time>2016-01-16T14:39:10Z</time>
      </trkpt>
      <trkpt lat="43.53494" lon="6.77452">
        <ele>70.13</ele>
        <time>2016-01-16T14:39:43Z</time>
      </trkpt>
      <trkpt lat="43.53511" lon="6.77461">
        <ele>71.92</ele>
        <time>2016-01-16T14:39:48Z</time>
      </trkpt>
      <trkpt lat="43.53526" lon="6.77478">
        <ele>74.39</ele>
        <time>2016-01-16T14:39:53Z</time>
      </trkpt>
      <trkpt lat="43.53535" lon="6.77504">
        <ele>72.65</ele>
        <time>2016-01-16T14:39:59Z</time>
      </trkpt>
      <trkpt lat="43.53532" lon="6.77529">
        <ele>70.82</ele>
        <time>2016-01-16T14:40:04Z</time>
      </trkpt>
      <trkpt lat="43.53532" lon="6.77557">
        <ele>74.05</ele>
        <time>2016-01-16T14:40:10Z</time>
      </trkpt>
      <trkpt lat="43.53542" lon="6.77579">
        <ele>76.53</ele>
        <time>2016-01-16T14:40:16Z</time>
      </trkpt>
      <trkpt lat="43.53551" lon="6.77601">
        <ele>82.21</ele>
        <time>2016-01-16T14:40:22Z</time>
      </trkpt>
      <trkpt lat="43.53562" lon="6.77622">
        <ele>86.61</ele>
        <time>2016-01-16T14:40:29Z</time>
      </trkpt>
      <trkpt lat="43.53571" lon="6.77645">
        <ele>92.31</ele>
        <time>2016-01-16T14:40:35Z</time>
      </trkpt>
      <trkpt lat="43.53568" lon="6.77672">
        <ele>97.47</ele>
        <time>2016-01-16T14:40:42Z</time>
      </trkpt>
      <trkpt lat="43.53562" lon="6.77697">
        <ele>101.97</ele>
        <time>2016-01-16T14:40:49Z</time>
      </trkpt>
      <trkpt lat="43.53554" lon="6.77719">
        <ele>104.95</ele>
        <time>2016-01-16T14:40:55Z</time>
      </trkpt>
      <trkpt lat="43.53552" lon="6.77745">
        <ele>106.61</ele>
        <time>2016-01-16T14:41:00Z</time>
      </trkpt>
      <trkpt lat="43.53566" lon="6.77763">
        <ele>111.88</ele>
        <time>2016-01-16T14:41:08Z</time>
      </trkpt>
      <trkpt lat="43.53586" lon="6.77764">
        <ele>116.73</ele>
        <time>2016-01-16T14:41:18Z</time>
      </trkpt>
      <trkpt lat="43.53604" lon="6.7777">
        <ele>122.79</ele>
        <time>2016-01-16T14:41:25Z</time>
      </trkpt>
      <trkpt lat="43.53608" lon="6.77796">
        <ele>122.96</ele>
        <time>2016-01-16T14:41:33Z</time>
      </trkpt>
      <trkpt lat="43.53604" lon="6.77822">
        <ele>120.01</ele>
        <time>2016-01-16T14:43:22Z</time>
      </trkpt>
      <trkpt lat="43.53591" lon="6.77843">
        <ele>122.39</ele>
        <time>2016-01-16T14:43:27Z</time>
      </trkpt>
      <trkpt lat="43.53585" lon="6.7787">
        <ele>123.55</ele>
        <time>2016-01-16T14:43:33Z</time>
      </trkpt>
      <trkpt lat="43.53583" lon="6.77897">
        <ele>125.65</ele>
        <time>2016-01-16T14:43:39Z</time>
      </trkpt>
      <trkpt lat="43.53563" lon="6.77898">
        <ele>126.4</ele>
        <time>2016-01-16T14:43:47Z</time>
      </trkpt>
      <trkpt lat="43.53545" lon="6.77892">
        <ele>124.88</ele>
        <time>2016-01-16T14:43:51Z</time>
      </trkpt>
      <trkpt lat="43.53527" lon="6.77888">
        <ele>122.16</ele>
        <time>2016-01-16T14:43:55Z</time>
      </trkpt>
      <trkpt lat="43.53505" lon="6.77885">
        <ele>120.36</ele>
        <time>2016-01-16T14:43:59Z</time>
      </trkpt>
      <trkpt lat="43.53482" lon="6.77882">
        <ele>119.81</ele>
        <time>2016-01-16T14:44:04Z</time>
      </trkpt>
      <trkpt lat="43.53478" lon="6.77909">
        <ele>120.36</ele>
        <time>2016-01-16T14:44:11Z</time>
      </trkpt>
      <trkpt lat="43.53482" lon="6.77937">
        <ele>119.26</ele>
        <time>2016-01-16T14:44:17Z</time>
      </trkpt>
      <trkpt lat="43.53491" lon="6.77965">
        <ele>118.55</ele>
        <time>2016-01-16T14:44:23Z</time>
      </trkpt>
      <trkpt lat="43.53487" lon="6.77992">
        <ele>120.42</ele>
        <time>2016-01-16T14:44:31Z</time>
      </trkpt>
      <trkpt lat="43.53487" lon="6.78022">
        <ele>121.16</ele>
        <time>2016-01-16T14:44:37Z</time>
      </trkpt>
      <trkpt lat="43.53488" lon="6.78049">
        <ele>120.43</ele>
        <time>2016-01-16T14:44:42Z</time>
      </trkpt>
      <trkpt lat="43.53476" lon="6.78071">
        <ele>121.13</ele>
        <time>2016-01-16T14:44:46Z</time>
      </trkpt>
      <trkpt lat="43.53465" lon="6.78096">
        <ele>122.24</ele>
        <time>2016-01-16T14:44:51Z</time>
      </trkpt>
      <trkpt lat="43.53444" lon="6.78104">
        <ele>119.59</ele>
        <time>2016-01-16T14:44:59Z</time>
      </trkpt>
      <trkpt lat="43.53423" lon="6.78094">
        <ele>120.51</ele>
        <time>2016-01-16T14:45:03Z</time>
      </trkpt>
      <trkpt lat="43.53407" lon="6.78079">
        <ele>123.14</ele>
        <time>2016-01-16T14:45:11Z</time>
      </trkpt>
      <trkpt lat="43.53394" lon="6.7806">
        <ele>123.11</ele>
        <time>2016-01-16T14:45:16Z</time>
      </trkpt>
      <trkpt lat="43.53377" lon="6.78053">
        <ele>123.23</ele>
        <time>2016-01-16T14:45:20Z</time>
      </trkpt>
      <trkpt lat="43.5336" lon="6.78046">
        <ele>124.37</ele>
        <time>2016-01-16T14:45:24Z</time>
      </trkpt>
      <trkpt lat="43.53352" lon="6.78022">
        <ele>123.06</ele>
        <time>2016-01-16T14:45:31Z</time>
      </trkpt>
      <trkpt lat="43.53362" lon="6.78044">
        <ele>118.71</ele>
        <time>2016-01-16T14:46:15Z</time>
      </trkpt>
      <trkpt lat="43.53382" lon="6.78055">
        <ele>122.39</ele>
        <time>2016-01-16T14:46:21Z</time>
      </trkpt>
      <trkpt lat="43.53399" lon="6.78065">
        <ele>122.83</ele>
        <time>2016-01-16T14:46:24Z</time>
      </trkpt>
      <trkpt lat="43.53414" lon="6.78085">
        <ele>122.53</ele>
        <time>2016-01-16T14:46:28Z</time>
      </trkpt>
      <trkpt lat="43.53436" lon="6.78092">
        <ele>126.53</ele>
        <time>2016-01-16T14:46:37Z</time>
      </trkpt>
      <trkpt lat="43.53455" lon="6.78102">
        <ele>125.72</ele>
        <time>2016-01-16T14:46:42Z</time>
      </trkpt>
      <trkpt lat="43.53469" lon="6.78084">
        <ele>128.34</ele>
        <time>2016-01-16T14:46:48Z</time>
      </trkpt>
      <trkpt lat="43.53484" lon="6.78065">
        <ele>127.71</ele>
        <time>2016-01-16T14:46:53Z</time>
      </trkpt>
      <trkpt lat="43.53493" lon="6.78041">
        <ele>128.16</ele>
        <time>2016-01-16T14:46:58Z</time>
      </trkpt>
      <trkpt lat="43.53485" lon="6.78017">
        <ele>127.68</ele>
        <time>2016-01-16T14:47:03Z</time>
      </trkpt>
      <trkpt lat="43.53492" lon="6.77992">
        <ele>124.51</ele>
        <time>2016-01-16T14:47:10Z</time>
      </trkpt>
      <trkpt lat="43.53489" lon="6.77965">
        <ele>125.3</ele>
        <time>2016-01-16T14:47:17Z</time>
      </trkpt>
      <trkpt lat="43.53481" lon="6.77942">
        <ele>123.37</ele>
        <time>2016-01-16T14:47:22Z</time>
      </trkpt>
      <trkpt lat="43.53478" lon="6.77916">
        <ele>123.4</ele>
        <time>2016-01-16T14:47:28Z</time>
      </trkpt>
      <trkpt lat="43.53473" lon="6.77891">
        <ele>124.84</ele>
        <time>2016-01-16T14:47:34Z</time>
      </trkpt>
      <trkpt lat="43.53491" lon="6.77881">
        <ele>124.01</ele>
        <time>2016-01-16T14:47:39Z</time>
      </trkpt>
      <trkpt lat="43.53511" lon="6.77883">
        <ele>125.04</ele>
        <time>2016-01-16T14:47:43Z</time>
      </trkpt>
      <trkpt lat="43.5353" lon="6.77884">
        <ele>126.36</ele>
        <time>2016-01-16T14:47:47Z</time>
      </trkpt>
      <trkpt lat="43.53549" lon="6.77887">
        <ele>125.96</ele>
        <time>2016-01-16T14:47:52Z</time>
      </trkpt>
      <trkpt lat="43.53567" lon="6.77897">
        <ele>126.73</ele>
        <time>2016-01-16T14:47:56Z</time>
      </trkpt>
      <trkpt lat="43.53584" lon="6.77886">
        <ele>126.61</ele>
        <time>2016-01-16T14:48:03Z</time>
      </trkpt>
      <trkpt lat="43.53586" lon="6.77859">
        <ele>126.83</ele>
        <time>2016-01-16T14:48:07Z</time>
      </trkpt>
      <trkpt lat="43.53593" lon="6.77835">
        <ele>127.28</ele>
        <time>2016-01-16T14:48:11Z</time>
      </trkpt>
      <trkpt lat="43.53609" lon="6.77815">
        <ele>127.34</ele>
        <time>2016-01-16T14:48:16Z</time>
      </trkpt>
      <trkpt lat="43.53609" lon="6.77788">
        <ele>126.21</ele>
        <time>2016-01-16T14:48:22Z</time>
      </trkpt>
      <trkpt lat="43.53613" lon="6.77761">
        <ele>127.57</ele>
        <time>2016-01-16T14:48:29Z</time>
      </trkpt>
      <trkpt lat="43.53631" lon="6.7776">
        <ele>124.09</ele>
        <time>2016-01-16T14:48:34Z</time>
      </trkpt>
      <trkpt lat="43.53653" lon="6.77765">
        <ele>122.98</ele>
        <time>2016-01-16T14:48:38Z</time>
      </trkpt>
      <trkpt lat="43.53676" lon="6.77767">
        <ele>122.48</ele>
        <time>2016-01-16T14:48:42Z</time>
      </trkpt>
      <trkpt lat="43.53699" lon="6.77773">
        <ele>123.69</ele>
        <time>2016-01-16T14:48:46Z</time>
      </trkpt>
      <trkpt lat="43.53723" lon="6.77775">
        <ele>121.47</ele>
        <time>2016-01-16T14:48:51Z</time>
      </trkpt>
      <trkpt lat="43.53741" lon="6.77774">
        <ele>121.26</ele>
        <time>2016-01-16T14:48:55Z</time>
      </trkpt>
      <trkpt lat="43.5376" lon="6.77788">
        <ele>122.12</ele>
        <time>2016-01-16T14:49:00Z</time>
      </trkpt>
      <trkpt lat="43.53777" lon="6.77805">
        <ele>122.92</ele>
        <time>2016-01-16T14:49:05Z</time>
      </trkpt>
      <trkpt lat="43.53793" lon="6.77822">
        <ele>122</ele>
        <time>2016-01-16T14:49:11Z</time>
      </trkpt>
      <trkpt lat="43.53811" lon="6.7783">
        <ele>124.98</ele>
        <time>2016-01-16T14:49:16Z</time>
      </trkpt>
      <trkpt lat="43.5383" lon="6.7784">
        <ele>127.48</ele>
        <time>2016-01-16T14:49:20Z</time>
      </trkpt>
      <trkpt lat="43.53851" lon="6.77833">
        <ele>129.09</ele>
        <time>2016-01-16T14:49:25Z</time>
      </trkpt>
      <trkpt lat="43.53868" lon="6.77825">
        <ele>127.36</ele>
        <time>2016-01-16T14:49:29Z</time>
      </trkpt>
      <trkpt lat="43.53884" lon="6.77838">
        <ele>126.81</ele>
        <time>2016-01-16T14:49:33Z</time>
      </trkpt>
      <trkpt lat="43.53905" lon="6.77852">
        <ele>127.9</ele>
        <time>2016-01-16T14:49:37Z</time>
      </trkpt>
      <trkpt lat="43.53923" lon="6.77862">
        <ele>126.03</ele>
        <time>2016-01-16T14:49:41Z</time>
      </trkpt>
      <trkpt lat="43.5394" lon="6.77872">
        <ele>124.8</ele>
        <time>2016-01-16T14:49:46Z</time>
      </trkpt>
      <trkpt lat="43.5396" lon="6.77864">
        <ele>124.98</ele>
        <time>2016-01-16T14:49:51Z</time>
      </trkpt>
      <trkpt lat="43.5398" lon="6.77867">
        <ele>125.23</ele>
        <time>2016-01-16T14:49:55Z</time>
      </trkpt>
      <trkpt lat="43.53995" lon="6.77881">
        <ele>126.52</ele>
        <time>2016-01-16T14:50:05Z</time>
      </trkpt>
      <trkpt lat="43.54008" lon="6.77904">
        <ele>126.44</ele>
        <time>2016-01-16T14:50:10Z</time>
      </trkpt>
      <trkpt lat="43.54017" lon="6.77927">
        <ele>124.82</ele>
        <time>2016-01-16T14:50:14Z</time>
      </trkpt>
      <trkpt lat="43.54022" lon="6.77951">
        <ele>124.12</ele>
        <time>2016-01-16T14:50:20Z</time>
      </trkpt>
      <trkpt lat="43.54036" lon="6.77968">
        <ele>122.92</ele>
        <time>2016-01-16T14:51:25Z</time>
      </trkpt>
      <trkpt lat="43.54054" lon="6.77971">
        <ele>118.68</ele>
        <time>2016-01-16T14:51:52Z</time>
      </trkpt>
      <trkpt lat="43.54069" lon="6.77958">
        <ele>108.38</ele>
        <time>2016-01-16T14:52:33Z</time>
      </trkpt>
      <trkpt lat="43.5408" lon="6.77936">
        <ele>109.69</ele>
        <time>2016-01-16T14:53:25Z</time>
      </trkpt>
      <trkpt lat="43.54095" lon="6.77917">
        <ele>100.72</ele>
        <time>2016-01-16T14:54:03Z</time>
      </trkpt>
      <trkpt lat="43.54108" lon="6.77897">
        <ele>101.17</ele>
        <time>2016-01-16T14:54:10Z</time>
      </trkpt>
      <trkpt lat="43.54121" lon="6.77879">
        <ele>104.79</ele>
        <time>2016-01-16T14:54:20Z</time>
      </trkpt>
      <trkpt lat="43.54137" lon="6.77868">
        <ele>94.31</ele>
        <time>2016-01-16T14:54:30Z</time>
      </trkpt>
      <trkpt lat="43.54156" lon="6.77861">
        <ele>95.11</ele>
        <time>2016-01-16T14:54:37Z</time>
      </trkpt>
      <trkpt lat="43.54175" lon="6.77857">
        <ele>98.44</ele>
        <time>2016-01-16T14:54:44Z</time>
      </trkpt>
      <trkpt lat="43.54194" lon="6.77852">
        <ele>100.41</ele>
        <time>2016-01-16T14:54:50Z</time>
      </trkpt>
      <trkpt lat="43.54214" lon="6.77851">
        <ele>100.43</ele>
        <time>2016-01-16T14:54:57Z</time>
      </trkpt>
      <trkpt lat="43.54233" lon="6.77852">
        <ele>99.51</ele>
        <time>2016-01-16T14:55:03Z</time>
      </trkpt>
      <trkpt lat="43.54251" lon="6.77849">
        <ele>100.93</ele>
        <time>2016-01-16T14:55:09Z</time>
      </trkpt>
      <trkpt lat="43.54268" lon="6.77833">
        <ele>92.32</ele>
        <time>2016-01-16T14:55:16Z</time>
      </trkpt>
      <trkpt lat="43.54282" lon="6.77818">
        <ele>90.87</ele>
        <time>2016-01-16T14:55:21Z</time>
      </trkpt>
      <trkpt lat="43.54298" lon="6.77802">
        <ele>91.64</ele>
        <time>2016-01-16T14:55:26Z</time>
      </trkpt>
      <trkpt lat="43.54315" lon="6.77791">
        <ele>95.61</ele>
        <time>2016-01-16T14:55:29Z</time>
      </trkpt>
      <trkpt lat="43.54331" lon="6.77773">
        <ele>96.93</ele>
        <time>2016-01-16T14:55:35Z</time>
      </trkpt>
      <trkpt lat="43.54351" lon="6.77766">
        <ele>94.51</ele>
        <time>2016-01-16T14:55:57Z</time>
      </trkpt>
      <trkpt lat="43.5437" lon="6.77763">
        <ele>93.26</ele>
        <time>2016-01-16T14:56:01Z</time>
      </trkpt>
      <trkpt lat="43.54394" lon="6.77763">
        <ele>92.74</ele>
        <time>2016-01-16T14:56:05Z</time>
      </trkpt>
      <trkpt lat="43.54417" lon="6.77763">
        <ele>93.52</ele>
        <time>2016-01-16T14:56:09Z</time>
      </trkpt>
      <trkpt lat="43.54439" lon="6.77763">
        <ele>94.64</ele>
        <time>2016-01-16T14:56:13Z</time>
      </trkpt>
      <trkpt lat="43.54458" lon="6.77761">
        <ele>96.23</ele>
        <time>2016-01-16T14:56:16Z</time>
      </trkpt>
      <trkpt lat="43.54481" lon="6.77759">
        <ele>98.74</ele>
        <time>2016-01-16T14:56:20Z</time>
      </trkpt>
      <trkpt lat="43.54504" lon="6.77758">
        <ele>100.09</ele>
        <time>2016-01-16T14:56:24Z</time>
      </trkpt>
      <trkpt lat="43.54522" lon="6.77762">
        <ele>98.17</ele>
        <time>2016-01-16T14:56:28Z</time>
      </trkpt>
      <trkpt lat="43.54546" lon="6.77772">
        <ele>97.74</ele>
        <time>2016-01-16T14:56:32Z</time>
      </trkpt>
      <trkpt lat="43.5456" lon="6.77788">
        <ele>98.87</ele>
        <time>2016-01-16T14:56:35Z</time>
      </trkpt>
      <trkpt lat="43.5458" lon="6.77801">
        <ele>98.64</ele>
        <time>2016-01-16T14:56:38Z</time>
      </trkpt>
      <trkpt lat="43.54601" lon="6.77814">
        <ele>100.36</ele>
        <time>2016-01-16T14:56:41Z</time>
      </trkpt>
      <trkpt lat="43.5462" lon="6.77826">
        <ele>101.2</ele>
        <time>2016-01-16T14:56:44Z</time>
      </trkpt>
      <trkpt lat="43.54638" lon="6.77841">
        <ele>101.55</ele>
        <time>2016-01-16T14:56:47Z</time>
      </trkpt>
      <trkpt lat="43.54655" lon="6.77854">
        <ele>102.1</ele>
        <time>2016-01-16T14:56:50Z</time>
      </trkpt>
      <trkpt lat="43.54674" lon="6.77869">
        <ele>102.42</ele>
        <time>2016-01-16T14:56:53Z</time>
      </trkpt>
      <trkpt lat="43.54691" lon="6.77886">
        <ele>103.46</ele>
        <time>2016-01-16T14:56:56Z</time>
      </trkpt>
      <trkpt lat="43.54702" lon="6.77907">
        <ele>102.96</ele>
        <time>2016-01-16T14:56:59Z</time>
      </trkpt>
      <trkpt lat="43.54713" lon="6.77938">
        <ele>98.91</ele>
        <time>2016-01-16T14:57:03Z</time>
      </trkpt>
      <trkpt lat="43.54726" lon="6.77963">
        <ele>100.02</ele>
        <time>2016-01-16T14:57:06Z</time>
      </trkpt>
      <trkpt lat="43.54737" lon="6.77988">
        <ele>99.28</ele>
        <time>2016-01-16T14:57:09Z</time>
      </trkpt>
      <trkpt lat="43.5475" lon="6.78006">
        <ele>99.31</ele>
        <time>2016-01-16T14:57:12Z</time>
      </trkpt>
      <trkpt lat="43.54764" lon="6.78025">
        <ele>98.32</ele>
        <time>2016-01-16T14:57:15Z</time>
      </trkpt>
      <trkpt lat="43.5478" lon="6.78041">
        <ele>98.69</ele>
        <time>2016-01-16T14:57:18Z</time>
      </trkpt>
      <trkpt lat="43.54799" lon="6.78059">
        <ele>99.87</ele>
        <time>2016-01-16T14:57:21Z</time>
      </trkpt>
      <trkpt lat="43.54819" lon="6.78079">
        <ele>100.26</ele>
        <time>2016-01-16T14:57:24Z</time>
      </trkpt>
      <trkpt lat="43.54834" lon="6.781">
        <ele>100.69</ele>
        <time>2016-01-16T14:57:27Z</time>
      </trkpt>
      <trkpt lat="43.54858" lon="6.78117">
        <ele>102.61</ele>
        <time>2016-01-16T14:57:30Z</time>
      </trkpt>
      <trkpt lat="43.54878" lon="6.78123">
        <ele>104.23</ele>
        <time>2016-01-16T14:57:33Z</time>
      </trkpt>
      <trkpt lat="43.54903" lon="6.78133">
        <ele>103.62</ele>
        <time>2016-01-16T14:57:37Z</time>
      </trkpt>
      <trkpt lat="43.5492" lon="6.78141">
        <ele>103.73</ele>
        <time>2016-01-16T14:57:40Z</time>
      </trkpt>
      <trkpt lat="43.54936" lon="6.78158">
        <ele>104</ele>
        <time>2016-01-16T14:57:43Z</time>
      </trkpt>
      <trkpt lat="43.54954" lon="6.78176">
        <ele>103.65</ele>
        <time>2016-01-16T14:57:46Z</time>
      </trkpt>
      <trkpt lat="43.54969" lon="6.78201">
        <ele>105.61</ele>
        <time>2016-01-16T14:57:49Z</time>
      </trkpt>
      <trkpt lat="43.54983" lon="6.78231">
        <ele>105.86</ele>
        <time>2016-01-16T14:57:52Z</time>
      </trkpt>
      <trkpt lat="43.54995" lon="6.78251">
        <ele>106.26</ele>
        <time>2016-01-16T14:57:55Z</time>
      </trkpt>
      <trkpt lat="43.55012" lon="6.7827">
        <ele>105.19</ele>
        <time>2016-01-16T14:57:58Z</time>
      </trkpt>
      <trkpt lat="43.55032" lon="6.78285">
        <ele>106.8</ele>
        <time>2016-01-16T14:58:01Z</time>
      </trkpt>
      <trkpt lat="43.55053" lon="6.78287">
        <ele>109.9</ele>
        <time>2016-01-16T14:58:05Z</time>
      </trkpt>
      <trkpt lat="43.55072" lon="6.78292">
        <ele>112.64</ele>
        <time>2016-01-16T14:58:08Z</time>
      </trkpt>
      <trkpt lat="43.55093" lon="6.78298">
        <ele>113.08</ele>
        <time>2016-01-16T14:58:12Z</time>
      </trkpt>
      <trkpt lat="43.5511" lon="6.7831">
        <ele>110.61</ele>
        <time>2016-01-16T14:58:16Z</time>
      </trkpt>
      <trkpt lat="43.55123" lon="6.78328">
        <ele>110.2</ele>
        <time>2016-01-16T14:58:20Z</time>
      </trkpt>
      <trkpt lat="43.55131" lon="6.78351">
        <ele>113.55</ele>
        <time>2016-01-16T15:02:27Z</time>
      </trkpt>
      <trkpt lat="43.5513" lon="6.78377">
        <ele>111.45</ele>
        <time>2016-01-16T15:02:31Z</time>
      </trkpt>
      <trkpt lat="43.55124" lon="6.78409">
        <ele>111.19</ele>
        <time>2016-01-16T15:02:35Z</time>
      </trkpt>
      <trkpt lat="43.55116" lon="6.78438">
        <ele>111.93</ele>
        <time>2016-01-16T15:02:39Z</time>
      </trkpt>
      <trkpt lat="43.55109" lon="6.78463">
        <ele>113.89</ele>
        <time>2016-01-16T15:02:42Z</time>
      </trkpt>
      <trkpt lat="43.55126" lon="6.78441">
        <ele>109.31</ele>
        <time>2016-01-16T15:02:49Z</time>
      </trkpt>
      <trkpt lat="43.55135" lon="6.78418">
        <ele>107.94</ele>
        <time>2016-01-16T15:02:52Z</time>
      </trkpt>
      <trkpt lat="43.55142" lon="6.78391">
        <ele>106.9</ele>
        <time>2016-01-16T15:02:55Z</time>
      </trkpt>
      <trkpt lat="43.55149" lon="6.78358">
        <ele>104.27</ele>
        <time>2016-01-16T15:02:58Z</time>
      </trkpt>
      <trkpt lat="43.55154" lon="6.78333">
        <ele>103.2</ele>
        <time>2016-01-16T15:03:00Z</time>
      </trkpt>
      <trkpt lat="43.55162" lon="6.78308">
        <ele>103.18</ele>
        <time>2016-01-16T15:03:02Z</time>
      </trkpt>
      <trkpt lat="43.5517" lon="6.78284">
        <ele>103.18</ele>
        <time>2016-01-16T15:03:04Z</time>
      </trkpt>
      <trkpt lat="43.55177" lon="6.78253">
        <ele>103.05</ele>
        <time>2016-01-16T15:03:07Z</time>
      </trkpt>
      <trkpt lat="43.55183" lon="6.78228">
        <ele>104.41</ele>
        <time>2016-01-16T15:03:10Z</time>
      </trkpt>
      <trkpt lat="43.55191" lon="6.782">
        <ele>105.96</ele>
        <time>2016-01-16T15:03:13Z</time>
      </trkpt>
      <trkpt lat="43.55195" lon="6.78173">
        <ele>108.4</ele>
        <time>2016-01-16T15:03:16Z</time>
      </trkpt>
      <trkpt lat="43.55188" lon="6.78146">
        <ele>109.95</ele>
        <time>2016-01-16T15:03:19Z</time>
      </trkpt>
      <trkpt lat="43.55185" lon="6.7812">
        <ele>112.15</ele>
        <time>2016-01-16T15:03:22Z</time>
      </trkpt>
      <trkpt lat="43.55185" lon="6.78094">
        <ele>114.3</ele>
        <time>2016-01-16T15:03:25Z</time>
      </trkpt>
      <trkpt lat="43.55184" lon="6.7807">
        <ele>114.32</ele>
        <time>2016-01-16T15:03:28Z</time>
      </trkpt>
      <trkpt lat="43.55184" lon="6.78042">
        <ele>114.69</ele>
        <time>2016-01-16T15:03:31Z</time>
      </trkpt>
      <trkpt lat="43.55195" lon="6.78019">
        <ele>116.49</ele>
        <time>2016-01-16T15:03:34Z</time>
      </trkpt>
      <trkpt lat="43.55206" lon="6.77992">
        <ele>118.72</ele>
        <time>2016-01-16T15:03:37Z</time>
      </trkpt>
      <trkpt lat="43.55221" lon="6.7797">
        <ele>121.62</ele>
        <time>2016-01-16T15:03:40Z</time>
      </trkpt>
      <trkpt lat="43.55239" lon="6.7795">
        <ele>123.48</ele>
        <time>2016-01-16T15:03:43Z</time>
      </trkpt>
      <trkpt lat="43.55255" lon="6.77927">
        <ele>124.57</ele>
        <time>2016-01-16T15:03:47Z</time>
      </trkpt>
      <trkpt lat="43.55257" lon="6.77898">
        <ele>125.85</ele>
        <time>2016-01-16T15:03:50Z</time>
      </trkpt>
      <trkpt lat="43.55258" lon="6.77868">
        <ele>126.26</ele>
        <time>2016-01-16T15:03:53Z</time>
      </trkpt>
      <trkpt lat="43.55259" lon="6.77839">
        <ele>125.31</ele>
        <time>2016-01-16T15:03:56Z</time>
      </trkpt>
      <trkpt lat="43.55265" lon="6.77811">
        <ele>125.94</ele>
        <time>2016-01-16T15:03:59Z</time>
      </trkpt>
      <trkpt lat="43.55276" lon="6.77783">
        <ele>126.52</ele>
        <time>2016-01-16T15:04:02Z</time>
      </trkpt>
      <trkpt lat="43.55283" lon="6.77757">
        <ele>131.07</ele>
        <time>2016-01-16T15:04:06Z</time>
      </trkpt>
      <trkpt lat="43.55292" lon="6.77734">
        <ele>129.42</ele>
        <time>2016-01-16T15:04:14Z</time>
      </trkpt>
      <trkpt lat="43.55311" lon="6.77721">
        <ele>130.84</ele>
        <time>2016-01-16T15:04:20Z</time>
      </trkpt>
      <trkpt lat="43.55329" lon="6.77721">
        <ele>131.29</ele>
        <time>2016-01-16T15:04:25Z</time>
      </trkpt>
      <trkpt lat="43.55349" lon="6.77732">
        <ele>132.31</ele>
        <time>2016-01-16T15:04:29Z</time>
      </trkpt>
      <trkpt lat="43.55368" lon="6.77748">
        <ele>131.56</ele>
        <time>2016-01-16T15:04:33Z</time>
      </trkpt>
      <trkpt lat="43.55389" lon="6.77758">
        <ele>131.82</ele>
        <time>2016-01-16T15:04:37Z</time>
      </trkpt>
      <trkpt lat="43.55407" lon="6.77753">
        <ele>132.01</ele>
        <time>2016-01-16T15:04:40Z</time>
      </trkpt>
      <trkpt lat="43.55425" lon="6.77758">
        <ele>133.9</ele>
        <time>2016-01-16T15:04:43Z</time>
      </trkpt>
      <trkpt lat="43.55445" lon="6.77777">
        <ele>130.32</ele>
        <time>2016-01-16T15:04:48Z</time>
      </trkpt>
      <trkpt lat="43.55467" lon="6.77786">
        <ele>127.44</ele>
        <time>2016-01-16T15:04:52Z</time>
      </trkpt>
      <trkpt lat="43.55492" lon="6.77792">
        <ele>125.75</ele>
        <time>2016-01-16T15:04:56Z</time>
      </trkpt>
      <trkpt lat="43.5551" lon="6.77782">
        <ele>124.87</ele>
        <time>2016-01-16T15:04:59Z</time>
      </trkpt>
      <trkpt lat="43.55518" lon="6.77756">
        <ele>123.22</ele>
        <time>2016-01-16T15:05:03Z</time>
      </trkpt>
      <trkpt lat="43.55518" lon="6.77731">
        <ele>124.87</ele>
        <time>2016-01-16T15:05:07Z</time>
      </trkpt>
      <trkpt lat="43.55514" lon="6.77705">
        <ele>123.35</ele>
        <time>2016-01-16T15:05:12Z</time>
      </trkpt>
      <trkpt lat="43.55533" lon="6.77713">
        <ele>121.68</ele>
        <time>2016-01-16T15:05:19Z</time>
      </trkpt>
      <trkpt lat="43.55547" lon="6.77697">
        <ele>123.6</ele>
        <time>2016-01-16T15:05:24Z</time>
      </trkpt>
      <trkpt lat="43.55558" lon="6.77676">
        <ele>123.7</ele>
        <time>2016-01-16T15:05:28Z</time>
      </trkpt>
      <trkpt lat="43.55565" lon="6.77651">
        <ele>124.16</ele>
        <time>2016-01-16T15:05:33Z</time>
      </trkpt>
      <trkpt lat="43.55566" lon="6.77621">
        <ele>125.55</ele>
        <time>2016-01-16T15:05:38Z</time>
      </trkpt>
      <trkpt lat="43.5557" lon="6.77596">
        <ele>123.45</ele>
        <time>2016-01-16T15:05:42Z</time>
      </trkpt>
      <trkpt lat="43.55582" lon="6.77571">
        <ele>127.68</ele>
        <time>2016-01-16T15:05:47Z</time>
      </trkpt>
      <trkpt lat="43.556" lon="6.77578">
        <ele>132.13</ele>
        <time>2016-01-16T15:05:52Z</time>
      </trkpt>
      <trkpt lat="43.55619" lon="6.77588">
        <ele>133.5</ele>
        <time>2016-01-16T15:05:58Z</time>
      </trkpt>
      <trkpt lat="43.55639" lon="6.77587">
        <ele>133.95</ele>
        <time>2016-01-16T15:06:02Z</time>
      </trkpt>
      <trkpt lat="43.55658" lon="6.77578">
        <ele>136.79</ele>
        <time>2016-01-16T15:06:06Z</time>
      </trkpt>
      <trkpt lat="43.55678" lon="6.77568">
        <ele>139.1</ele>
        <time>2016-01-16T15:06:11Z</time>
      </trkpt>
      <trkpt lat="43.55692" lon="6.77591">
        <ele>140.49</ele>
        <time>2016-01-16T15:06:16Z</time>
      </trkpt>
      <trkpt lat="43.55695" lon="6.77616">
        <ele>145.88</ele>
        <time>2016-01-16T15:06:20Z</time>
      </trkpt>
      <trkpt lat="43.55708" lon="6.77633">
        <ele>147.66</ele>
        <time>2016-01-16T15:06:24Z</time>
      </trkpt>
      <trkpt lat="43.5571" lon="6.77663">
        <ele>146.69</ele>
        <time>2016-01-16T15:06:29Z</time>
      </trkpt>
      <trkpt lat="43.55716" lon="6.77691">
        <ele>150.97</ele>
        <time>2016-01-16T15:06:34Z</time>
      </trkpt>
      <trkpt lat="43.55729" lon="6.77712">
        <ele>152.48</ele>
        <time>2016-01-16T15:06:39Z</time>
      </trkpt>
      <trkpt lat="43.55745" lon="6.77726">
        <ele>153.15</ele>
        <time>2016-01-16T15:06:44Z</time>
      </trkpt>
      <trkpt lat="43.55762" lon="6.77743">
        <ele>154.55</ele>
        <time>2016-01-16T15:06:49Z</time>
      </trkpt>
      <trkpt lat="43.55779" lon="6.77754">
        <ele>154.64</ele>
        <time>2016-01-16T15:06:53Z</time>
      </trkpt>
      <trkpt lat="43.55794" lon="6.77768">
        <ele>159</ele>
        <time>2016-01-16T15:06:58Z</time>
      </trkpt>
      <trkpt lat="43.55803" lon="6.7779">
        <ele>163.47</ele>
        <time>2016-01-16T15:07:04Z</time>
      </trkpt>
      <trkpt lat="43.55818" lon="6.77804">
        <ele>162.94</ele>
        <time>2016-01-16T15:07:13Z</time>
      </trkpt>
      <trkpt lat="43.55831" lon="6.77823">
        <ele>163.3</ele>
        <time>2016-01-16T15:09:04Z</time>
      </trkpt>
      <trkpt lat="43.55838" lon="6.77848">
        <ele>161.27</ele>
        <time>2016-01-16T15:09:10Z</time>
      </trkpt>
      <trkpt lat="43.55835" lon="6.77878">
        <ele>163.56</ele>
        <time>2016-01-16T15:09:14Z</time>
      </trkpt>
      <trkpt lat="43.55847" lon="6.77903">
        <ele>160.73</ele>
        <time>2016-01-16T15:09:20Z</time>
      </trkpt>
      <trkpt lat="43.55866" lon="6.77908">
        <ele>155.02</ele>
        <time>2016-01-16T15:09:24Z</time>
      </trkpt>
      <trkpt lat="43.55887" lon="6.77903">
        <ele>151.92</ele>
        <time>2016-01-16T15:09:28Z</time>
      </trkpt>
      <trkpt lat="43.55908" lon="6.77899">
        <ele>148.86</ele>
        <time>2016-01-16T15:09:33Z</time>
      </trkpt>
      <trkpt lat="43.55926" lon="6.77887">
        <ele>144.2</ele>
        <time>2016-01-16T15:09:38Z</time>
      </trkpt>
      <trkpt lat="43.55938" lon="6.77905">
        <ele>136.8</ele>
        <time>2016-01-16T15:09:45Z</time>
      </trkpt>
      <trkpt lat="43.55955" lon="6.77919">
        <ele>144.15</ele>
        <time>2016-01-16T15:10:16Z</time>
      </trkpt>
      <trkpt lat="43.55969" lon="6.77902">
        <ele>147.22</ele>
        <time>2016-01-16T15:10:36Z</time>
      </trkpt>
      <trkpt lat="43.55981" lon="6.77884">
        <ele>146.86</ele>
        <time>2016-01-16T15:11:30Z</time>
      </trkpt>
      <trkpt lat="43.55998" lon="6.77874">
        <ele>150.59</ele>
        <time>2016-01-16T15:11:51Z</time>
      </trkpt>
      <trkpt lat="43.56018" lon="6.77863">
        <ele>150.91</ele>
        <time>2016-01-16T15:11:56Z</time>
      </trkpt>
      <trkpt lat="43.56037" lon="6.77867">
        <ele>150.72</ele>
        <time>2016-01-16T15:12:00Z</time>
      </trkpt>
      <trkpt lat="43.56059" lon="6.77867">
        <ele>150.97</ele>
        <time>2016-01-16T15:12:05Z</time>
      </trkpt>
      <trkpt lat="43.56076" lon="6.77855">
        <ele>151.68</ele>
        <time>2016-01-16T15:12:12Z</time>
      </trkpt>
      <trkpt lat="43.56096" lon="6.77862">
        <ele>151.35</ele>
        <time>2016-01-16T15:13:15Z</time>
      </trkpt>
      <trkpt lat="43.56105" lon="6.77887">
        <ele>155.32</ele>
        <time>2016-01-16T15:13:23Z</time>
      </trkpt>
      <trkpt lat="43.56112" lon="6.77914">
        <ele>161.19</ele>
        <time>2016-01-16T15:13:31Z</time>
      </trkpt>
      <trkpt lat="43.56125" lon="6.77932">
        <ele>161.61</ele>
        <time>2016-01-16T15:13:38Z</time>
      </trkpt>
      <trkpt lat="43.5614" lon="6.77918">
        <ele>165.5</ele>
        <time>2016-01-16T15:13:50Z</time>
      </trkpt>
      <trkpt lat="43.56144" lon="6.77891">
        <ele>171.3</ele>
        <time>2016-01-16T15:14:27Z</time>
      </trkpt>
      <trkpt lat="43.56137" lon="6.77864">
        <ele>174.94</ele>
        <time>2016-01-16T15:14:38Z</time>
      </trkpt>
      <trkpt lat="43.56118" lon="6.77854">
        <ele>173.28</ele>
        <time>2016-01-16T15:14:45Z</time>
      </trkpt>
      <trkpt lat="43.56121" lon="6.77829">
        <ele>170.99</ele>
        <time>2016-01-16T15:15:03Z</time>
      </trkpt>
      <trkpt lat="43.56137" lon="6.77815">
        <ele>177.37</ele>
        <time>2016-01-16T15:15:53Z</time>
      </trkpt>
      <trkpt lat="43.56155" lon="6.77804">
        <ele>183.69</ele>
        <time>2016-01-16T15:16:25Z</time>
      </trkpt>
      <trkpt lat="43.5617" lon="6.77789">
        <ele>186.43</ele>
        <time>2016-01-16T15:17:03Z</time>
      </trkpt>
      <trkpt lat="43.56186" lon="6.77777">
        <ele>196.53</ele>
        <time>2016-01-16T15:17:35Z</time>
      </trkpt>
      <trkpt lat="43.56191" lon="6.77751">
        <ele>202.47</ele>
        <time>2016-01-16T15:18:24Z</time>
      </trkpt>
      <trkpt lat="43.56196" lon="6.77726">
        <ele>209.61</ele>
        <time>2016-01-16T15:18:44Z</time>
      </trkpt>
      <trkpt lat="43.5621" lon="6.7771">
        <ele>211.55</ele>
        <time>2016-01-16T15:20:39Z</time>
      </trkpt>
      <trkpt lat="43.56226" lon="6.77696">
        <ele>212.67</ele>
        <time>2016-01-16T15:20:46Z</time>
      </trkpt>
      <trkpt lat="43.56245" lon="6.77681">
        <ele>213.48</ele>
        <time>2016-01-16T15:20:52Z</time>
      </trkpt>
      <trkpt lat="43.56261" lon="6.77665">
        <ele>214.57</ele>
        <time>2016-01-16T15:20:56Z</time>
      </trkpt>
      <trkpt lat="43.56286" lon="6.77654">
        <ele>213.85</ele>
        <time>2016-01-16T15:20:59Z</time>
      </trkpt>
      <trkpt lat="43.56302" lon="6.77638">
        <ele>215.05</ele>
        <time>2016-01-16T15:22:03Z</time>
      </trkpt>
      <trkpt lat="43.56324" lon="6.77627">
        <ele>218.43</ele>
        <time>2016-01-16T15:22:10Z</time>
      </trkpt>
      <trkpt lat="43.56343" lon="6.77624">
        <ele>225.65</ele>
        <time>2016-01-16T15:22:54Z</time>
      </trkpt>
      <trkpt lat="43.56356" lon="6.77606">
        <ele>227.27</ele>
        <time>2016-01-16T15:23:19Z</time>
      </trkpt>
      <trkpt lat="43.56371" lon="6.77592">
        <ele>230.8</ele>
        <time>2016-01-16T15:24:19Z</time>
      </trkpt>
      <trkpt lat="43.56387" lon="6.77583">
        <ele>235.3</ele>
        <time>2016-01-16T15:24:39Z</time>
      </trkpt>
      <trkpt lat="43.56408" lon="6.77577">
        <ele>242.15</ele>
        <time>2016-01-16T15:25:01Z</time>
      </trkpt>
      <trkpt lat="43.56426" lon="6.77572">
        <ele>247.04</ele>
        <time>2016-01-16T15:25:44Z</time>
      </trkpt>
      <trkpt lat="43.56445" lon="6.77575">
        <ele>251.17</ele>
        <time>2016-01-16T15:26:01Z</time>
      </trkpt>
      <trkpt lat="43.56461" lon="6.77585">
        <ele>253.54</ele>
        <time>2016-01-16T15:26:07Z</time>
      </trkpt>
      <trkpt lat="43.56479" lon="6.77595">
        <ele>258.7</ele>
        <time>2016-01-16T15:26:27Z</time>
      </trkpt>
      <trkpt lat="43.56497" lon="6.77601">
        <ele>265.03</ele>
        <time>2016-01-16T15:26:57Z</time>
      </trkpt>
      <trkpt lat="43.56515" lon="6.77613">
        <ele>266.18</ele>
        <time>2016-01-16T15:27:10Z</time>
      </trkpt>
      <trkpt lat="43.56531" lon="6.77626">
        <ele>271.88</ele>
        <time>2016-01-16T15:27:40Z</time>
      </trkpt>
      <trkpt lat="43.56543" lon="6.77644">
        <ele>280.72</ele>
        <time>2016-01-16T15:28:06Z</time>
      </trkpt>
      <trkpt lat="43.5656" lon="6.77658">
        <ele>285.43</ele>
        <time>2016-01-16T15:29:17Z</time>
      </trkpt>
      <trkpt lat="43.56573" lon="6.77675">
        <ele>285.2</ele>
        <time>2016-01-16T15:29:32Z</time>
      </trkpt>
      <trkpt lat="43.56593" lon="6.77686">
        <ele>286.99</ele>
        <time>2016-01-16T15:30:57Z</time>
      </trkpt>
      <trkpt lat="43.56613" lon="6.77692">
        <ele>286.42</ele>
        <time>2016-01-16T15:31:03Z</time>
      </trkpt>
      <trkpt lat="43.56632" lon="6.77695">
        <ele>290.19</ele>
        <time>2016-01-16T15:31:07Z</time>
      </trkpt>
      <trkpt lat="43.56653" lon="6.77693">
        <ele>289.3</ele>
        <time>2016-01-16T15:31:11Z</time>
      </trkpt>
      <trkpt lat="43.56673" lon="6.77696">
        <ele>290.62</ele>
        <time>2016-01-16T15:31:15Z</time>
      </trkpt>
      <trkpt lat="43.56691" lon="6.77687">
        <ele>287.85</ele>
        <time>2016-01-16T15:31:20Z</time>
      </trkpt>
      <trkpt lat="43.5671" lon="6.77671">
        <ele>287.53</ele>
        <time>2016-01-16T15:31:24Z</time>
      </trkpt>
      <trkpt lat="43.56723" lon="6.77646">
        <ele>288.89</ele>
        <time>2016-01-16T15:31:28Z</time>
      </trkpt>
      <trkpt lat="43.56739" lon="6.77663">
        <ele>294.49</ele>
        <time>2016-01-16T15:32:58Z</time>
      </trkpt>
      <trkpt lat="43.56736" lon="6.77693">
        <ele>295.67</ele>
        <time>2016-01-16T15:33:04Z</time>
      </trkpt>
      <trkpt lat="43.5674" lon="6.77721">
        <ele>300.41</ele>
        <time>2016-01-16T15:33:11Z</time>
      </trkpt>
      <trkpt lat="43.56743" lon="6.77748">
        <ele>305.3</ele>
        <time>2016-01-16T15:33:17Z</time>
      </trkpt>
      <trkpt lat="43.56752" lon="6.77771">
        <ele>307.21</ele>
        <time>2016-01-16T15:33:22Z</time>
      </trkpt>
      <trkpt lat="43.56761" lon="6.778">
        <ele>309.49</ele>
        <time>2016-01-16T15:33:26Z</time>
      </trkpt>
      <trkpt lat="43.56772" lon="6.77822">
        <ele>310.72</ele>
        <time>2016-01-16T15:33:29Z</time>
      </trkpt>
      <trkpt lat="43.56786" lon="6.77841">
        <ele>312.49</ele>
        <time>2016-01-16T15:33:32Z</time>
      </trkpt>
      <trkpt lat="43.56806" lon="6.77857">
        <ele>313.7</ele>
        <time>2016-01-16T15:33:36Z</time>
      </trkpt>
      <trkpt lat="43.56817" lon="6.77877">
        <ele>319.91</ele>
        <time>2016-01-16T15:33:43Z</time>
      </trkpt>
      <trkpt lat="43.56823" lon="6.779">
        <ele>321.4</ele>
        <time>2016-01-16T15:34:01Z</time>
      </trkpt>
      <trkpt lat="43.56836" lon="6.77919">
        <ele>323.69</ele>
        <time>2016-01-16T15:34:15Z</time>
      </trkpt>
      <trkpt lat="43.56842" lon="6.77944">
        <ele>326.23</ele>
        <time>2016-01-16T15:34:32Z</time>
      </trkpt>
      <trkpt lat="43.56847" lon="6.77969">
        <ele>328.76</ele>
        <time>2016-01-16T15:34:46Z</time>
      </trkpt>
      <trkpt lat="43.56849" lon="6.77996">
        <ele>332.9</ele>
        <time>2016-01-16T15:34:59Z</time>
      </trkpt>
      <trkpt lat="43.56856" lon="6.78019">
        <ele>336.79</ele>
        <time>2016-01-16T15:35:13Z</time>
      </trkpt>
      <trkpt lat="43.56867" lon="6.78041">
        <ele>342.17</ele>
        <time>2016-01-16T15:35:31Z</time>
      </trkpt>
      <trkpt lat="43.56881" lon="6.78058">
        <ele>340.11</ele>
        <time>2016-01-16T15:35:41Z</time>
      </trkpt>
      <trkpt lat="43.56899" lon="6.78075">
        <ele>336.71</ele>
        <time>2016-01-16T15:36:40Z</time>
      </trkpt>
      <trkpt lat="43.56918" lon="6.78089">
        <ele>336.75</ele>
        <time>2016-01-16T15:36:46Z</time>
      </trkpt>
      <trkpt lat="43.56935" lon="6.781">
        <ele>337.01</ele>
        <time>2016-01-16T15:36:51Z</time>
      </trkpt>
      <trkpt lat="43.56954" lon="6.78108">
        <ele>337.35</ele>
        <time>2016-01-16T15:36:55Z</time>
      </trkpt>
      <trkpt lat="43.56972" lon="6.78117">
        <ele>337.06</ele>
        <time>2016-01-16T15:36:59Z</time>
      </trkpt>
      <trkpt lat="43.5699" lon="6.78123">
        <ele>336.79</ele>
        <time>2016-01-16T15:37:03Z</time>
      </trkpt>
      <trkpt lat="43.5701" lon="6.78132">
        <ele>336.28</ele>
        <time>2016-01-16T15:37:07Z</time>
      </trkpt>
      <trkpt lat="43.5703" lon="6.78145">
        <ele>335.74</ele>
        <time>2016-01-16T15:37:11Z</time>
      </trkpt>
      <trkpt lat="43.57051" lon="6.78149">
        <ele>334.42</ele>
        <time>2016-01-16T15:37:17Z</time>
      </trkpt>
      <trkpt lat="43.57071" lon="6.78154">
        <ele>335</ele>
        <time>2016-01-16T15:37:22Z</time>
      </trkpt>
      <trkpt lat="43.5709" lon="6.78153">
        <ele>332.43</ele>
        <time>2016-01-16T15:37:30Z</time>
      </trkpt>
      <trkpt lat="43.5711" lon="6.78154">
        <ele>330.09</ele>
        <time>2016-01-16T15:37:35Z</time>
      </trkpt>
      <trkpt lat="43.57129" lon="6.78156">
        <ele>324.58</ele>
        <time>2016-01-16T15:37:41Z</time>
      </trkpt>
      <trkpt lat="43.57149" lon="6.78156">
        <ele>326.83</ele>
        <time>2016-01-16T15:37:45Z</time>
      </trkpt>
      <trkpt lat="43.5717" lon="6.78146">
        <ele>315.51</ele>
        <time>2016-01-16T15:38:06Z</time>
      </trkpt>
      <trkpt lat="43.57193" lon="6.78135">
        <ele>313.82</ele>
        <time>2016-01-16T15:38:10Z</time>
      </trkpt>
      <trkpt lat="43.57212" lon="6.78131">
        <ele>313.63</ele>
        <time>2016-01-16T15:38:13Z</time>
      </trkpt>
      <trkpt lat="43.57234" lon="6.78128">
        <ele>320.89</ele>
        <time>2016-01-16T15:38:17Z</time>
      </trkpt>
      <trkpt lat="43.57238" lon="6.78154">
        <ele>324.35</ele>
        <time>2016-01-16T15:38:25Z</time>
      </trkpt>
      <trkpt lat="43.57226" lon="6.78173">
        <ele>325.65</ele>
        <time>2016-01-16T15:38:33Z</time>
      </trkpt>
      <trkpt lat="43.57213" lon="6.78193">
        <ele>315.8</ele>
        <time>2016-01-16T15:38:43Z</time>
      </trkpt>
      <trkpt lat="43.57205" lon="6.78216">
        <ele>311.65</ele>
        <time>2016-01-16T15:38:53Z</time>
      </trkpt>
      <trkpt lat="43.5719" lon="6.78231">
        <ele>314.04</ele>
        <time>2016-01-16T15:39:02Z</time>
      </trkpt>
      <trkpt lat="43.57173" lon="6.78248">
        <ele>315.59</ele>
        <time>2016-01-16T15:39:12Z</time>
      </trkpt>
      <trkpt lat="43.57157" lon="6.78264">
        <ele>319.21</ele>
        <time>2016-01-16T15:39:23Z</time>
      </trkpt>
      <trkpt lat="43.57146" lon="6.78284">
        <ele>320.33</ele>
        <time>2016-01-16T15:39:29Z</time>
      </trkpt>
      <trkpt lat="43.57132" lon="6.78308">
        <ele>320.56</ele>
        <time>2016-01-16T15:39:33Z</time>
      </trkpt>
      <trkpt lat="43.57118" lon="6.78332">
        <ele>318.35</ele>
        <time>2016-01-16T15:39:36Z</time>
      </trkpt>
      <trkpt lat="43.57105" lon="6.78356">
        <ele>318.07</ele>
        <time>2016-01-16T15:39:39Z</time>
      </trkpt>
      <trkpt lat="43.57096" lon="6.78385">
        <ele>316.16</ele>
        <time>2016-01-16T15:39:42Z</time>
      </trkpt>
      <trkpt lat="43.57089" lon="6.78409">
        <ele>314.92</ele>
        <time>2016-01-16T15:39:44Z</time>
      </trkpt>
      <trkpt lat="43.57082" lon="6.78439">
        <ele>308.89</ele>
        <time>2016-01-16T15:39:47Z</time>
      </trkpt>
      <trkpt lat="43.57079" lon="6.78464">
        <ele>304.03</ele>
        <time>2016-01-16T15:39:51Z</time>
      </trkpt>
      <trkpt lat="43.57085" lon="6.78488">
        <ele>304.3</ele>
        <time>2016-01-16T15:39:58Z</time>
      </trkpt>
      <trkpt lat="43.57085" lon="6.78513">
        <ele>301.86</ele>
        <time>2016-01-16T15:40:13Z</time>
      </trkpt>
      <trkpt lat="43.57088" lon="6.78538">
        <ele>299.43</ele>
        <time>2016-01-16T15:40:28Z</time>
      </trkpt>
      <trkpt lat="43.57101" lon="6.78558">
        <ele>304.01</ele>
        <time>2016-01-16T15:40:44Z</time>
      </trkpt>
      <trkpt lat="43.57119" lon="6.78564">
        <ele>307.3</ele>
        <time>2016-01-16T15:40:59Z</time>
      </trkpt>
      <trkpt lat="43.57137" lon="6.7857">
        <ele>310.72</ele>
        <time>2016-01-16T15:41:14Z</time>
      </trkpt>
      <trkpt lat="43.57148" lon="6.78591">
        <ele>306.13</ele>
        <time>2016-01-16T15:42:00Z</time>
      </trkpt>
      <trkpt lat="43.57167" lon="6.78607">
        <ele>305.42</ele>
        <time>2016-01-16T15:42:04Z</time>
      </trkpt>
      <trkpt lat="43.57184" lon="6.78616">
        <ele>300.34</ele>
        <time>2016-01-16T15:42:09Z</time>
      </trkpt>
      <trkpt lat="43.57204" lon="6.78633">
        <ele>302.49</ele>
        <time>2016-01-16T15:42:14Z</time>
      </trkpt>
      <trkpt lat="43.57214" lon="6.78654">
        <ele>304.36</ele>
        <time>2016-01-16T15:42:21Z</time>
      </trkpt>
      <trkpt lat="43.57222" lon="6.7868">
        <ele>302.86</ele>
        <time>2016-01-16T15:42:28Z</time>
      </trkpt>
      <trkpt lat="43.57226" lon="6.78705">
        <ele>302.07</ele>
        <time>2016-01-16T15:42:33Z</time>
      </trkpt>
      <trkpt lat="43.57242" lon="6.7872">
        <ele>301.61</ele>
        <time>2016-01-16T15:42:42Z</time>
      </trkpt>
      <trkpt lat="43.57263" lon="6.78721">
        <ele>304.05</ele>
        <time>2016-01-16T15:43:19Z</time>
      </trkpt>
      <trkpt lat="43.57283" lon="6.78726">
        <ele>301.61</ele>
        <time>2016-01-16T15:43:23Z</time>
      </trkpt>
      <trkpt lat="43.57281" lon="6.78752">
        <ele>305.04</ele>
        <time>2016-01-16T15:43:29Z</time>
      </trkpt>
      <trkpt lat="43.5727" lon="6.78776">
        <ele>302.95</ele>
        <time>2016-01-16T15:43:34Z</time>
      </trkpt>
      <trkpt lat="43.57251" lon="6.78788">
        <ele>303.97</ele>
        <time>2016-01-16T15:43:40Z</time>
      </trkpt>
      <trkpt lat="43.57234" lon="6.788">
        <ele>304.3</ele>
        <time>2016-01-16T15:43:48Z</time>
      </trkpt>
      <trkpt lat="43.57216" lon="6.78812">
        <ele>293.88</ele>
        <time>2016-01-16T15:43:59Z</time>
      </trkpt>
      <trkpt lat="43.5721" lon="6.78837">
        <ele>278.94</ele>
        <time>2016-01-16T15:44:07Z</time>
      </trkpt>
      <trkpt lat="43.57204" lon="6.78862">
        <ele>269.56</ele>
        <time>2016-01-16T15:44:16Z</time>
      </trkpt>
      <trkpt lat="43.57189" lon="6.78878">
        <ele>262.9</ele>
        <time>2016-01-16T15:44:23Z</time>
      </trkpt>
      <trkpt lat="43.57178" lon="6.78901">
        <ele>265.84</ele>
        <time>2016-01-16T15:44:47Z</time>
      </trkpt>
      <trkpt lat="43.57165" lon="6.78922">
        <ele>267.09</ele>
        <time>2016-01-16T15:44:53Z</time>
      </trkpt>
      <trkpt lat="43.5715" lon="6.78937">
        <ele>257.51</ele>
        <time>2016-01-16T15:45:01Z</time>
      </trkpt>
      <trkpt lat="43.57133" lon="6.78953">
        <ele>250.34</ele>
        <time>2016-01-16T15:45:06Z</time>
      </trkpt>
      <trkpt lat="43.5715" lon="6.78953">
        <ele>247.18</ele>
        <time>2016-01-16T15:46:57Z</time>
      </trkpt>
      <trkpt lat="43.57153" lon="6.78954">
        <ele>246.18</ele>
        <time>2016-01-16T15:48:08Z</time>
      </trkpt>
      <trkpt lat="43.57168" lon="6.78938">
        <ele>247.22</ele>
        <time>2016-01-16T15:48:47Z</time>
      </trkpt>
      <trkpt lat="43.57185" lon="6.78928">
        <ele>249.45</ele>
        <time>2016-01-16T15:49:00Z</time>
      </trkpt>
      <trkpt lat="43.57204" lon="6.78923">
        <ele>252.3</ele>
        <time>2016-01-16T15:49:13Z</time>
      </trkpt>
      <trkpt lat="43.57222" lon="6.78912">
        <ele>250.25</ele>
        <time>2016-01-16T15:49:34Z</time>
      </trkpt>
      <trkpt lat="43.57235" lon="6.78889">
        <ele>250.14</ele>
        <time>2016-01-16T15:49:43Z</time>
      </trkpt>
      <trkpt lat="43.57258" lon="6.78888">
        <ele>253.74</ele>
        <time>2016-01-16T15:49:47Z</time>
      </trkpt>
      <trkpt lat="43.57276" lon="6.78897">
        <ele>255.78</ele>
        <time>2016-01-16T15:49:54Z</time>
      </trkpt>
      <trkpt lat="43.57292" lon="6.7891">
        <ele>255.48</ele>
        <time>2016-01-16T15:50:00Z</time>
      </trkpt>
      <trkpt lat="43.57272" lon="6.7891">
        <ele>243.92</ele>
        <time>2016-01-16T15:51:15Z</time>
      </trkpt>
      <trkpt lat="43.57254" lon="6.78902">
        <ele>248.03</ele>
        <time>2016-01-16T15:51:50Z</time>
      </trkpt>
      <trkpt lat="43.57245" lon="6.78924">
        <ele>244.4</ele>
        <time>2016-01-16T15:52:01Z</time>
      </trkpt>
      <trkpt lat="43.5723" lon="6.78939">
        <ele>243.27</ele>
        <time>2016-01-16T15:52:15Z</time>
      </trkpt>
      <trkpt lat="43.57215" lon="6.78954">
        <ele>236.41</ele>
        <time>2016-01-16T15:52:24Z</time>
      </trkpt>
      <trkpt lat="43.57198" lon="6.78967">
        <ele>235.63</ele>
        <time>2016-01-16T15:52:32Z</time>
      </trkpt>
      <trkpt lat="43.5718" lon="6.78973">
        <ele>229.06</ele>
        <time>2016-01-16T15:52:59Z</time>
      </trkpt>
      <trkpt lat="43.57168" lon="6.78993">
        <ele>229.05</ele>
        <time>2016-01-16T15:53:04Z</time>
      </trkpt>
      <trkpt lat="43.57191" lon="6.78991">
        <ele>228.05</ele>
        <time>2016-01-16T15:53:22Z</time>
      </trkpt>
      <trkpt lat="43.5721" lon="6.78992">
        <ele>229.68</ele>
        <time>2016-01-16T15:53:30Z</time>
      </trkpt>
      <trkpt lat="43.57227" lon="6.78981">
        <ele>230.76</ele>
        <time>2016-01-16T15:53:37Z</time>
      </trkpt>
      <trkpt lat="43.57245" lon="6.78983">
        <ele>231.95</ele>
        <time>2016-01-16T15:53:43Z</time>
      </trkpt>
      <trkpt lat="43.57235" lon="6.79005">
        <ele>228.2</ele>
        <time>2016-01-16T15:53:59Z</time>
      </trkpt>
      <trkpt lat="43.5723" lon="6.7903">
        <ele>221.81</ele>
        <time>2016-01-16T15:54:28Z</time>
      </trkpt>
      <trkpt lat="43.57217" lon="6.79049">
        <ele>212.13</ele>
        <time>2016-01-16T15:54:40Z</time>
      </trkpt>
      <trkpt lat="43.57208" lon="6.79075">
        <ele>213.65</ele>
        <time>2016-01-16T15:54:51Z</time>
      </trkpt>
      <trkpt lat="43.57204" lon="6.79101">
        <ele>209.21</ele>
        <time>2016-01-16T15:55:00Z</time>
      </trkpt>
      <trkpt lat="43.57202" lon="6.79125">
        <ele>201.88</ele>
        <time>2016-01-16T15:55:15Z</time>
      </trkpt>
      <trkpt lat="43.57212" lon="6.79149">
        <ele>196.71</ele>
        <time>2016-01-16T15:55:36Z</time>
      </trkpt>
      <trkpt lat="43.57205" lon="6.79173">
        <ele>194.32</ele>
        <time>2016-01-16T15:55:44Z</time>
      </trkpt>
      <trkpt lat="43.5719" lon="6.79157">
        <ele>192.39</ele>
        <time>2016-01-16T15:56:25Z</time>
      </trkpt>
      <trkpt lat="43.57184" lon="6.79181">
        <ele>187.98</ele>
        <time>2016-01-16T15:57:20Z</time>
      </trkpt>
      <trkpt lat="43.57184" lon="6.79206">
        <ele>189.42</ele>
        <time>2016-01-16T15:57:39Z</time>
      </trkpt>
      <trkpt lat="43.5719" lon="6.79232">
        <ele>183.43</ele>
        <time>2016-01-16T15:57:55Z</time>
      </trkpt>
      <trkpt lat="43.57184" lon="6.79256">
        <ele>174.33</ele>
        <time>2016-01-16T15:58:32Z</time>
      </trkpt>
      <trkpt lat="43.57184" lon="6.79281">
        <ele>174.09</ele>
        <time>2016-01-16T15:58:53Z</time>
      </trkpt>
      <trkpt lat="43.57178" lon="6.79307">
        <ele>170.2</ele>
        <time>2016-01-16T15:58:58Z</time>
      </trkpt>
      <trkpt lat="43.5716" lon="6.79317">
        <ele>167.57</ele>
        <time>2016-01-16T15:59:05Z</time>
      </trkpt>
      <trkpt lat="43.57139" lon="6.79316">
        <ele>166.26</ele>
        <time>2016-01-16T15:59:11Z</time>
      </trkpt>
      <trkpt lat="43.57121" lon="6.79318">
        <ele>162.79</ele>
        <time>2016-01-16T15:59:17Z</time>
      </trkpt>
      <trkpt lat="43.57099" lon="6.79309">
        <ele>161.58</ele>
        <time>2016-01-16T15:59:23Z</time>
      </trkpt>
      <trkpt lat="43.57082" lon="6.793">
        <ele>159.2</ele>
        <time>2016-01-16T15:59:27Z</time>
      </trkpt>
      <trkpt lat="43.57064" lon="6.79292">
        <ele>156.93</ele>
        <time>2016-01-16T15:59:31Z</time>
      </trkpt>
      <trkpt lat="43.57046" lon="6.7928">
        <ele>159.14</ele>
        <time>2016-01-16T15:59:36Z</time>
      </trkpt>
      <trkpt lat="43.5703" lon="6.79267">
        <ele>157.11</ele>
        <time>2016-01-16T15:59:41Z</time>
      </trkpt>
      <trkpt lat="43.57013" lon="6.79248">
        <ele>160.18</ele>
        <time>2016-01-16T15:59:47Z</time>
      </trkpt>
      <trkpt lat="43.56995" lon="6.79252">
        <ele>160.21</ele>
        <time>2016-01-16T15:59:53Z</time>
      </trkpt>
      <trkpt lat="43.56994" lon="6.79281">
        <ele>158.33</ele>
        <time>2016-01-16T15:59:58Z</time>
      </trkpt>
      <trkpt lat="43.56987" lon="6.79308">
        <ele>159.77</ele>
        <time>2016-01-16T16:00:03Z</time>
      </trkpt>
      <trkpt lat="43.56969" lon="6.79311">
        <ele>158.46</ele>
        <time>2016-01-16T16:00:07Z</time>
      </trkpt>
      <trkpt lat="43.56947" lon="6.79306">
        <ele>156.01</ele>
        <time>2016-01-16T16:00:11Z</time>
      </trkpt>
      <trkpt lat="43.5693" lon="6.7932">
        <ele>155.23</ele>
        <time>2016-01-16T16:00:15Z</time>
      </trkpt>
      <trkpt lat="43.56912" lon="6.79328">
        <ele>155.81</ele>
        <time>2016-01-16T16:00:18Z</time>
      </trkpt>
      <trkpt lat="43.56892" lon="6.79338">
        <ele>153.5</ele>
        <time>2016-01-16T16:00:21Z</time>
      </trkpt>
      <trkpt lat="43.56869" lon="6.79348">
        <ele>153.26</ele>
        <time>2016-01-16T16:00:25Z</time>
      </trkpt>
      <trkpt lat="43.56847" lon="6.7935">
        <ele>152.44</ele>
        <time>2016-01-16T16:00:28Z</time>
      </trkpt>
      <trkpt lat="43.56826" lon="6.79347">
        <ele>152.83</ele>
        <time>2016-01-16T16:00:31Z</time>
      </trkpt>
      <trkpt lat="43.56803" lon="6.79345">
        <ele>152.26</ele>
        <time>2016-01-16T16:00:34Z</time>
      </trkpt>
      <trkpt lat="43.56784" lon="6.79341">
        <ele>152.56</ele>
        <time>2016-01-16T16:00:37Z</time>
      </trkpt>
      <trkpt lat="43.5677" lon="6.79319">
        <ele>152.95</ele>
        <time>2016-01-16T16:00:41Z</time>
      </trkpt>
      <trkpt lat="43.56752" lon="6.79301">
        <ele>153.22</ele>
        <time>2016-01-16T16:00:45Z</time>
      </trkpt>
      <trkpt lat="43.56743" lon="6.79275">
        <ele>155.32</ele>
        <time>2016-01-16T16:00:51Z</time>
      </trkpt>
      <trkpt lat="43.56744" lon="6.79246">
        <ele>152.66</ele>
        <time>2016-01-16T16:00:59Z</time>
      </trkpt>
      <trkpt lat="43.56728" lon="6.79234">
        <ele>152.19</ele>
        <time>2016-01-16T16:01:04Z</time>
      </trkpt>
      <trkpt lat="43.56629" lon="6.79192">
        <ele>153.93</ele>
        <time>2016-01-16T16:01:37Z</time>
      </trkpt>
      <trkpt lat="43.56613" lon="6.7918">
        <ele>155.01</ele>
        <time>2016-01-16T16:01:44Z</time>
      </trkpt>
      <trkpt lat="43.56596" lon="6.79165">
        <ele>155.27</ele>
        <time>2016-01-16T16:01:50Z</time>
      </trkpt>
      <trkpt lat="43.5658" lon="6.7915">
        <ele>154.37</ele>
        <time>2016-01-16T16:01:55Z</time>
      </trkpt>
      <trkpt lat="43.56559" lon="6.79144">
        <ele>149.46</ele>
        <time>2016-01-16T16:02:00Z</time>
      </trkpt>
      <trkpt lat="43.5654" lon="6.79144">
        <ele>150.09</ele>
        <time>2016-01-16T16:02:05Z</time>
      </trkpt>
      <trkpt lat="43.5652" lon="6.79146">
        <ele>152.08</ele>
        <time>2016-01-16T16:02:10Z</time>
      </trkpt>
      <trkpt lat="43.56498" lon="6.79151">
        <ele>152.08</ele>
        <time>2016-01-16T16:02:15Z</time>
      </trkpt>
      <trkpt lat="43.56479" lon="6.79157">
        <ele>150.18</ele>
        <time>2016-01-16T16:03:18Z</time>
      </trkpt>
      <trkpt lat="43.56473" lon="6.79128">
        <ele>149.93</ele>
        <time>2016-01-16T16:03:26Z</time>
      </trkpt>
      <trkpt lat="43.5647" lon="6.79098">
        <ele>149.79</ele>
        <time>2016-01-16T16:03:30Z</time>
      </trkpt>
      <trkpt lat="43.56463" lon="6.79073">
        <ele>148.75</ele>
        <time>2016-01-16T16:03:33Z</time>
      </trkpt>
      <trkpt lat="43.56451" lon="6.79052">
        <ele>148.21</ele>
        <time>2016-01-16T16:03:37Z</time>
      </trkpt>
      <trkpt lat="43.56439" lon="6.7903">
        <ele>149.68</ele>
        <time>2016-01-16T16:03:41Z</time>
      </trkpt>
      <trkpt lat="43.56419" lon="6.7902">
        <ele>148.46</ele>
        <time>2016-01-16T16:03:45Z</time>
      </trkpt>
      <trkpt lat="43.56396" lon="6.79015">
        <ele>147.07</ele>
        <time>2016-01-16T16:03:49Z</time>
      </trkpt>
      <trkpt lat="43.56376" lon="6.79011">
        <ele>145.67</ele>
        <time>2016-01-16T16:03:53Z</time>
      </trkpt>
      <trkpt lat="43.56359" lon="6.79022">
        <ele>145.08</ele>
        <time>2016-01-16T16:03:57Z</time>
      </trkpt>
      <trkpt lat="43.56343" lon="6.79038">
        <ele>146.83</ele>
        <time>2016-01-16T16:04:02Z</time>
      </trkpt>
      <trkpt lat="43.56326" lon="6.79049">
        <ele>147.42</ele>
        <time>2016-01-16T16:04:20Z</time>
      </trkpt>
      <trkpt lat="43.56308" lon="6.79055">
        <ele>146.69</ele>
        <time>2016-01-16T16:04:24Z</time>
      </trkpt>
      <trkpt lat="43.56288" lon="6.79061">
        <ele>143.21</ele>
        <time>2016-01-16T16:04:28Z</time>
      </trkpt>
      <trkpt lat="43.56266" lon="6.79069">
        <ele>142.99</ele>
        <time>2016-01-16T16:04:32Z</time>
      </trkpt>
      <trkpt lat="43.56244" lon="6.79076">
        <ele>143.41</ele>
        <time>2016-01-16T16:04:36Z</time>
      </trkpt>
      <trkpt lat="43.56225" lon="6.79084">
        <ele>143.19</ele>
        <time>2016-01-16T16:04:40Z</time>
      </trkpt>
      <trkpt lat="43.56202" lon="6.79086">
        <ele>144.18</ele>
        <time>2016-01-16T16:04:45Z</time>
      </trkpt>
      <trkpt lat="43.56179" lon="6.79089">
        <ele>143.8</ele>
        <time>2016-01-16T16:04:49Z</time>
      </trkpt>
      <trkpt lat="43.56162" lon="6.79079">
        <ele>144.03</ele>
        <time>2016-01-16T16:04:53Z</time>
      </trkpt>
      <trkpt lat="43.56143" lon="6.79064">
        <ele>147.7</ele>
        <time>2016-01-16T16:04:58Z</time>
      </trkpt>
      <trkpt lat="43.56137" lon="6.79038">
        <ele>149.9</ele>
        <time>2016-01-16T16:05:02Z</time>
      </trkpt>
      <trkpt lat="43.56133" lon="6.79013">
        <ele>151.41</ele>
        <time>2016-01-16T16:05:06Z</time>
      </trkpt>
      <trkpt lat="43.56125" lon="6.78987">
        <ele>150.43</ele>
        <time>2016-01-16T16:05:11Z</time>
      </trkpt>
      <trkpt lat="43.56112" lon="6.78964">
        <ele>149.65</ele>
        <time>2016-01-16T16:05:16Z</time>
      </trkpt>
      <trkpt lat="43.561" lon="6.78945">
        <ele>149.83</ele>
        <time>2016-01-16T16:05:20Z</time>
      </trkpt>
      <trkpt lat="43.56088" lon="6.78919">
        <ele>148.54</ele>
        <time>2016-01-16T16:05:25Z</time>
      </trkpt>
      <trkpt lat="43.56079" lon="6.78897">
        <ele>149.07</ele>
        <time>2016-01-16T16:05:29Z</time>
      </trkpt>
      <trkpt lat="43.56061" lon="6.78895">
        <ele>152.7</ele>
        <time>2016-01-16T16:05:34Z</time>
      </trkpt>
      <trkpt lat="43.56042" lon="6.78906">
        <ele>156.16</ele>
        <time>2016-01-16T16:05:39Z</time>
      </trkpt>
      <trkpt lat="43.56023" lon="6.78906">
        <ele>155.46</ele>
        <time>2016-01-16T16:05:44Z</time>
      </trkpt>
      <trkpt lat="43.56004" lon="6.78894">
        <ele>155.26</ele>
        <time>2016-01-16T16:05:48Z</time>
      </trkpt>
      <trkpt lat="43.55983" lon="6.78881">
        <ele>154.87</ele>
        <time>2016-01-16T16:05:52Z</time>
      </trkpt>
      <trkpt lat="43.55965" lon="6.78871">
        <ele>151.76</ele>
        <time>2016-01-16T16:05:55Z</time>
      </trkpt>
      <trkpt lat="43.55948" lon="6.78856">
        <ele>149.12</ele>
        <time>2016-01-16T16:05:58Z</time>
      </trkpt>
      <trkpt lat="43.55924" lon="6.78851">
        <ele>148.79</ele>
        <time>2016-01-16T16:06:01Z</time>
      </trkpt>
      <trkpt lat="43.55902" lon="6.78855">
        <ele>149.63</ele>
        <time>2016-01-16T16:06:04Z</time>
      </trkpt>
      <trkpt lat="43.55714" lon="6.78827">
        <ele>157.23</ele>
        <time>2016-01-16T16:06:52Z</time>
      </trkpt>
      <trkpt lat="43.55709" lon="6.78856">
        <ele>164.93</ele>
        <time>2016-01-16T16:06:57Z</time>
      </trkpt>
      <trkpt lat="43.55686" lon="6.78875">
        <ele>163.6</ele>
        <time>2016-01-16T16:07:01Z</time>
      </trkpt>
      <trkpt lat="43.55668" lon="6.78881">
        <ele>165.85</ele>
        <time>2016-01-16T16:07:04Z</time>
      </trkpt>
      <trkpt lat="43.55652" lon="6.78897">
        <ele>167.34</ele>
        <time>2016-01-16T16:07:08Z</time>
      </trkpt>
      <trkpt lat="43.55642" lon="6.78919">
        <ele>169.06</ele>
        <time>2016-01-16T16:07:12Z</time>
      </trkpt>
      <trkpt lat="43.5563" lon="6.78943">
        <ele>171.29</ele>
        <time>2016-01-16T16:07:16Z</time>
      </trkpt>
      <trkpt lat="43.55612" lon="6.78958">
        <ele>168.94</ele>
        <time>2016-01-16T16:07:19Z</time>
      </trkpt>
      <trkpt lat="43.55595" lon="6.78979">
        <ele>167.47</ele>
        <time>2016-01-16T16:07:23Z</time>
      </trkpt>
      <trkpt lat="43.55579" lon="6.78995">
        <ele>164.71</ele>
        <time>2016-01-16T16:07:26Z</time>
      </trkpt>
      <trkpt lat="43.55575" lon="6.7902">
        <ele>163.12</ele>
        <time>2016-01-16T16:07:29Z</time>
      </trkpt>
      <trkpt lat="43.55575" lon="6.79047">
        <ele>165.17</ele>
        <time>2016-01-16T16:07:32Z</time>
      </trkpt>
      <trkpt lat="43.55564" lon="6.79073">
        <ele>165.18</ele>
        <time>2016-01-16T16:07:36Z</time>
      </trkpt>
      <trkpt lat="43.55557" lon="6.79098">
        <ele>168.8</ele>
        <time>2016-01-16T16:07:40Z</time>
      </trkpt>
      <trkpt lat="43.55553" lon="6.7913">
        <ele>164.01</ele>
        <time>2016-01-16T16:07:45Z</time>
      </trkpt>
      <trkpt lat="43.55541" lon="6.79151">
        <ele>163.14</ele>
        <time>2016-01-16T16:07:51Z</time>
      </trkpt>
      <trkpt lat="43.55521" lon="6.79164">
        <ele>157.42</ele>
        <time>2016-01-16T16:07:56Z</time>
      </trkpt>
      <trkpt lat="43.55506" lon="6.79177">
        <ele>157.75</ele>
        <time>2016-01-16T16:08:00Z</time>
      </trkpt>
      <trkpt lat="43.55501" lon="6.79206">
        <ele>161.43</ele>
        <time>2016-01-16T16:08:08Z</time>
      </trkpt>
      <trkpt lat="43.55496" lon="6.79231">
        <ele>161.97</ele>
        <time>2016-01-16T16:08:13Z</time>
      </trkpt>
      <trkpt lat="43.55474" lon="6.79247">
        <ele>159.01</ele>
        <time>2016-01-16T16:08:18Z</time>
      </trkpt>
      <trkpt lat="43.55456" lon="6.79249">
        <ele>159.41</ele>
        <time>2016-01-16T16:08:21Z</time>
      </trkpt>
      <trkpt lat="43.55431" lon="6.79241">
        <ele>158.07</ele>
        <time>2016-01-16T16:08:25Z</time>
      </trkpt>
      <trkpt lat="43.55414" lon="6.79256">
        <ele>163.42</ele>
        <time>2016-01-16T16:08:29Z</time>
      </trkpt>
      <trkpt lat="43.55402" lon="6.79276">
        <ele>162.71</ele>
        <time>2016-01-16T16:08:32Z</time>
      </trkpt>
      <trkpt lat="43.5541" lon="6.79299">
        <ele>162.74</ele>
        <time>2016-01-16T16:08:35Z</time>
      </trkpt>
      <trkpt lat="43.55389" lon="6.79308">
        <ele>163.9</ele>
        <time>2016-01-16T16:08:39Z</time>
      </trkpt>
      <trkpt lat="43.55367" lon="6.79321">
        <ele>164.45</ele>
        <time>2016-01-16T16:08:44Z</time>
      </trkpt>
      <trkpt lat="43.55351" lon="6.79308">
        <ele>164.49</ele>
        <time>2016-01-16T16:08:46Z</time>
      </trkpt>
      <trkpt lat="43.55336" lon="6.79288">
        <ele>163.7</ele>
        <time>2016-01-16T16:08:50Z</time>
      </trkpt>
      <trkpt lat="43.55316" lon="6.79293">
        <ele>165.74</ele>
        <time>2016-01-16T16:08:53Z</time>
      </trkpt>
      <trkpt lat="43.55298" lon="6.79301">
        <ele>167.27</ele>
        <time>2016-01-16T16:08:57Z</time>
      </trkpt>
      <trkpt lat="43.55276" lon="6.7931">
        <ele>166.24</ele>
        <time>2016-01-16T16:09:01Z</time>
      </trkpt>
      <trkpt lat="43.55251" lon="6.79323">
        <ele>165.43</ele>
        <time>2016-01-16T16:09:04Z</time>
      </trkpt>
      <trkpt lat="43.55238" lon="6.79344">
        <ele>166.5</ele>
        <time>2016-01-16T16:09:08Z</time>
      </trkpt>
      <trkpt lat="43.55242" lon="6.79368">
        <ele>161.87</ele>
        <time>2016-01-16T16:09:13Z</time>
      </trkpt>
    </trkseg>
  </trk>
</gpx>